<?xml version="1.0" encoding="UTF-8"?><gpx xmlns="http://www.topografix.com/GPX/1/1" version="1.1" creator="iOrient"><trk><name>Старый Новый год трейл (Online)</name><trkseg><trkpt lat="56.2897581" lon="44.0164553"><time>2023-05-10T15:53:17</time></trkpt><trkpt lat="56.2897545" lon="44.0164625"><time>2023-05-10T15:53:18</time></trkpt><trkpt lat="56.2897408" lon="44.0164785"><time>2023-05-10T15:53:19</time></trkpt><trkpt lat="56.2897192" lon="44.0165028"><time>2023-05-10T15:53:20</time></trkpt><trkpt lat="56.2896965" lon="44.0165200"><time>2023-05-10T15:53:21</time></trkpt><trkpt lat="56.2896717" lon="44.0165425"><time>2023-05-10T15:53:22</time></trkpt><trkpt lat="56.2896376" lon="44.0165603"><time>2023-05-10T15:53:23</time></trkpt><trkpt lat="56.2896177" lon="44.0165836"><time>2023-05-10T15:53:24</time></trkpt><trkpt lat="56.2895876" lon="44.0165992"><time>2023-05-10T15:53:25</time></trkpt><trkpt lat="56.2895637" lon="44.0166211"><time>2023-05-10T15:53:26</time></trkpt><trkpt lat="56.2895353" lon="44.0166361"><time>2023-05-10T15:53:27</time></trkpt><trkpt lat="56.2895136" lon="44.0166417"><time>2023-05-10T15:53:28</time></trkpt><trkpt lat="56.2894952" lon="44.0166531"><time>2023-05-10T15:53:29</time></trkpt><trkpt lat="56.2894704" lon="44.0166656"><time>2023-05-10T15:53:30</time></trkpt><trkpt lat="56.2894502" lon="44.0166845"><time>2023-05-10T15:53:31</time></trkpt><trkpt lat="56.2894268" lon="44.0167072"><time>2023-05-10T15:53:32</time></trkpt><trkpt lat="56.2894094" lon="44.0167304"><time>2023-05-10T15:53:33</time></trkpt><trkpt lat="56.2893892" lon="44.0167702"><time>2023-05-10T15:53:34</time></trkpt><trkpt lat="56.2893664" lon="44.0167987"><time>2023-05-10T15:53:35</time></trkpt><trkpt lat="56.2893498" lon="44.0168257"><time>2023-05-10T15:53:36</time></trkpt><trkpt lat="56.2893195" lon="44.0168614"><time>2023-05-10T15:53:37</time></trkpt><trkpt lat="56.2892994" lon="44.0168903"><time>2023-05-10T15:53:38</time></trkpt><trkpt lat="56.2892756" lon="44.0169245"><time>2023-05-10T15:53:39</time></trkpt><trkpt lat="56.2892544" lon="44.0169458"><time>2023-05-10T15:53:40</time></trkpt><trkpt lat="56.2892338" lon="44.0169706"><time>2023-05-10T15:53:41</time></trkpt><trkpt lat="56.2892063" lon="44.0170010"><time>2023-05-10T15:53:42</time></trkpt><trkpt lat="56.2891845" lon="44.0170291"><time>2023-05-10T15:53:43</time></trkpt><trkpt lat="56.2891625" lon="44.0170654"><time>2023-05-10T15:53:44</time></trkpt><trkpt lat="56.2891415" lon="44.0170949"><time>2023-05-10T15:53:45</time></trkpt><trkpt lat="56.2891245" lon="44.0171256"><time>2023-05-10T15:53:46</time></trkpt><trkpt lat="56.2891048" lon="44.0171582"><time>2023-05-10T15:53:47</time></trkpt><trkpt lat="56.2890898" lon="44.0171900"><time>2023-05-10T15:53:48</time></trkpt><trkpt lat="56.2890743" lon="44.0172245"><time>2023-05-10T15:53:49</time></trkpt><trkpt lat="56.2890532" lon="44.0172525"><time>2023-05-10T15:53:50</time></trkpt><trkpt lat="56.2890370" lon="44.0172856"><time>2023-05-10T15:53:51</time></trkpt><trkpt lat="56.2890144" lon="44.0173258"><time>2023-05-10T15:53:52</time></trkpt><trkpt lat="56.2889985" lon="44.0173605"><time>2023-05-10T15:53:53</time></trkpt><trkpt lat="56.2889847" lon="44.0173930"><time>2023-05-10T15:53:54</time></trkpt><trkpt lat="56.2889615" lon="44.0174289"><time>2023-05-10T15:53:55</time></trkpt><trkpt lat="56.2889433" lon="44.0174654"><time>2023-05-10T15:53:56</time></trkpt><trkpt lat="56.2889209" lon="44.0174955"><time>2023-05-10T15:53:57</time></trkpt><trkpt lat="56.2888954" lon="44.0175172"><time>2023-05-10T15:53:58</time></trkpt><trkpt lat="56.2888726" lon="44.0175446"><time>2023-05-10T15:53:59</time></trkpt><trkpt lat="56.2888424" lon="44.0175618"><time>2023-05-10T15:54:00</time></trkpt><trkpt lat="56.2888156" lon="44.0175772"><time>2023-05-10T15:54:01</time></trkpt><trkpt lat="56.2887944" lon="44.0175904"><time>2023-05-10T15:54:02</time></trkpt><trkpt lat="56.2887650" lon="44.0176036"><time>2023-05-10T15:54:03</time></trkpt><trkpt lat="56.2887423" lon="44.0176135"><time>2023-05-10T15:54:04</time></trkpt><trkpt lat="56.2887187" lon="44.0176251"><time>2023-05-10T15:54:05</time></trkpt><trkpt lat="56.2886947" lon="44.0176289"><time>2023-05-10T15:54:06</time></trkpt><trkpt lat="56.2886702" lon="44.0176445"><time>2023-05-10T15:54:07</time></trkpt><trkpt lat="56.2886452" lon="44.0176639"><time>2023-05-10T15:54:08</time></trkpt><trkpt lat="56.2886215" lon="44.0176769"><time>2023-05-10T15:54:09</time></trkpt><trkpt lat="56.2886023" lon="44.0176958"><time>2023-05-10T15:54:10</time></trkpt><trkpt lat="56.2885804" lon="44.0177126"><time>2023-05-10T15:54:11</time></trkpt><trkpt lat="56.2885552" lon="44.0177252"><time>2023-05-10T15:54:12</time></trkpt><trkpt lat="56.2885337" lon="44.0177424"><time>2023-05-10T15:54:13</time></trkpt><trkpt lat="56.2885083" lon="44.0177578"><time>2023-05-10T15:54:14</time></trkpt><trkpt lat="56.2884798" lon="44.0177642"><time>2023-05-10T15:54:15</time></trkpt><trkpt lat="56.2884558" lon="44.0177796"><time>2023-05-10T15:54:16</time></trkpt><trkpt lat="56.2884320" lon="44.0177932"><time>2023-05-10T15:54:17</time></trkpt><trkpt lat="56.2884074" lon="44.0178017"><time>2023-05-10T15:54:18</time></trkpt><trkpt lat="56.2883821" lon="44.0178186"><time>2023-05-10T15:54:19</time></trkpt><trkpt lat="56.2883571" lon="44.0178336"><time>2023-05-10T15:54:20</time></trkpt><trkpt lat="56.2883338" lon="44.0178489"><time>2023-05-10T15:54:21</time></trkpt><trkpt lat="56.2883151" lon="44.0178681"><time>2023-05-10T15:54:22</time></trkpt><trkpt lat="56.2882916" lon="44.0178846"><time>2023-05-10T15:54:23</time></trkpt><trkpt lat="56.2882620" lon="44.0178986"><time>2023-05-10T15:54:24</time></trkpt><trkpt lat="56.2882395" lon="44.0179181"><time>2023-05-10T15:54:25</time></trkpt><trkpt lat="56.2882152" lon="44.0179335"><time>2023-05-10T15:54:26</time></trkpt><trkpt lat="56.2881884" lon="44.0179456"><time>2023-05-10T15:54:27</time></trkpt><trkpt lat="56.2881643" lon="44.0179653"><time>2023-05-10T15:54:28</time></trkpt><trkpt lat="56.2881417" lon="44.0179802"><time>2023-05-10T15:54:29</time></trkpt><trkpt lat="56.2881184" lon="44.0179942"><time>2023-05-10T15:54:30</time></trkpt><trkpt lat="56.2881001" lon="44.0180155"><time>2023-05-10T15:54:31</time></trkpt><trkpt lat="56.2880792" lon="44.0180325"><time>2023-05-10T15:54:32</time></trkpt><trkpt lat="56.2880590" lon="44.0180408"><time>2023-05-10T15:54:33</time></trkpt><trkpt lat="56.2880381" lon="44.0180592"><time>2023-05-10T15:54:34</time></trkpt><trkpt lat="56.2880103" lon="44.0180806"><time>2023-05-10T15:54:35</time></trkpt><trkpt lat="56.2879842" lon="44.0180969"><time>2023-05-10T15:54:36</time></trkpt><trkpt lat="56.2879618" lon="44.0181166"><time>2023-05-10T15:54:37</time></trkpt><trkpt lat="56.2879418" lon="44.0181390"><time>2023-05-10T15:54:38</time></trkpt><trkpt lat="56.2879165" lon="44.0181547"><time>2023-05-10T15:54:39</time></trkpt><trkpt lat="56.2878929" lon="44.0181755"><time>2023-05-10T15:54:40</time></trkpt><trkpt lat="56.2878685" lon="44.0181928"><time>2023-05-10T15:54:41</time></trkpt><trkpt lat="56.2878445" lon="44.0182070"><time>2023-05-10T15:54:42</time></trkpt><trkpt lat="56.2878247" lon="44.0182243"><time>2023-05-10T15:54:43</time></trkpt><trkpt lat="56.2877991" lon="44.0182444"><time>2023-05-10T15:54:44</time></trkpt><trkpt lat="56.2877712" lon="44.0182584"><time>2023-05-10T15:54:45</time></trkpt><trkpt lat="56.2877493" lon="44.0182768"><time>2023-05-10T15:54:46</time></trkpt><trkpt lat="56.2877217" lon="44.0182987"><time>2023-05-10T15:54:47</time></trkpt><trkpt lat="56.2876989" lon="44.0183226"><time>2023-05-10T15:54:48</time></trkpt><trkpt lat="56.2876825" lon="44.0183488"><time>2023-05-10T15:54:49</time></trkpt><trkpt lat="56.2876632" lon="44.0183787"><time>2023-05-10T15:54:50</time></trkpt><trkpt lat="56.2876347" lon="44.0183970"><time>2023-05-10T15:54:51</time></trkpt><trkpt lat="56.2876132" lon="44.0184130"><time>2023-05-10T15:54:52</time></trkpt><trkpt lat="56.2875844" lon="44.0184270"><time>2023-05-10T15:54:53</time></trkpt><trkpt lat="56.2875539" lon="44.0184361"><time>2023-05-10T15:54:54</time></trkpt><trkpt lat="56.2875283" lon="44.0184509"><time>2023-05-10T15:54:55</time></trkpt><trkpt lat="56.2875011" lon="44.0184682"><time>2023-05-10T15:54:56</time></trkpt><trkpt lat="56.2874745" lon="44.0184732"><time>2023-05-10T15:54:57</time></trkpt><trkpt lat="56.2874496" lon="44.0184849"><time>2023-05-10T15:54:58</time></trkpt><trkpt lat="56.2874234" lon="44.0184976"><time>2023-05-10T15:54:59</time></trkpt><trkpt lat="56.2873978" lon="44.0185025"><time>2023-05-10T15:55:00</time></trkpt><trkpt lat="56.2873717" lon="44.0185104"><time>2023-05-10T15:55:01</time></trkpt><trkpt lat="56.2873455" lon="44.0184930"><time>2023-05-10T15:55:02</time></trkpt><trkpt lat="56.2873340" lon="44.0184504"><time>2023-05-10T15:55:03</time></trkpt><trkpt lat="56.2873355" lon="44.0184086"><time>2023-05-10T15:55:04</time></trkpt><trkpt lat="56.2873491" lon="44.0183634"><time>2023-05-10T15:55:05</time></trkpt><trkpt lat="56.2873721" lon="44.0183206"><time>2023-05-10T15:55:06</time></trkpt><trkpt lat="56.2873949" lon="44.0182848"><time>2023-05-10T15:55:07</time></trkpt><trkpt lat="56.2874189" lon="44.0182483"><time>2023-05-10T15:55:08</time></trkpt><trkpt lat="56.2874393" lon="44.0182111"><time>2023-05-10T15:55:09</time></trkpt><trkpt lat="56.2874550" lon="44.0181732"><time>2023-05-10T15:55:10</time></trkpt><trkpt lat="56.2874708" lon="44.0181248"><time>2023-05-10T15:55:11</time></trkpt><trkpt lat="56.2874803" lon="44.0180774"><time>2023-05-10T15:55:12</time></trkpt><trkpt lat="56.2874854" lon="44.0180331"><time>2023-05-10T15:55:13</time></trkpt><trkpt lat="56.2874907" lon="44.0179837"><time>2023-05-10T15:55:14</time></trkpt><trkpt lat="56.2874923" lon="44.0179380"><time>2023-05-10T15:55:15</time></trkpt><trkpt lat="56.2874875" lon="44.0178867"><time>2023-05-10T15:55:16</time></trkpt><trkpt lat="56.2874791" lon="44.0178362"><time>2023-05-10T15:55:17</time></trkpt><trkpt lat="56.2874748" lon="44.0177976"><time>2023-05-10T15:55:18</time></trkpt><trkpt lat="56.2874667" lon="44.0177560"><time>2023-05-10T15:55:19</time></trkpt><trkpt lat="56.2874586" lon="44.0177197"><time>2023-05-10T15:55:20</time></trkpt><trkpt lat="56.2874519" lon="44.0176762"><time>2023-05-10T15:55:21</time></trkpt><trkpt lat="56.2874458" lon="44.0176346"><time>2023-05-10T15:55:22</time></trkpt><trkpt lat="56.2874410" lon="44.0175943"><time>2023-05-10T15:55:23</time></trkpt><trkpt lat="56.2874342" lon="44.0175601"><time>2023-05-10T15:55:24</time></trkpt><trkpt lat="56.2874275" lon="44.0175171"><time>2023-05-10T15:55:25</time></trkpt><trkpt lat="56.2874199" lon="44.0174860"><time>2023-05-10T15:55:26</time></trkpt><trkpt lat="56.2874081" lon="44.0174330"><time>2023-05-10T15:55:27</time></trkpt><trkpt lat="56.2874007" lon="44.0173791"><time>2023-05-10T15:55:28</time></trkpt><trkpt lat="56.2873938" lon="44.0173409"><time>2023-05-10T15:55:29</time></trkpt><trkpt lat="56.2873881" lon="44.0172951"><time>2023-05-10T15:55:30</time></trkpt><trkpt lat="56.2873828" lon="44.0172598"><time>2023-05-10T15:55:31</time></trkpt><trkpt lat="56.2873693" lon="44.0172136"><time>2023-05-10T15:55:32</time></trkpt><trkpt lat="56.2873578" lon="44.0171628"><time>2023-05-10T15:55:33</time></trkpt><trkpt lat="56.2873499" lon="44.0171263"><time>2023-05-10T15:55:34</time></trkpt><trkpt lat="56.2873383" lon="44.0170716"><time>2023-05-10T15:55:35</time></trkpt><trkpt lat="56.2873239" lon="44.0170230"><time>2023-05-10T15:55:36</time></trkpt><trkpt lat="56.2873081" lon="44.0169799"><time>2023-05-10T15:55:37</time></trkpt><trkpt lat="56.2872905" lon="44.0169334"><time>2023-05-10T15:55:38</time></trkpt><trkpt lat="56.2872715" lon="44.0168919"><time>2023-05-10T15:55:39</time></trkpt><trkpt lat="56.2872534" lon="44.0168603"><time>2023-05-10T15:55:40</time></trkpt><trkpt lat="56.2872311" lon="44.0168298"><time>2023-05-10T15:55:41</time></trkpt><trkpt lat="56.2872051" lon="44.0168027"><time>2023-05-10T15:55:42</time></trkpt><trkpt lat="56.2871798" lon="44.0167766"><time>2023-05-10T15:55:43</time></trkpt><trkpt lat="56.2871540" lon="44.0167449"><time>2023-05-10T15:55:44</time></trkpt><trkpt lat="56.2871286" lon="44.0167144"><time>2023-05-10T15:55:45</time></trkpt><trkpt lat="56.2871045" lon="44.0166861"><time>2023-05-10T15:55:46</time></trkpt><trkpt lat="56.2870815" lon="44.0166554"><time>2023-05-10T15:55:47</time></trkpt><trkpt lat="56.2870569" lon="44.0166212"><time>2023-05-10T15:55:48</time></trkpt><trkpt lat="56.2870296" lon="44.0165922"><time>2023-05-10T15:55:49</time></trkpt><trkpt lat="56.2870037" lon="44.0165656"><time>2023-05-10T15:55:50</time></trkpt><trkpt lat="56.2869797" lon="44.0165388"><time>2023-05-10T15:55:51</time></trkpt><trkpt lat="56.2869530" lon="44.0165180"><time>2023-05-10T15:55:52</time></trkpt><trkpt lat="56.2869251" lon="44.0164935"><time>2023-05-10T15:55:53</time></trkpt><trkpt lat="56.2869011" lon="44.0164744"><time>2023-05-10T15:55:54</time></trkpt><trkpt lat="56.2868766" lon="44.0164575"><time>2023-05-10T15:55:55</time></trkpt><trkpt lat="56.2868464" lon="44.0164442"><time>2023-05-10T15:55:56</time></trkpt><trkpt lat="56.2868194" lon="44.0164350"><time>2023-05-10T15:55:57</time></trkpt><trkpt lat="56.2867914" lon="44.0164250"><time>2023-05-10T15:55:58</time></trkpt><trkpt lat="56.2867645" lon="44.0164138"><time>2023-05-10T15:55:59</time></trkpt><trkpt lat="56.2867382" lon="44.0164086"><time>2023-05-10T15:56:00</time></trkpt><trkpt lat="56.2867103" lon="44.0164001"><time>2023-05-10T15:56:01</time></trkpt><trkpt lat="56.2866842" lon="44.0163852"><time>2023-05-10T15:56:02</time></trkpt><trkpt lat="56.2866593" lon="44.0163696"><time>2023-05-10T15:56:03</time></trkpt><trkpt lat="56.2866317" lon="44.0163539"><time>2023-05-10T15:56:04</time></trkpt><trkpt lat="56.2866054" lon="44.0163379"><time>2023-05-10T15:56:05</time></trkpt><trkpt lat="56.2865811" lon="44.0163189"><time>2023-05-10T15:56:06</time></trkpt><trkpt lat="56.2865551" lon="44.0162981"><time>2023-05-10T15:56:07</time></trkpt><trkpt lat="56.2865321" lon="44.0162713"><time>2023-05-10T15:56:08</time></trkpt><trkpt lat="56.2865096" lon="44.0162553"><time>2023-05-10T15:56:09</time></trkpt><trkpt lat="56.2864863" lon="44.0162377"><time>2023-05-10T15:56:10</time></trkpt><trkpt lat="56.2864641" lon="44.0162153"><time>2023-05-10T15:56:11</time></trkpt><trkpt lat="56.2864438" lon="44.0161999"><time>2023-05-10T15:56:12</time></trkpt><trkpt lat="56.2864250" lon="44.0161868"><time>2023-05-10T15:56:13</time></trkpt><trkpt lat="56.2864053" lon="44.0161737"><time>2023-05-10T15:56:14</time></trkpt><trkpt lat="56.2863846" lon="44.0161603"><time>2023-05-10T15:56:15</time></trkpt><trkpt lat="56.2863628" lon="44.0161422"><time>2023-05-10T15:56:16</time></trkpt><trkpt lat="56.2863400" lon="44.0161186"><time>2023-05-10T15:56:17</time></trkpt><trkpt lat="56.2863218" lon="44.0160986"><time>2023-05-10T15:56:18</time></trkpt><trkpt lat="56.2863015" lon="44.0160693"><time>2023-05-10T15:56:19</time></trkpt><trkpt lat="56.2862824" lon="44.0160406"><time>2023-05-10T15:56:20</time></trkpt><trkpt lat="56.2862635" lon="44.0160192"><time>2023-05-10T15:56:21</time></trkpt><trkpt lat="56.2862439" lon="44.0159932"><time>2023-05-10T15:56:22</time></trkpt><trkpt lat="56.2862212" lon="44.0159642"><time>2023-05-10T15:56:23</time></trkpt><trkpt lat="56.2861972" lon="44.0159416"><time>2023-05-10T15:56:24</time></trkpt><trkpt lat="56.2861744" lon="44.0159252"><time>2023-05-10T15:56:25</time></trkpt><trkpt lat="56.2861498" lon="44.0159052"><time>2023-05-10T15:56:26</time></trkpt><trkpt lat="56.2861273" lon="44.0158899"><time>2023-05-10T15:56:27</time></trkpt><trkpt lat="56.2861022" lon="44.0158670"><time>2023-05-10T15:56:28</time></trkpt><trkpt lat="56.2860790" lon="44.0158465"><time>2023-05-10T15:56:29</time></trkpt><trkpt lat="56.2860570" lon="44.0158248"><time>2023-05-10T15:56:30</time></trkpt><trkpt lat="56.2860332" lon="44.0158023"><time>2023-05-10T15:56:31</time></trkpt><trkpt lat="56.2860123" lon="44.0157828"><time>2023-05-10T15:56:32</time></trkpt><trkpt lat="56.2859916" lon="44.0157626"><time>2023-05-10T15:56:33</time></trkpt><trkpt lat="56.2859665" lon="44.0157425"><time>2023-05-10T15:56:34</time></trkpt><trkpt lat="56.2859416" lon="44.0157223"><time>2023-05-10T15:56:35</time></trkpt><trkpt lat="56.2859179" lon="44.0157014"><time>2023-05-10T15:56:36</time></trkpt><trkpt lat="56.2858917" lon="44.0156844"><time>2023-05-10T15:56:37</time></trkpt><trkpt lat="56.2858685" lon="44.0156627"><time>2023-05-10T15:56:38</time></trkpt><trkpt lat="56.2858434" lon="44.0156438"><time>2023-05-10T15:56:39</time></trkpt><trkpt lat="56.2858213" lon="44.0156207"><time>2023-05-10T15:56:40</time></trkpt><trkpt lat="56.2857999" lon="44.0155958"><time>2023-05-10T15:56:41</time></trkpt><trkpt lat="56.2857767" lon="44.0155813"><time>2023-05-10T15:56:42</time></trkpt><trkpt lat="56.2857554" lon="44.0155654"><time>2023-05-10T15:56:43</time></trkpt><trkpt lat="56.2857368" lon="44.0155490"><time>2023-05-10T15:56:44</time></trkpt><trkpt lat="56.2857173" lon="44.0155404"><time>2023-05-10T15:56:45</time></trkpt><trkpt lat="56.2856960" lon="44.0155332"><time>2023-05-10T15:56:46</time></trkpt><trkpt lat="56.2856698" lon="44.0155178"><time>2023-05-10T15:56:47</time></trkpt><trkpt lat="56.2856483" lon="44.0154992"><time>2023-05-10T15:56:48</time></trkpt><trkpt lat="56.2856242" lon="44.0154715"><time>2023-05-10T15:56:49</time></trkpt><trkpt lat="56.2855984" lon="44.0154499"><time>2023-05-10T15:56:50</time></trkpt><trkpt lat="56.2855757" lon="44.0154329"><time>2023-05-10T15:56:51</time></trkpt><trkpt lat="56.2855508" lon="44.0154182"><time>2023-05-10T15:56:52</time></trkpt><trkpt lat="56.2855238" lon="44.0154036"><time>2023-05-10T15:56:53</time></trkpt><trkpt lat="56.2854957" lon="44.0153902"><time>2023-05-10T15:56:54</time></trkpt><trkpt lat="56.2854664" lon="44.0153796"><time>2023-05-10T15:56:55</time></trkpt><trkpt lat="56.2854383" lon="44.0153649"><time>2023-05-10T15:56:56</time></trkpt><trkpt lat="56.2854104" lon="44.0153544"><time>2023-05-10T15:56:57</time></trkpt><trkpt lat="56.2853812" lon="44.0153400"><time>2023-05-10T15:56:58</time></trkpt><trkpt lat="56.2853558" lon="44.0153236"><time>2023-05-10T15:56:59</time></trkpt><trkpt lat="56.2853265" lon="44.0153046"><time>2023-05-10T15:57:00</time></trkpt><trkpt lat="56.2853002" lon="44.0152872"><time>2023-05-10T15:57:01</time></trkpt><trkpt lat="56.2852777" lon="44.0152777"><time>2023-05-10T15:57:02</time></trkpt><trkpt lat="56.2852536" lon="44.0152685"><time>2023-05-10T15:57:03</time></trkpt><trkpt lat="56.2852280" lon="44.0152531"><time>2023-05-10T15:57:04</time></trkpt><trkpt lat="56.2852032" lon="44.0152424"><time>2023-05-10T15:57:05</time></trkpt><trkpt lat="56.2851786" lon="44.0152416"><time>2023-05-10T15:57:06</time></trkpt><trkpt lat="56.2851548" lon="44.0152403"><time>2023-05-10T15:57:07</time></trkpt><trkpt lat="56.2851270" lon="44.0152405"><time>2023-05-10T15:57:08</time></trkpt><trkpt lat="56.2850972" lon="44.0152426"><time>2023-05-10T15:57:09</time></trkpt><trkpt lat="56.2850675" lon="44.0152500"><time>2023-05-10T15:57:10</time></trkpt><trkpt lat="56.2850422" lon="44.0152548"><time>2023-05-10T15:57:11</time></trkpt><trkpt lat="56.2850129" lon="44.0152632"><time>2023-05-10T15:57:12</time></trkpt><trkpt lat="56.2849841" lon="44.0152614"><time>2023-05-10T15:57:13</time></trkpt><trkpt lat="56.2849546" lon="44.0152610"><time>2023-05-10T15:57:14</time></trkpt><trkpt lat="56.2849248" lon="44.0152550"><time>2023-05-10T15:57:15</time></trkpt><trkpt lat="56.2848962" lon="44.0152467"><time>2023-05-10T15:57:16</time></trkpt><trkpt lat="56.2848676" lon="44.0152408"><time>2023-05-10T15:57:17</time></trkpt><trkpt lat="56.2848379" lon="44.0152518"><time>2023-05-10T15:57:18</time></trkpt><trkpt lat="56.2848112" lon="44.0152693"><time>2023-05-10T15:57:19</time></trkpt><trkpt lat="56.2847861" lon="44.0152983"><time>2023-05-10T15:57:20</time></trkpt><trkpt lat="56.2847634" lon="44.0153300"><time>2023-05-10T15:57:21</time></trkpt><trkpt lat="56.2847406" lon="44.0153640"><time>2023-05-10T15:57:22</time></trkpt><trkpt lat="56.2847190" lon="44.0153994"><time>2023-05-10T15:57:23</time></trkpt><trkpt lat="56.2846963" lon="44.0154411"><time>2023-05-10T15:57:24</time></trkpt><trkpt lat="56.2846754" lon="44.0154779"><time>2023-05-10T15:57:25</time></trkpt><trkpt lat="56.2846540" lon="44.0155099"><time>2023-05-10T15:57:26</time></trkpt><trkpt lat="56.2846306" lon="44.0155408"><time>2023-05-10T15:57:27</time></trkpt><trkpt lat="56.2846054" lon="44.0155710"><time>2023-05-10T15:57:28</time></trkpt><trkpt lat="56.2845852" lon="44.0156015"><time>2023-05-10T15:57:29</time></trkpt><trkpt lat="56.2845593" lon="44.0156322"><time>2023-05-10T15:57:30</time></trkpt><trkpt lat="56.2845354" lon="44.0156596"><time>2023-05-10T15:57:31</time></trkpt><trkpt lat="56.2845150" lon="44.0156951"><time>2023-05-10T15:57:32</time></trkpt><trkpt lat="56.2844954" lon="44.0157384"><time>2023-05-10T15:57:33</time></trkpt><trkpt lat="56.2844780" lon="44.0157827"><time>2023-05-10T15:57:34</time></trkpt><trkpt lat="56.2844620" lon="44.0158377"><time>2023-05-10T15:57:35</time></trkpt><trkpt lat="56.2844474" lon="44.0158860"><time>2023-05-10T15:57:36</time></trkpt><trkpt lat="56.2844373" lon="44.0159324"><time>2023-05-10T15:57:37</time></trkpt><trkpt lat="56.2844316" lon="44.0159836"><time>2023-05-10T15:57:38</time></trkpt><trkpt lat="56.2844246" lon="44.0160392"><time>2023-05-10T15:57:39</time></trkpt><trkpt lat="56.2844172" lon="44.0160961"><time>2023-05-10T15:57:40</time></trkpt><trkpt lat="56.2844115" lon="44.0161548"><time>2023-05-10T15:57:41</time></trkpt><trkpt lat="56.2844096" lon="44.0162054"><time>2023-05-10T15:57:42</time></trkpt><trkpt lat="56.2844052" lon="44.0162617"><time>2023-05-10T15:57:43</time></trkpt><trkpt lat="56.2844019" lon="44.0163135"><time>2023-05-10T15:57:44</time></trkpt><trkpt lat="56.2844013" lon="44.0163607"><time>2023-05-10T15:57:45</time></trkpt><trkpt lat="56.2843987" lon="44.0164136"><time>2023-05-10T15:57:46</time></trkpt><trkpt lat="56.2843954" lon="44.0164707"><time>2023-05-10T15:57:47</time></trkpt><trkpt lat="56.2843914" lon="44.0165303"><time>2023-05-10T15:57:48</time></trkpt><trkpt lat="56.2843833" lon="44.0166027"><time>2023-05-10T15:57:49</time></trkpt><trkpt lat="56.2843755" lon="44.0166583"><time>2023-05-10T15:57:50</time></trkpt><trkpt lat="56.2843675" lon="44.0167079"><time>2023-05-10T15:57:51</time></trkpt><trkpt lat="56.2843571" lon="44.0167627"><time>2023-05-10T15:57:52</time></trkpt><trkpt lat="56.2843448" lon="44.0168161"><time>2023-05-10T15:57:53</time></trkpt><trkpt lat="56.2843297" lon="44.0168719"><time>2023-05-10T15:57:54</time></trkpt><trkpt lat="56.2843117" lon="44.0169262"><time>2023-05-10T15:57:55</time></trkpt><trkpt lat="56.2842978" lon="44.0169705"><time>2023-05-10T15:57:56</time></trkpt><trkpt lat="56.2842806" lon="44.0170162"><time>2023-05-10T15:57:57</time></trkpt><trkpt lat="56.2842602" lon="44.0170607"><time>2023-05-10T15:57:58</time></trkpt><trkpt lat="56.2842445" lon="44.0171001"><time>2023-05-10T15:57:59</time></trkpt><trkpt lat="56.2842269" lon="44.0171469"><time>2023-05-10T15:58:00</time></trkpt><trkpt lat="56.2842102" lon="44.0171913"><time>2023-05-10T15:58:01</time></trkpt><trkpt lat="56.2841945" lon="44.0172371"><time>2023-05-10T15:58:02</time></trkpt><trkpt lat="56.2841773" lon="44.0172860"><time>2023-05-10T15:58:03</time></trkpt><trkpt lat="56.2841648" lon="44.0173315"><time>2023-05-10T15:58:04</time></trkpt><trkpt lat="56.2841493" lon="44.0173837"><time>2023-05-10T15:58:05</time></trkpt><trkpt lat="56.2841297" lon="44.0174345"><time>2023-05-10T15:58:06</time></trkpt><trkpt lat="56.2841104" lon="44.0174755"><time>2023-05-10T15:58:07</time></trkpt><trkpt lat="56.2840833" lon="44.0175169"><time>2023-05-10T15:58:08</time></trkpt><trkpt lat="56.2840529" lon="44.0175406"><time>2023-05-10T15:58:09</time></trkpt><trkpt lat="56.2840251" lon="44.0175609"><time>2023-05-10T15:58:10</time></trkpt><trkpt lat="56.2839957" lon="44.0175733"><time>2023-05-10T15:58:11</time></trkpt><trkpt lat="56.2839641" lon="44.0175811"><time>2023-05-10T15:58:12</time></trkpt><trkpt lat="56.2839320" lon="44.0175906"><time>2023-05-10T15:58:13</time></trkpt><trkpt lat="56.2838967" lon="44.0175965"><time>2023-05-10T15:58:14</time></trkpt><trkpt lat="56.2838673" lon="44.0176040"><time>2023-05-10T15:58:15</time></trkpt><trkpt lat="56.2838346" lon="44.0176156"><time>2023-05-10T15:58:16</time></trkpt><trkpt lat="56.2838022" lon="44.0176227"><time>2023-05-10T15:58:17</time></trkpt><trkpt lat="56.2837699" lon="44.0176290"><time>2023-05-10T15:58:18</time></trkpt><trkpt lat="56.2837374" lon="44.0176391"><time>2023-05-10T15:58:19</time></trkpt><trkpt lat="56.2837082" lon="44.0176394"><time>2023-05-10T15:58:20</time></trkpt><trkpt lat="56.2836758" lon="44.0176331"><time>2023-05-10T15:58:21</time></trkpt><trkpt lat="56.2836468" lon="44.0176208"><time>2023-05-10T15:58:22</time></trkpt><trkpt lat="56.2836185" lon="44.0176165"><time>2023-05-10T15:58:23</time></trkpt><trkpt lat="56.2835894" lon="44.0176207"><time>2023-05-10T15:58:24</time></trkpt><trkpt lat="56.2835605" lon="44.0176346"><time>2023-05-10T15:58:25</time></trkpt><trkpt lat="56.2835322" lon="44.0176547"><time>2023-05-10T15:58:26</time></trkpt><trkpt lat="56.2835011" lon="44.0176812"><time>2023-05-10T15:58:27</time></trkpt><trkpt lat="56.2834739" lon="44.0177052"><time>2023-05-10T15:58:28</time></trkpt><trkpt lat="56.2834446" lon="44.0177339"><time>2023-05-10T15:58:29</time></trkpt><trkpt lat="56.2834153" lon="44.0177575"><time>2023-05-10T15:58:30</time></trkpt><trkpt lat="56.2833896" lon="44.0177786"><time>2023-05-10T15:58:31</time></trkpt><trkpt lat="56.2833615" lon="44.0178093"><time>2023-05-10T15:58:32</time></trkpt><trkpt lat="56.2833334" lon="44.0178327"><time>2023-05-10T15:58:33</time></trkpt><trkpt lat="56.2833053" lon="44.0178544"><time>2023-05-10T15:58:34</time></trkpt><trkpt lat="56.2832746" lon="44.0178740"><time>2023-05-10T15:58:35</time></trkpt><trkpt lat="56.2832470" lon="44.0178900"><time>2023-05-10T15:58:36</time></trkpt><trkpt lat="56.2832183" lon="44.0179113"><time>2023-05-10T15:58:37</time></trkpt><trkpt lat="56.2831878" lon="44.0179295"><time>2023-05-10T15:58:38</time></trkpt><trkpt lat="56.2831629" lon="44.0179492"><time>2023-05-10T15:58:39</time></trkpt><trkpt lat="56.2831388" lon="44.0179674"><time>2023-05-10T15:58:40</time></trkpt><trkpt lat="56.2831097" lon="44.0179869"><time>2023-05-10T15:58:41</time></trkpt><trkpt lat="56.2830824" lon="44.0180002"><time>2023-05-10T15:58:42</time></trkpt><trkpt lat="56.2830545" lon="44.0180158"><time>2023-05-10T15:58:43</time></trkpt><trkpt lat="56.2830285" lon="44.0180261"><time>2023-05-10T15:58:44</time></trkpt><trkpt lat="56.2830069" lon="44.0180414"><time>2023-05-10T15:58:45</time></trkpt><trkpt lat="56.2829716" lon="44.0180576"><time>2023-05-10T15:58:46</time></trkpt><trkpt lat="56.2829447" lon="44.0180755"><time>2023-05-10T15:58:47</time></trkpt><trkpt lat="56.2829141" lon="44.0181016"><time>2023-05-10T15:58:48</time></trkpt><trkpt lat="56.2828868" lon="44.0181224"><time>2023-05-10T15:58:49</time></trkpt><trkpt lat="56.2828624" lon="44.0181457"><time>2023-05-10T15:58:50</time></trkpt><trkpt lat="56.2828323" lon="44.0181724"><time>2023-05-10T15:58:51</time></trkpt><trkpt lat="56.2828072" lon="44.0181987"><time>2023-05-10T15:58:52</time></trkpt><trkpt lat="56.2827778" lon="44.0182311"><time>2023-05-10T15:58:53</time></trkpt><trkpt lat="56.2827518" lon="44.0182563"><time>2023-05-10T15:58:54</time></trkpt><trkpt lat="56.2827278" lon="44.0182874"><time>2023-05-10T15:58:55</time></trkpt><trkpt lat="56.2827013" lon="44.0183160"><time>2023-05-10T15:58:56</time></trkpt><trkpt lat="56.2826758" lon="44.0183452"><time>2023-05-10T15:58:57</time></trkpt><trkpt lat="56.2826469" lon="44.0183738"><time>2023-05-10T15:58:58</time></trkpt><trkpt lat="56.2826220" lon="44.0183976"><time>2023-05-10T15:58:59</time></trkpt><trkpt lat="56.2825974" lon="44.0184236"><time>2023-05-10T15:59:00</time></trkpt><trkpt lat="56.2825697" lon="44.0184579"><time>2023-05-10T15:59:01</time></trkpt><trkpt lat="56.2825461" lon="44.0184781"><time>2023-05-10T15:59:02</time></trkpt><trkpt lat="56.2825214" lon="44.0185030"><time>2023-05-10T15:59:03</time></trkpt><trkpt lat="56.2824959" lon="44.0185309"><time>2023-05-10T15:59:04</time></trkpt><trkpt lat="56.2824715" lon="44.0185509"><time>2023-05-10T15:59:05</time></trkpt><trkpt lat="56.2824442" lon="44.0185683"><time>2023-05-10T15:59:06</time></trkpt><trkpt lat="56.2824161" lon="44.0185829"><time>2023-05-10T15:59:07</time></trkpt><trkpt lat="56.2823895" lon="44.0185961"><time>2023-05-10T15:59:08</time></trkpt><trkpt lat="56.2823598" lon="44.0186093"><time>2023-05-10T15:59:09</time></trkpt><trkpt lat="56.2823313" lon="44.0186210"><time>2023-05-10T15:59:10</time></trkpt><trkpt lat="56.2823049" lon="44.0186307"><time>2023-05-10T15:59:11</time></trkpt><trkpt lat="56.2822785" lon="44.0186415"><time>2023-05-10T15:59:12</time></trkpt><trkpt lat="56.2822545" lon="44.0186554"><time>2023-05-10T15:59:13</time></trkpt><trkpt lat="56.2822292" lon="44.0186693"><time>2023-05-10T15:59:14</time></trkpt><trkpt lat="56.2822073" lon="44.0186852"><time>2023-05-10T15:59:15</time></trkpt><trkpt lat="56.2821831" lon="44.0186992"><time>2023-05-10T15:59:16</time></trkpt><trkpt lat="56.2821575" lon="44.0187134"><time>2023-05-10T15:59:17</time></trkpt><trkpt lat="56.2821341" lon="44.0187266"><time>2023-05-10T15:59:18</time></trkpt><trkpt lat="56.2821101" lon="44.0187407"><time>2023-05-10T15:59:19</time></trkpt><trkpt lat="56.2820822" lon="44.0187598"><time>2023-05-10T15:59:20</time></trkpt><trkpt lat="56.2820581" lon="44.0187781"><time>2023-05-10T15:59:21</time></trkpt><trkpt lat="56.2820345" lon="44.0187954"><time>2023-05-10T15:59:22</time></trkpt><trkpt lat="56.2820138" lon="44.0188186"><time>2023-05-10T15:59:23</time></trkpt><trkpt lat="56.2819862" lon="44.0188423"><time>2023-05-10T15:59:24</time></trkpt><trkpt lat="56.2819608" lon="44.0188649"><time>2023-05-10T15:59:25</time></trkpt><trkpt lat="56.2819384" lon="44.0188821"><time>2023-05-10T15:59:26</time></trkpt><trkpt lat="56.2819165" lon="44.0188904"><time>2023-05-10T15:59:27</time></trkpt><trkpt lat="56.2818941" lon="44.0188912"><time>2023-05-10T15:59:28</time></trkpt><trkpt lat="56.2818713" lon="44.0188810"><time>2023-05-10T15:59:29</time></trkpt><trkpt lat="56.2818477" lon="44.0188616"><time>2023-05-10T15:59:30</time></trkpt><trkpt lat="56.2818204" lon="44.0188386"><time>2023-05-10T15:59:31</time></trkpt><trkpt lat="56.2817957" lon="44.0188103"><time>2023-05-10T15:59:32</time></trkpt><trkpt lat="56.2817740" lon="44.0187875"><time>2023-05-10T15:59:33</time></trkpt><trkpt lat="56.2817483" lon="44.0187646"><time>2023-05-10T15:59:34</time></trkpt><trkpt lat="56.2817256" lon="44.0187370"><time>2023-05-10T15:59:35</time></trkpt><trkpt lat="56.2817035" lon="44.0187106"><time>2023-05-10T15:59:36</time></trkpt><trkpt lat="56.2816823" lon="44.0186777"><time>2023-05-10T15:59:37</time></trkpt><trkpt lat="56.2816646" lon="44.0186454"><time>2023-05-10T15:59:38</time></trkpt><trkpt lat="56.2816430" lon="44.0186143"><time>2023-05-10T15:59:39</time></trkpt><trkpt lat="56.2816218" lon="44.0185804"><time>2023-05-10T15:59:40</time></trkpt><trkpt lat="56.2816008" lon="44.0185518"><time>2023-05-10T15:59:41</time></trkpt><trkpt lat="56.2815783" lon="44.0185205"><time>2023-05-10T15:59:42</time></trkpt><trkpt lat="56.2815559" lon="44.0184840"><time>2023-05-10T15:59:43</time></trkpt><trkpt lat="56.2815337" lon="44.0184445"><time>2023-05-10T15:59:44</time></trkpt><trkpt lat="56.2815137" lon="44.0184085"><time>2023-05-10T15:59:45</time></trkpt><trkpt lat="56.2814921" lon="44.0183786"><time>2023-05-10T15:59:46</time></trkpt><trkpt lat="56.2814713" lon="44.0183473"><time>2023-05-10T15:59:47</time></trkpt><trkpt lat="56.2814486" lon="44.0183199"><time>2023-05-10T15:59:48</time></trkpt><trkpt lat="56.2814259" lon="44.0182954"><time>2023-05-10T15:59:49</time></trkpt><trkpt lat="56.2814003" lon="44.0182752"><time>2023-05-10T15:59:50</time></trkpt><trkpt lat="56.2813750" lon="44.0182639"><time>2023-05-10T15:59:51</time></trkpt><trkpt lat="56.2813489" lon="44.0182469"><time>2023-05-10T15:59:52</time></trkpt><trkpt lat="56.2813251" lon="44.0182257"><time>2023-05-10T15:59:53</time></trkpt><trkpt lat="56.2813004" lon="44.0182071"><time>2023-05-10T15:59:54</time></trkpt><trkpt lat="56.2812775" lon="44.0181817"><time>2023-05-10T15:59:55</time></trkpt><trkpt lat="56.2812544" lon="44.0181596"><time>2023-05-10T15:59:56</time></trkpt><trkpt lat="56.2812319" lon="44.0181382"><time>2023-05-10T15:59:57</time></trkpt><trkpt lat="56.2812076" lon="44.0181168"><time>2023-05-10T15:59:58</time></trkpt><trkpt lat="56.2811836" lon="44.0181019"><time>2023-05-10T15:59:59</time></trkpt><trkpt lat="56.2811600" lon="44.0180812"><time>2023-05-10T16:00:00</time></trkpt><trkpt lat="56.2811389" lon="44.0180473"><time>2023-05-10T16:00:01</time></trkpt><trkpt lat="56.2811171" lon="44.0180134"><time>2023-05-10T16:00:02</time></trkpt><trkpt lat="56.2810990" lon="44.0179740"><time>2023-05-10T16:00:03</time></trkpt><trkpt lat="56.2810816" lon="44.0179310"><time>2023-05-10T16:00:04</time></trkpt><trkpt lat="56.2810643" lon="44.0178891"><time>2023-05-10T16:00:05</time></trkpt><trkpt lat="56.2810480" lon="44.0178446"><time>2023-05-10T16:00:06</time></trkpt><trkpt lat="56.2810299" lon="44.0178080"><time>2023-05-10T16:00:07</time></trkpt><trkpt lat="56.2810128" lon="44.0177625"><time>2023-05-10T16:00:08</time></trkpt><trkpt lat="56.2809993" lon="44.0177175"><time>2023-05-10T16:00:09</time></trkpt><trkpt lat="56.2809856" lon="44.0176685"><time>2023-05-10T16:00:10</time></trkpt><trkpt lat="56.2809789" lon="44.0176146"><time>2023-05-10T16:00:11</time></trkpt><trkpt lat="56.2809707" lon="44.0175686"><time>2023-05-10T16:00:12</time></trkpt><trkpt lat="56.2809608" lon="44.0175192"><time>2023-05-10T16:00:13</time></trkpt><trkpt lat="56.2809541" lon="44.0174690"><time>2023-05-10T16:00:14</time></trkpt><trkpt lat="56.2809447" lon="44.0174218"><time>2023-05-10T16:00:15</time></trkpt><trkpt lat="56.2809415" lon="44.0173644"><time>2023-05-10T16:00:16</time></trkpt><trkpt lat="56.2809379" lon="44.0173174"><time>2023-05-10T16:00:17</time></trkpt><trkpt lat="56.2809343" lon="44.0172662"><time>2023-05-10T16:00:18</time></trkpt><trkpt lat="56.2809332" lon="44.0172180"><time>2023-05-10T16:00:19</time></trkpt><trkpt lat="56.2809309" lon="44.0171731"><time>2023-05-10T16:00:20</time></trkpt><trkpt lat="56.2809297" lon="44.0171291"><time>2023-05-10T16:00:21</time></trkpt><trkpt lat="56.2809282" lon="44.0170830"><time>2023-05-10T16:00:22</time></trkpt><trkpt lat="56.2809256" lon="44.0170383"><time>2023-05-10T16:00:23</time></trkpt><trkpt lat="56.2809238" lon="44.0169930"><time>2023-05-10T16:00:24</time></trkpt><trkpt lat="56.2809240" lon="44.0169492"><time>2023-05-10T16:00:25</time></trkpt><trkpt lat="56.2809265" lon="44.0169081"><time>2023-05-10T16:00:26</time></trkpt><trkpt lat="56.2809289" lon="44.0168659"><time>2023-05-10T16:00:27</time></trkpt><trkpt lat="56.2809309" lon="44.0168226"><time>2023-05-10T16:00:28</time></trkpt><trkpt lat="56.2809338" lon="44.0167753"><time>2023-05-10T16:00:29</time></trkpt><trkpt lat="56.2809345" lon="44.0167327"><time>2023-05-10T16:00:30</time></trkpt><trkpt lat="56.2809350" lon="44.0166876"><time>2023-05-10T16:00:31</time></trkpt><trkpt lat="56.2809332" lon="44.0166399"><time>2023-05-10T16:00:32</time></trkpt><trkpt lat="56.2809307" lon="44.0165971"><time>2023-05-10T16:00:33</time></trkpt><trkpt lat="56.2809269" lon="44.0165398"><time>2023-05-10T16:00:34</time></trkpt><trkpt lat="56.2809205" lon="44.0164876"><time>2023-05-10T16:00:35</time></trkpt><trkpt lat="56.2809135" lon="44.0164403"><time>2023-05-10T16:00:36</time></trkpt><trkpt lat="56.2809033" lon="44.0163884"><time>2023-05-10T16:00:37</time></trkpt><trkpt lat="56.2808922" lon="44.0163488"><time>2023-05-10T16:00:38</time></trkpt><trkpt lat="56.2808799" lon="44.0163100"><time>2023-05-10T16:00:39</time></trkpt><trkpt lat="56.2808664" lon="44.0162715"><time>2023-05-10T16:00:40</time></trkpt><trkpt lat="56.2808531" lon="44.0162320"><time>2023-05-10T16:00:41</time></trkpt><trkpt lat="56.2808376" lon="44.0161917"><time>2023-05-10T16:00:42</time></trkpt><trkpt lat="56.2808182" lon="44.0161522"><time>2023-05-10T16:00:43</time></trkpt><trkpt lat="56.2807965" lon="44.0161182"><time>2023-05-10T16:00:44</time></trkpt><trkpt lat="56.2807747" lon="44.0160821"><time>2023-05-10T16:00:45</time></trkpt><trkpt lat="56.2807503" lon="44.0160481"><time>2023-05-10T16:00:46</time></trkpt><trkpt lat="56.2807262" lon="44.0160192"><time>2023-05-10T16:00:47</time></trkpt><trkpt lat="56.2807018" lon="44.0159881"><time>2023-05-10T16:00:48</time></trkpt><trkpt lat="56.2806777" lon="44.0159546"><time>2023-05-10T16:00:49</time></trkpt><trkpt lat="56.2806539" lon="44.0159217"><time>2023-05-10T16:00:50</time></trkpt><trkpt lat="56.2806323" lon="44.0158911"><time>2023-05-10T16:00:51</time></trkpt><trkpt lat="56.2806071" lon="44.0158598"><time>2023-05-10T16:00:52</time></trkpt><trkpt lat="56.2805841" lon="44.0158333"><time>2023-05-10T16:00:53</time></trkpt><trkpt lat="56.2805633" lon="44.0158042"><time>2023-05-10T16:00:54</time></trkpt><trkpt lat="56.2805390" lon="44.0157706"><time>2023-05-10T16:00:55</time></trkpt><trkpt lat="56.2805173" lon="44.0157429"><time>2023-05-10T16:00:56</time></trkpt><trkpt lat="56.2804960" lon="44.0157168"><time>2023-05-10T16:00:57</time></trkpt><trkpt lat="56.2804743" lon="44.0156852"><time>2023-05-10T16:00:58</time></trkpt><trkpt lat="56.2804506" lon="44.0156610"><time>2023-05-10T16:00:59</time></trkpt><trkpt lat="56.2804282" lon="44.0156333"><time>2023-05-10T16:01:00</time></trkpt><trkpt lat="56.2804081" lon="44.0156027"><time>2023-05-10T16:01:01</time></trkpt><trkpt lat="56.2803892" lon="44.0155691"><time>2023-05-10T16:01:02</time></trkpt><trkpt lat="56.2803670" lon="44.0155341"><time>2023-05-10T16:01:03</time></trkpt><trkpt lat="56.2803447" lon="44.0154983"><time>2023-05-10T16:01:04</time></trkpt><trkpt lat="56.2803209" lon="44.0154627"><time>2023-05-10T16:01:05</time></trkpt><trkpt lat="56.2803023" lon="44.0154178"><time>2023-05-10T16:01:06</time></trkpt><trkpt lat="56.2802852" lon="44.0153802"><time>2023-05-10T16:01:07</time></trkpt><trkpt lat="56.2802648" lon="44.0153405"><time>2023-05-10T16:01:08</time></trkpt><trkpt lat="56.2802432" lon="44.0152985"><time>2023-05-10T16:01:09</time></trkpt><trkpt lat="56.2802231" lon="44.0152630"><time>2023-05-10T16:01:10</time></trkpt><trkpt lat="56.2802033" lon="44.0152294"><time>2023-05-10T16:01:11</time></trkpt><trkpt lat="56.2801811" lon="44.0151975"><time>2023-05-10T16:01:12</time></trkpt><trkpt lat="56.2801596" lon="44.0151663"><time>2023-05-10T16:01:13</time></trkpt><trkpt lat="56.2801386" lon="44.0151311"><time>2023-05-10T16:01:14</time></trkpt><trkpt lat="56.2801168" lon="44.0151022"><time>2023-05-10T16:01:15</time></trkpt><trkpt lat="56.2800951" lon="44.0150784"><time>2023-05-10T16:01:16</time></trkpt><trkpt lat="56.2800696" lon="44.0150473"><time>2023-05-10T16:01:17</time></trkpt><trkpt lat="56.2800435" lon="44.0150204"><time>2023-05-10T16:01:18</time></trkpt><trkpt lat="56.2800168" lon="44.0149959"><time>2023-05-10T16:01:19</time></trkpt><trkpt lat="56.2799898" lon="44.0149598"><time>2023-05-10T16:01:20</time></trkpt><trkpt lat="56.2799681" lon="44.0149304"><time>2023-05-10T16:01:21</time></trkpt><trkpt lat="56.2799459" lon="44.0148976"><time>2023-05-10T16:01:22</time></trkpt><trkpt lat="56.2799228" lon="44.0148615"><time>2023-05-10T16:01:23</time></trkpt><trkpt lat="56.2798976" lon="44.0148273"><time>2023-05-10T16:01:24</time></trkpt><trkpt lat="56.2798707" lon="44.0147937"><time>2023-05-10T16:01:25</time></trkpt><trkpt lat="56.2798474" lon="44.0147632"><time>2023-05-10T16:01:26</time></trkpt><trkpt lat="56.2798226" lon="44.0147359"><time>2023-05-10T16:01:27</time></trkpt><trkpt lat="56.2797993" lon="44.0147048"><time>2023-05-10T16:01:28</time></trkpt><trkpt lat="56.2797786" lon="44.0146783"><time>2023-05-10T16:01:29</time></trkpt><trkpt lat="56.2797553" lon="44.0146552"><time>2023-05-10T16:01:30</time></trkpt><trkpt lat="56.2797306" lon="44.0146268"><time>2023-05-10T16:01:31</time></trkpt><trkpt lat="56.2797081" lon="44.0146053"><time>2023-05-10T16:01:32</time></trkpt><trkpt lat="56.2796847" lon="44.0145892"><time>2023-05-10T16:01:33</time></trkpt><trkpt lat="56.2796639" lon="44.0145733"><time>2023-05-10T16:01:34</time></trkpt><trkpt lat="56.2796435" lon="44.0145550"><time>2023-05-10T16:01:35</time></trkpt><trkpt lat="56.2796234" lon="44.0145340"><time>2023-05-10T16:01:36</time></trkpt><trkpt lat="56.2796021" lon="44.0145138"><time>2023-05-10T16:01:37</time></trkpt><trkpt lat="56.2795760" lon="44.0144939"><time>2023-05-10T16:01:38</time></trkpt><trkpt lat="56.2795515" lon="44.0144749"><time>2023-05-10T16:01:39</time></trkpt><trkpt lat="56.2795236" lon="44.0144521"><time>2023-05-10T16:01:40</time></trkpt><trkpt lat="56.2794997" lon="44.0144313"><time>2023-05-10T16:01:41</time></trkpt><trkpt lat="56.2794740" lon="44.0144091"><time>2023-05-10T16:01:42</time></trkpt><trkpt lat="56.2794506" lon="44.0143801"><time>2023-05-10T16:01:43</time></trkpt><trkpt lat="56.2794237" lon="44.0143513"><time>2023-05-10T16:01:44</time></trkpt><trkpt lat="56.2793986" lon="44.0143258"><time>2023-05-10T16:01:45</time></trkpt><trkpt lat="56.2793737" lon="44.0142988"><time>2023-05-10T16:01:46</time></trkpt><trkpt lat="56.2793480" lon="44.0142800"><time>2023-05-10T16:01:47</time></trkpt><trkpt lat="56.2793191" lon="44.0142645"><time>2023-05-10T16:01:48</time></trkpt><trkpt lat="56.2792963" lon="44.0142554"><time>2023-05-10T16:01:49</time></trkpt><trkpt lat="56.2792699" lon="44.0142571"><time>2023-05-10T16:01:50</time></trkpt><trkpt lat="56.2792436" lon="44.0142704"><time>2023-05-10T16:01:51</time></trkpt><trkpt lat="56.2792193" lon="44.0142858"><time>2023-05-10T16:01:52</time></trkpt><trkpt lat="56.2791938" lon="44.0143031"><time>2023-05-10T16:01:53</time></trkpt><trkpt lat="56.2791633" lon="44.0143127"><time>2023-05-10T16:01:54</time></trkpt><trkpt lat="56.2791360" lon="44.0143117"><time>2023-05-10T16:01:55</time></trkpt><trkpt lat="56.2791095" lon="44.0143137"><time>2023-05-10T16:01:56</time></trkpt><trkpt lat="56.2790788" lon="44.0143132"><time>2023-05-10T16:01:57</time></trkpt><trkpt lat="56.2790542" lon="44.0143120"><time>2023-05-10T16:01:58</time></trkpt><trkpt lat="56.2790280" lon="44.0143128"><time>2023-05-10T16:01:59</time></trkpt><trkpt lat="56.2790031" lon="44.0143163"><time>2023-05-10T16:02:00</time></trkpt><trkpt lat="56.2789795" lon="44.0143261"><time>2023-05-10T16:02:01</time></trkpt><trkpt lat="56.2789508" lon="44.0143319"><time>2023-05-10T16:02:02</time></trkpt><trkpt lat="56.2789243" lon="44.0143163"><time>2023-05-10T16:02:03</time></trkpt><trkpt lat="56.2789019" lon="44.0142902"><time>2023-05-10T16:02:04</time></trkpt><trkpt lat="56.2788816" lon="44.0142563"><time>2023-05-10T16:02:05</time></trkpt><trkpt lat="56.2788713" lon="44.0142099"><time>2023-05-10T16:02:06</time></trkpt><trkpt lat="56.2788666" lon="44.0141558"><time>2023-05-10T16:02:07</time></trkpt><trkpt lat="56.2788636" lon="44.0140993"><time>2023-05-10T16:02:08</time></trkpt><trkpt lat="56.2788682" lon="44.0140489"><time>2023-05-10T16:02:09</time></trkpt><trkpt lat="56.2788675" lon="44.0139998"><time>2023-05-10T16:02:10</time></trkpt><trkpt lat="56.2788611" lon="44.0139501"><time>2023-05-10T16:02:11</time></trkpt><trkpt lat="56.2788514" lon="44.0139035"><time>2023-05-10T16:02:12</time></trkpt><trkpt lat="56.2788415" lon="44.0138539"><time>2023-05-10T16:02:13</time></trkpt><trkpt lat="56.2788350" lon="44.0137974"><time>2023-05-10T16:02:14</time></trkpt><trkpt lat="56.2788330" lon="44.0137527"><time>2023-05-10T16:02:15</time></trkpt><trkpt lat="56.2788297" lon="44.0137034"><time>2023-05-10T16:02:16</time></trkpt><trkpt lat="56.2788291" lon="44.0136466"><time>2023-05-10T16:02:17</time></trkpt><trkpt lat="56.2788357" lon="44.0135969"><time>2023-05-10T16:02:18</time></trkpt><trkpt lat="56.2788412" lon="44.0135481"><time>2023-05-10T16:02:19</time></trkpt><trkpt lat="56.2788492" lon="44.0135000"><time>2023-05-10T16:02:20</time></trkpt><trkpt lat="56.2788515" lon="44.0134542"><time>2023-05-10T16:02:21</time></trkpt><trkpt lat="56.2788478" lon="44.0134093"><time>2023-05-10T16:02:22</time></trkpt><trkpt lat="56.2788462" lon="44.0133609"><time>2023-05-10T16:02:23</time></trkpt><trkpt lat="56.2788425" lon="44.0133087"><time>2023-05-10T16:02:24</time></trkpt><trkpt lat="56.2788395" lon="44.0132477"><time>2023-05-10T16:02:25</time></trkpt><trkpt lat="56.2788422" lon="44.0131992"><time>2023-05-10T16:02:26</time></trkpt><trkpt lat="56.2788431" lon="44.0131467"><time>2023-05-10T16:02:27</time></trkpt><trkpt lat="56.2788415" lon="44.0130902"><time>2023-05-10T16:02:28</time></trkpt><trkpt lat="56.2788395" lon="44.0130356"><time>2023-05-10T16:02:29</time></trkpt><trkpt lat="56.2788366" lon="44.0129847"><time>2023-05-10T16:02:30</time></trkpt><trkpt lat="56.2788341" lon="44.0129270"><time>2023-05-10T16:02:31</time></trkpt><trkpt lat="56.2788342" lon="44.0128710"><time>2023-05-10T16:02:32</time></trkpt><trkpt lat="56.2788339" lon="44.0128198"><time>2023-05-10T16:02:33</time></trkpt><trkpt lat="56.2788358" lon="44.0127665"><time>2023-05-10T16:02:34</time></trkpt><trkpt lat="56.2788358" lon="44.0127219"><time>2023-05-10T16:02:35</time></trkpt><trkpt lat="56.2788327" lon="44.0126689"><time>2023-05-10T16:02:36</time></trkpt><trkpt lat="56.2788327" lon="44.0126173"><time>2023-05-10T16:02:37</time></trkpt><trkpt lat="56.2788328" lon="44.0125675"><time>2023-05-10T16:02:38</time></trkpt><trkpt lat="56.2788275" lon="44.0125192"><time>2023-05-10T16:02:39</time></trkpt><trkpt lat="56.2788212" lon="44.0124695"><time>2023-05-10T16:02:40</time></trkpt><trkpt lat="56.2788124" lon="44.0124199"><time>2023-05-10T16:02:41</time></trkpt><trkpt lat="56.2788032" lon="44.0123595"><time>2023-05-10T16:02:42</time></trkpt><trkpt lat="56.2787945" lon="44.0123025"><time>2023-05-10T16:02:43</time></trkpt><trkpt lat="56.2787892" lon="44.0122505"><time>2023-05-10T16:02:44</time></trkpt><trkpt lat="56.2787984" lon="44.0122060"><time>2023-05-10T16:02:45</time></trkpt><trkpt lat="56.2788112" lon="44.0121610"><time>2023-05-10T16:02:46</time></trkpt><trkpt lat="56.2788254" lon="44.0121320"><time>2023-05-10T16:02:47</time></trkpt><trkpt lat="56.2788399" lon="44.0121076"><time>2023-05-10T16:02:48</time></trkpt><trkpt lat="56.2788547" lon="44.0120884"><time>2023-05-10T16:02:49</time></trkpt><trkpt lat="56.2788663" lon="44.0120723"><time>2023-05-10T16:02:50</time></trkpt><trkpt lat="56.2788776" lon="44.0120565"><time>2023-05-10T16:02:51</time></trkpt><trkpt lat="56.2788884" lon="44.0120469"><time>2023-05-10T16:02:52</time></trkpt><trkpt lat="56.2789002" lon="44.0120314"><time>2023-05-10T16:02:53</time></trkpt><trkpt lat="56.2789162" lon="44.0120110"><time>2023-05-10T16:02:54</time></trkpt><trkpt lat="56.2789379" lon="44.0119856"><time>2023-05-10T16:02:55</time></trkpt><trkpt lat="56.2789595" lon="44.0119650"><time>2023-05-10T16:02:56</time></trkpt><trkpt lat="56.2789877" lon="44.0119466"><time>2023-05-10T16:02:57</time></trkpt><trkpt lat="56.2790143" lon="44.0119370"><time>2023-05-10T16:02:58</time></trkpt><trkpt lat="56.2790373" lon="44.0119253"><time>2023-05-10T16:02:59</time></trkpt><trkpt lat="56.2790626" lon="44.0119137"><time>2023-05-10T16:03:00</time></trkpt><trkpt lat="56.2790885" lon="44.0118992"><time>2023-05-10T16:03:01</time></trkpt><trkpt lat="56.2791118" lon="44.0118820"><time>2023-05-10T16:03:02</time></trkpt><trkpt lat="56.2791370" lon="44.0118623"><time>2023-05-10T16:03:03</time></trkpt><trkpt lat="56.2791596" lon="44.0118434"><time>2023-05-10T16:03:04</time></trkpt><trkpt lat="56.2791814" lon="44.0118247"><time>2023-05-10T16:03:05</time></trkpt><trkpt lat="56.2792058" lon="44.0118066"><time>2023-05-10T16:03:06</time></trkpt><trkpt lat="56.2792288" lon="44.0117891"><time>2023-05-10T16:03:07</time></trkpt><trkpt lat="56.2792514" lon="44.0117717"><time>2023-05-10T16:03:08</time></trkpt><trkpt lat="56.2792781" lon="44.0117558"><time>2023-05-10T16:03:09</time></trkpt><trkpt lat="56.2792999" lon="44.0117370"><time>2023-05-10T16:03:10</time></trkpt><trkpt lat="56.2793237" lon="44.0117179"><time>2023-05-10T16:03:11</time></trkpt><trkpt lat="56.2793466" lon="44.0117002"><time>2023-05-10T16:03:12</time></trkpt><trkpt lat="56.2793703" lon="44.0116827"><time>2023-05-10T16:03:13</time></trkpt><trkpt lat="56.2793946" lon="44.0116615"><time>2023-05-10T16:03:14</time></trkpt><trkpt lat="56.2794175" lon="44.0116441"><time>2023-05-10T16:03:15</time></trkpt><trkpt lat="56.2794439" lon="44.0116211"><time>2023-05-10T16:03:16</time></trkpt><trkpt lat="56.2794664" lon="44.0116040"><time>2023-05-10T16:03:17</time></trkpt><trkpt lat="56.2794913" lon="44.0115846"><time>2023-05-10T16:03:18</time></trkpt><trkpt lat="56.2795181" lon="44.0115671"><time>2023-05-10T16:03:19</time></trkpt><trkpt lat="56.2795391" lon="44.0115482"><time>2023-05-10T16:03:20</time></trkpt><trkpt lat="56.2795621" lon="44.0115257"><time>2023-05-10T16:03:21</time></trkpt><trkpt lat="56.2795870" lon="44.0115049"><time>2023-05-10T16:03:22</time></trkpt><trkpt lat="56.2796127" lon="44.0114820"><time>2023-05-10T16:03:23</time></trkpt><trkpt lat="56.2796387" lon="44.0114596"><time>2023-05-10T16:03:24</time></trkpt><trkpt lat="56.2796622" lon="44.0114374"><time>2023-05-10T16:03:25</time></trkpt><trkpt lat="56.2796843" lon="44.0114168"><time>2023-05-10T16:03:26</time></trkpt><trkpt lat="56.2797101" lon="44.0113967"><time>2023-05-10T16:03:27</time></trkpt><trkpt lat="56.2797366" lon="44.0113829"><time>2023-05-10T16:03:28</time></trkpt><trkpt lat="56.2797589" lon="44.0113651"><time>2023-05-10T16:03:29</time></trkpt><trkpt lat="56.2797858" lon="44.0113464"><time>2023-05-10T16:03:30</time></trkpt><trkpt lat="56.2798104" lon="44.0113241"><time>2023-05-10T16:03:31</time></trkpt><trkpt lat="56.2798364" lon="44.0113012"><time>2023-05-10T16:03:32</time></trkpt><trkpt lat="56.2798620" lon="44.0112804"><time>2023-05-10T16:03:33</time></trkpt><trkpt lat="56.2798859" lon="44.0112542"><time>2023-05-10T16:03:34</time></trkpt><trkpt lat="56.2799109" lon="44.0112305"><time>2023-05-10T16:03:35</time></trkpt><trkpt lat="56.2799355" lon="44.0112143"><time>2023-05-10T16:03:36</time></trkpt><trkpt lat="56.2799589" lon="44.0111938"><time>2023-05-10T16:03:37</time></trkpt><trkpt lat="56.2799848" lon="44.0111767"><time>2023-05-10T16:03:38</time></trkpt><trkpt lat="56.2800076" lon="44.0111548"><time>2023-05-10T16:03:39</time></trkpt><trkpt lat="56.2800314" lon="44.0111264"><time>2023-05-10T16:03:40</time></trkpt><trkpt lat="56.2800549" lon="44.0110881"><time>2023-05-10T16:03:41</time></trkpt><trkpt lat="56.2800785" lon="44.0110577"><time>2023-05-10T16:03:42</time></trkpt><trkpt lat="56.2800985" lon="44.0110287"><time>2023-05-10T16:03:43</time></trkpt><trkpt lat="56.2801206" lon="44.0109908"><time>2023-05-10T16:03:44</time></trkpt><trkpt lat="56.2801416" lon="44.0109591"><time>2023-05-10T16:03:45</time></trkpt><trkpt lat="56.2801640" lon="44.0109239"><time>2023-05-10T16:03:46</time></trkpt><trkpt lat="56.2801899" lon="44.0108907"><time>2023-05-10T16:03:47</time></trkpt><trkpt lat="56.2802093" lon="44.0108638"><time>2023-05-10T16:03:48</time></trkpt><trkpt lat="56.2802320" lon="44.0108297"><time>2023-05-10T16:03:49</time></trkpt><trkpt lat="56.2802529" lon="44.0107978"><time>2023-05-10T16:03:50</time></trkpt><trkpt lat="56.2802740" lon="44.0107625"><time>2023-05-10T16:03:51</time></trkpt><trkpt lat="56.2802967" lon="44.0107239"><time>2023-05-10T16:03:52</time></trkpt><trkpt lat="56.2803218" lon="44.0106886"><time>2023-05-10T16:03:53</time></trkpt><trkpt lat="56.2803459" lon="44.0106587"><time>2023-05-10T16:03:54</time></trkpt><trkpt lat="56.2803718" lon="44.0106261"><time>2023-05-10T16:03:55</time></trkpt><trkpt lat="56.2803907" lon="44.0105955"><time>2023-05-10T16:03:56</time></trkpt><trkpt lat="56.2804088" lon="44.0105572"><time>2023-05-10T16:03:57</time></trkpt><trkpt lat="56.2804218" lon="44.0105210"><time>2023-05-10T16:03:58</time></trkpt><trkpt lat="56.2804273" lon="44.0104855"><time>2023-05-10T16:03:59</time></trkpt><trkpt lat="56.2804275" lon="44.0104438"><time>2023-05-10T16:04:00</time></trkpt><trkpt lat="56.2804199" lon="44.0104150"><time>2023-05-10T16:04:01</time></trkpt><trkpt lat="56.2804106" lon="44.0103892"><time>2023-05-10T16:04:02</time></trkpt><trkpt lat="56.2803978" lon="44.0103608"><time>2023-05-10T16:04:03</time></trkpt><trkpt lat="56.2803797" lon="44.0103455"><time>2023-05-10T16:04:04</time></trkpt><trkpt lat="56.2803603" lon="44.0103331"><time>2023-05-10T16:04:05</time></trkpt><trkpt lat="56.2803333" lon="44.0103277"><time>2023-05-10T16:04:06</time></trkpt><trkpt lat="56.2803065" lon="44.0103240"><time>2023-05-10T16:04:07</time></trkpt><trkpt lat="56.2802828" lon="44.0103236"><time>2023-05-10T16:04:08</time></trkpt><trkpt lat="56.2802589" lon="44.0103181"><time>2023-05-10T16:04:09</time></trkpt><trkpt lat="56.2802338" lon="44.0103131"><time>2023-05-10T16:04:10</time></trkpt><trkpt lat="56.2802093" lon="44.0102987"><time>2023-05-10T16:04:11</time></trkpt><trkpt lat="56.2801831" lon="44.0102707"><time>2023-05-10T16:04:12</time></trkpt><trkpt lat="56.2801579" lon="44.0102414"><time>2023-05-10T16:04:13</time></trkpt><trkpt lat="56.2801376" lon="44.0102097"><time>2023-05-10T16:04:14</time></trkpt><trkpt lat="56.2801175" lon="44.0101711"><time>2023-05-10T16:04:15</time></trkpt><trkpt lat="56.2801013" lon="44.0101296"><time>2023-05-10T16:04:16</time></trkpt><trkpt lat="56.2800846" lon="44.0100739"><time>2023-05-10T16:04:17</time></trkpt><trkpt lat="56.2800695" lon="44.0100349"><time>2023-05-10T16:04:18</time></trkpt><trkpt lat="56.2800548" lon="44.0099860"><time>2023-05-10T16:04:19</time></trkpt><trkpt lat="56.2800378" lon="44.0099310"><time>2023-05-10T16:04:20</time></trkpt><trkpt lat="56.2800220" lon="44.0098894"><time>2023-05-10T16:04:21</time></trkpt><trkpt lat="56.2800003" lon="44.0098448"><time>2023-05-10T16:04:22</time></trkpt><trkpt lat="56.2799769" lon="44.0098103"><time>2023-05-10T16:04:23</time></trkpt><trkpt lat="56.2799519" lon="44.0097784"><time>2023-05-10T16:04:24</time></trkpt><trkpt lat="56.2799277" lon="44.0097399"><time>2023-05-10T16:04:25</time></trkpt><trkpt lat="56.2799104" lon="44.0097061"><time>2023-05-10T16:04:26</time></trkpt><trkpt lat="56.2798976" lon="44.0096744"><time>2023-05-10T16:04:27</time></trkpt><trkpt lat="56.2798874" lon="44.0096469"><time>2023-05-10T16:04:28</time></trkpt><trkpt lat="56.2798791" lon="44.0096335"><time>2023-05-10T16:04:29</time></trkpt><trkpt lat="56.2798800" lon="44.0096489"><time>2023-05-10T16:04:30</time></trkpt><trkpt lat="56.2798849" lon="44.0096705"><time>2023-05-10T16:04:31</time></trkpt><trkpt lat="56.2798765" lon="44.0096923"><time>2023-05-10T16:04:32</time></trkpt><trkpt lat="56.2798633" lon="44.0097050"><time>2023-05-10T16:04:33</time></trkpt><trkpt lat="56.2798503" lon="44.0097075"><time>2023-05-10T16:04:34</time></trkpt><trkpt lat="56.2798324" lon="44.0097095"><time>2023-05-10T16:04:35</time></trkpt><trkpt lat="56.2798101" lon="44.0097188"><time>2023-05-10T16:04:36</time></trkpt><trkpt lat="56.2797853" lon="44.0097301"><time>2023-05-10T16:04:37</time></trkpt><trkpt lat="56.2797586" lon="44.0097416"><time>2023-05-10T16:04:38</time></trkpt><trkpt lat="56.2797361" lon="44.0097508"><time>2023-05-10T16:04:39</time></trkpt><trkpt lat="56.2797133" lon="44.0097623"><time>2023-05-10T16:04:40</time></trkpt><trkpt lat="56.2796803" lon="44.0097697"><time>2023-05-10T16:04:41</time></trkpt><trkpt lat="56.2796500" lon="44.0097810"><time>2023-05-10T16:04:42</time></trkpt><trkpt lat="56.2796185" lon="44.0097915"><time>2023-05-10T16:04:43</time></trkpt><trkpt lat="56.2795933" lon="44.0097896"><time>2023-05-10T16:04:44</time></trkpt><trkpt lat="56.2795658" lon="44.0097966"><time>2023-05-10T16:04:45</time></trkpt><trkpt lat="56.2795381" lon="44.0097968"><time>2023-05-10T16:04:46</time></trkpt><trkpt lat="56.2795097" lon="44.0097912"><time>2023-05-10T16:04:47</time></trkpt><trkpt lat="56.2794797" lon="44.0097879"><time>2023-05-10T16:04:48</time></trkpt><trkpt lat="56.2794476" lon="44.0097798"><time>2023-05-10T16:04:49</time></trkpt><trkpt lat="56.2794175" lon="44.0097733"><time>2023-05-10T16:04:50</time></trkpt><trkpt lat="56.2793885" lon="44.0097656"><time>2023-05-10T16:04:51</time></trkpt><trkpt lat="56.2793640" lon="44.0097514"><time>2023-05-10T16:04:52</time></trkpt><trkpt lat="56.2793372" lon="44.0097383"><time>2023-05-10T16:04:53</time></trkpt><trkpt lat="56.2793103" lon="44.0097284"><time>2023-05-10T16:04:54</time></trkpt><trkpt lat="56.2792838" lon="44.0097207"><time>2023-05-10T16:04:55</time></trkpt><trkpt lat="56.2792545" lon="44.0097102"><time>2023-05-10T16:04:56</time></trkpt><trkpt lat="56.2792264" lon="44.0097014"><time>2023-05-10T16:04:57</time></trkpt><trkpt lat="56.2791995" lon="44.0096968"><time>2023-05-10T16:04:58</time></trkpt><trkpt lat="56.2791697" lon="44.0096863"><time>2023-05-10T16:04:59</time></trkpt><trkpt lat="56.2791418" lon="44.0096745"><time>2023-05-10T16:05:00</time></trkpt><trkpt lat="56.2791156" lon="44.0096696"><time>2023-05-10T16:05:01</time></trkpt><trkpt lat="56.2790844" lon="44.0096651"><time>2023-05-10T16:05:02</time></trkpt><trkpt lat="56.2790534" lon="44.0096628"><time>2023-05-10T16:05:03</time></trkpt><trkpt lat="56.2790226" lon="44.0096673"><time>2023-05-10T16:05:04</time></trkpt><trkpt lat="56.2789917" lon="44.0096744"><time>2023-05-10T16:05:05</time></trkpt><trkpt lat="56.2789657" lon="44.0096895"><time>2023-05-10T16:05:06</time></trkpt><trkpt lat="56.2789366" lon="44.0097131"><time>2023-05-10T16:05:07</time></trkpt><trkpt lat="56.2789081" lon="44.0097341"><time>2023-05-10T16:05:08</time></trkpt><trkpt lat="56.2788823" lon="44.0097567"><time>2023-05-10T16:05:09</time></trkpt><trkpt lat="56.2788564" lon="44.0097812"><time>2023-05-10T16:05:10</time></trkpt><trkpt lat="56.2788305" lon="44.0098020"><time>2023-05-10T16:05:11</time></trkpt><trkpt lat="56.2788014" lon="44.0098213"><time>2023-05-10T16:05:12</time></trkpt><trkpt lat="56.2787709" lon="44.0098368"><time>2023-05-10T16:05:13</time></trkpt><trkpt lat="56.2787402" lon="44.0098539"><time>2023-05-10T16:05:14</time></trkpt><trkpt lat="56.2787075" lon="44.0098687"><time>2023-05-10T16:05:15</time></trkpt><trkpt lat="56.2786768" lon="44.0098832"><time>2023-05-10T16:05:16</time></trkpt><trkpt lat="56.2786458" lon="44.0099002"><time>2023-05-10T16:05:17</time></trkpt><trkpt lat="56.2786171" lon="44.0099127"><time>2023-05-10T16:05:18</time></trkpt><trkpt lat="56.2785879" lon="44.0099226"><time>2023-05-10T16:05:19</time></trkpt><trkpt lat="56.2785585" lon="44.0099355"><time>2023-05-10T16:05:20</time></trkpt><trkpt lat="56.2785308" lon="44.0099458"><time>2023-05-10T16:05:21</time></trkpt><trkpt lat="56.2785035" lon="44.0099511"><time>2023-05-10T16:05:22</time></trkpt><trkpt lat="56.2784725" lon="44.0099577"><time>2023-05-10T16:05:23</time></trkpt><trkpt lat="56.2784421" lon="44.0099673"><time>2023-05-10T16:05:24</time></trkpt><trkpt lat="56.2784133" lon="44.0099804"><time>2023-05-10T16:05:25</time></trkpt><trkpt lat="56.2783844" lon="44.0099913"><time>2023-05-10T16:05:26</time></trkpt><trkpt lat="56.2783556" lon="44.0100031"><time>2023-05-10T16:05:27</time></trkpt><trkpt lat="56.2783231" lon="44.0100222"><time>2023-05-10T16:05:28</time></trkpt><trkpt lat="56.2782941" lon="44.0100371"><time>2023-05-10T16:05:29</time></trkpt><trkpt lat="56.2782664" lon="44.0100542"><time>2023-05-10T16:05:30</time></trkpt><trkpt lat="56.2782373" lon="44.0100682"><time>2023-05-10T16:05:31</time></trkpt><trkpt lat="56.2782097" lon="44.0100837"><time>2023-05-10T16:05:32</time></trkpt><trkpt lat="56.2781843" lon="44.0101061"><time>2023-05-10T16:05:33</time></trkpt><trkpt lat="56.2781553" lon="44.0101254"><time>2023-05-10T16:05:34</time></trkpt><trkpt lat="56.2781250" lon="44.0101422"><time>2023-05-10T16:05:35</time></trkpt><trkpt lat="56.2780916" lon="44.0101564"><time>2023-05-10T16:05:36</time></trkpt><trkpt lat="56.2780591" lon="44.0101687"><time>2023-05-10T16:05:37</time></trkpt><trkpt lat="56.2780248" lon="44.0101708"><time>2023-05-10T16:05:38</time></trkpt><trkpt lat="56.2779963" lon="44.0101697"><time>2023-05-10T16:05:39</time></trkpt><trkpt lat="56.2779661" lon="44.0101727"><time>2023-05-10T16:05:40</time></trkpt><trkpt lat="56.2779338" lon="44.0101728"><time>2023-05-10T16:05:41</time></trkpt><trkpt lat="56.2778997" lon="44.0101704"><time>2023-05-10T16:05:42</time></trkpt><trkpt lat="56.2778661" lon="44.0101619"><time>2023-05-10T16:05:43</time></trkpt><trkpt lat="56.2778367" lon="44.0101609"><time>2023-05-10T16:05:44</time></trkpt><trkpt lat="56.2778069" lon="44.0101602"><time>2023-05-10T16:05:45</time></trkpt><trkpt lat="56.2777810" lon="44.0101563"><time>2023-05-10T16:05:46</time></trkpt><trkpt lat="56.2777539" lon="44.0101577"><time>2023-05-10T16:05:47</time></trkpt><trkpt lat="56.2777247" lon="44.0101586"><time>2023-05-10T16:05:48</time></trkpt><trkpt lat="56.2776981" lon="44.0101705"><time>2023-05-10T16:05:49</time></trkpt><trkpt lat="56.2776655" lon="44.0101852"><time>2023-05-10T16:05:50</time></trkpt><trkpt lat="56.2776356" lon="44.0101988"><time>2023-05-10T16:05:51</time></trkpt><trkpt lat="56.2776043" lon="44.0102147"><time>2023-05-10T16:05:52</time></trkpt><trkpt lat="56.2775719" lon="44.0102288"><time>2023-05-10T16:05:53</time></trkpt><trkpt lat="56.2775399" lon="44.0102346"><time>2023-05-10T16:05:54</time></trkpt><trkpt lat="56.2775083" lon="44.0102415"><time>2023-05-10T16:05:55</time></trkpt><trkpt lat="56.2774755" lon="44.0102526"><time>2023-05-10T16:05:56</time></trkpt><trkpt lat="56.2774474" lon="44.0102654"><time>2023-05-10T16:05:57</time></trkpt><trkpt lat="56.2774191" lon="44.0102842"><time>2023-05-10T16:05:58</time></trkpt><trkpt lat="56.2773906" lon="44.0103038"><time>2023-05-10T16:05:59</time></trkpt><trkpt lat="56.2773605" lon="44.0103322"><time>2023-05-10T16:06:00</time></trkpt><trkpt lat="56.2773360" lon="44.0103638"><time>2023-05-10T16:06:01</time></trkpt><trkpt lat="56.2773135" lon="44.0104022"><time>2023-05-10T16:06:02</time></trkpt><trkpt lat="56.2772921" lon="44.0104440"><time>2023-05-10T16:06:03</time></trkpt><trkpt lat="56.2772753" lon="44.0104895"><time>2023-05-10T16:06:04</time></trkpt><trkpt lat="56.2772590" lon="44.0105400"><time>2023-05-10T16:06:05</time></trkpt><trkpt lat="56.2772394" lon="44.0105924"><time>2023-05-10T16:06:06</time></trkpt><trkpt lat="56.2772219" lon="44.0106385"><time>2023-05-10T16:06:07</time></trkpt><trkpt lat="56.2772057" lon="44.0106840"><time>2023-05-10T16:06:08</time></trkpt><trkpt lat="56.2771922" lon="44.0107301"><time>2023-05-10T16:06:09</time></trkpt><trkpt lat="56.2771813" lon="44.0107778"><time>2023-05-10T16:06:10</time></trkpt><trkpt lat="56.2771692" lon="44.0108312"><time>2023-05-10T16:06:11</time></trkpt><trkpt lat="56.2771564" lon="44.0108864"><time>2023-05-10T16:06:12</time></trkpt><trkpt lat="56.2771482" lon="44.0109459"><time>2023-05-10T16:06:13</time></trkpt><trkpt lat="56.2771414" lon="44.0110084"><time>2023-05-10T16:06:14</time></trkpt><trkpt lat="56.2771352" lon="44.0110698"><time>2023-05-10T16:06:15</time></trkpt><trkpt lat="56.2771302" lon="44.0111296"><time>2023-05-10T16:06:16</time></trkpt><trkpt lat="56.2771238" lon="44.0111857"><time>2023-05-10T16:06:17</time></trkpt><trkpt lat="56.2771175" lon="44.0112381"><time>2023-05-10T16:06:18</time></trkpt><trkpt lat="56.2771069" lon="44.0112883"><time>2023-05-10T16:06:19</time></trkpt><trkpt lat="56.2770952" lon="44.0113386"><time>2023-05-10T16:06:20</time></trkpt><trkpt lat="56.2770844" lon="44.0113899"><time>2023-05-10T16:06:21</time></trkpt><trkpt lat="56.2770691" lon="44.0114395"><time>2023-05-10T16:06:22</time></trkpt><trkpt lat="56.2770549" lon="44.0114885"><time>2023-05-10T16:06:23</time></trkpt><trkpt lat="56.2770378" lon="44.0115384"><time>2023-05-10T16:06:24</time></trkpt><trkpt lat="56.2770186" lon="44.0115847"><time>2023-05-10T16:06:25</time></trkpt><trkpt lat="56.2769989" lon="44.0116329"><time>2023-05-10T16:06:26</time></trkpt><trkpt lat="56.2769773" lon="44.0116706"><time>2023-05-10T16:06:27</time></trkpt><trkpt lat="56.2769544" lon="44.0117064"><time>2023-05-10T16:06:28</time></trkpt><trkpt lat="56.2769269" lon="44.0117404"><time>2023-05-10T16:06:29</time></trkpt><trkpt lat="56.2768990" lon="44.0117729"><time>2023-05-10T16:06:30</time></trkpt><trkpt lat="56.2768697" lon="44.0118082"><time>2023-05-10T16:06:31</time></trkpt><trkpt lat="56.2768435" lon="44.0118428"><time>2023-05-10T16:06:32</time></trkpt><trkpt lat="56.2768174" lon="44.0118791"><time>2023-05-10T16:06:33</time></trkpt><trkpt lat="56.2767902" lon="44.0119208"><time>2023-05-10T16:06:34</time></trkpt><trkpt lat="56.2767643" lon="44.0119609"><time>2023-05-10T16:06:35</time></trkpt><trkpt lat="56.2767422" lon="44.0120034"><time>2023-05-10T16:06:36</time></trkpt><trkpt lat="56.2767174" lon="44.0120465"><time>2023-05-10T16:06:37</time></trkpt><trkpt lat="56.2766973" lon="44.0120822"><time>2023-05-10T16:06:38</time></trkpt><trkpt lat="56.2766715" lon="44.0121189"><time>2023-05-10T16:06:39</time></trkpt><trkpt lat="56.2766447" lon="44.0121450"><time>2023-05-10T16:06:40</time></trkpt><trkpt lat="56.2766192" lon="44.0121710"><time>2023-05-10T16:06:41</time></trkpt><trkpt lat="56.2765887" lon="44.0121872"><time>2023-05-10T16:06:42</time></trkpt><trkpt lat="56.2765586" lon="44.0121999"><time>2023-05-10T16:06:43</time></trkpt><trkpt lat="56.2765275" lon="44.0122059"><time>2023-05-10T16:06:44</time></trkpt><trkpt lat="56.2764993" lon="44.0122069"><time>2023-05-10T16:06:45</time></trkpt><trkpt lat="56.2764718" lon="44.0122091"><time>2023-05-10T16:06:46</time></trkpt><trkpt lat="56.2764440" lon="44.0121977"><time>2023-05-10T16:06:47</time></trkpt><trkpt lat="56.2764184" lon="44.0121904"><time>2023-05-10T16:06:48</time></trkpt><trkpt lat="56.2763924" lon="44.0121867"><time>2023-05-10T16:06:49</time></trkpt><trkpt lat="56.2763638" lon="44.0121836"><time>2023-05-10T16:06:50</time></trkpt><trkpt lat="56.2763353" lon="44.0121883"><time>2023-05-10T16:06:51</time></trkpt><trkpt lat="56.2763075" lon="44.0121943"><time>2023-05-10T16:06:52</time></trkpt><trkpt lat="56.2762791" lon="44.0122005"><time>2023-05-10T16:06:53</time></trkpt><trkpt lat="56.2762473" lon="44.0122153"><time>2023-05-10T16:06:54</time></trkpt><trkpt lat="56.2762170" lon="44.0122361"><time>2023-05-10T16:06:55</time></trkpt><trkpt lat="56.2761892" lon="44.0122565"><time>2023-05-10T16:06:56</time></trkpt><trkpt lat="56.2761592" lon="44.0122864"><time>2023-05-10T16:06:57</time></trkpt><trkpt lat="56.2761285" lon="44.0123114"><time>2023-05-10T16:06:58</time></trkpt><trkpt lat="56.2760999" lon="44.0123401"><time>2023-05-10T16:06:59</time></trkpt><trkpt lat="56.2760657" lon="44.0123734"><time>2023-05-10T16:07:00</time></trkpt><trkpt lat="56.2760411" lon="44.0124032"><time>2023-05-10T16:07:01</time></trkpt><trkpt lat="56.2760116" lon="44.0124356"><time>2023-05-10T16:07:02</time></trkpt><trkpt lat="56.2759810" lon="44.0124633"><time>2023-05-10T16:07:03</time></trkpt><trkpt lat="56.2759512" lon="44.0124965"><time>2023-05-10T16:07:04</time></trkpt><trkpt lat="56.2759213" lon="44.0125270"><time>2023-05-10T16:07:05</time></trkpt><trkpt lat="56.2759018" lon="44.0125491"><time>2023-05-10T16:07:06</time></trkpt><trkpt lat="56.2758759" lon="44.0125821"><time>2023-05-10T16:07:07</time></trkpt><trkpt lat="56.2758520" lon="44.0126180"><time>2023-05-10T16:07:08</time></trkpt><trkpt lat="56.2758320" lon="44.0126519"><time>2023-05-10T16:07:09</time></trkpt><trkpt lat="56.2758065" lon="44.0126941"><time>2023-05-10T16:07:10</time></trkpt><trkpt lat="56.2757837" lon="44.0127330"><time>2023-05-10T16:07:11</time></trkpt><trkpt lat="56.2757594" lon="44.0127659"><time>2023-05-10T16:07:12</time></trkpt><trkpt lat="56.2757314" lon="44.0128020"><time>2023-05-10T16:07:13</time></trkpt><trkpt lat="56.2757060" lon="44.0128311"><time>2023-05-10T16:07:14</time></trkpt><trkpt lat="56.2756778" lon="44.0128665"><time>2023-05-10T16:07:15</time></trkpt><trkpt lat="56.2756476" lon="44.0128902"><time>2023-05-10T16:07:16</time></trkpt><trkpt lat="56.2756216" lon="44.0129113"><time>2023-05-10T16:07:17</time></trkpt><trkpt lat="56.2755928" lon="44.0129304"><time>2023-05-10T16:07:18</time></trkpt><trkpt lat="56.2755654" lon="44.0129416"><time>2023-05-10T16:07:19</time></trkpt><trkpt lat="56.2755366" lon="44.0129568"><time>2023-05-10T16:07:20</time></trkpt><trkpt lat="56.2755085" lon="44.0129746"><time>2023-05-10T16:07:21</time></trkpt><trkpt lat="56.2754830" lon="44.0129980"><time>2023-05-10T16:07:22</time></trkpt><trkpt lat="56.2754581" lon="44.0130154"><time>2023-05-10T16:07:23</time></trkpt><trkpt lat="56.2754308" lon="44.0130360"><time>2023-05-10T16:07:24</time></trkpt><trkpt lat="56.2754080" lon="44.0130543"><time>2023-05-10T16:07:25</time></trkpt><trkpt lat="56.2753804" lon="44.0130785"><time>2023-05-10T16:07:26</time></trkpt><trkpt lat="56.2753532" lon="44.0131052"><time>2023-05-10T16:07:27</time></trkpt><trkpt lat="56.2753286" lon="44.0131330"><time>2023-05-10T16:07:28</time></trkpt><trkpt lat="56.2752988" lon="44.0131610"><time>2023-05-10T16:07:29</time></trkpt><trkpt lat="56.2752721" lon="44.0131928"><time>2023-05-10T16:07:30</time></trkpt><trkpt lat="56.2752422" lon="44.0132400"><time>2023-05-10T16:07:31</time></trkpt><trkpt lat="56.2752149" lon="44.0132854"><time>2023-05-10T16:07:32</time></trkpt><trkpt lat="56.2751891" lon="44.0133300"><time>2023-05-10T16:07:33</time></trkpt><trkpt lat="56.2751657" lon="44.0133617"><time>2023-05-10T16:07:34</time></trkpt><trkpt lat="56.2751374" lon="44.0133994"><time>2023-05-10T16:07:35</time></trkpt><trkpt lat="56.2751070" lon="44.0134380"><time>2023-05-10T16:07:36</time></trkpt><trkpt lat="56.2750792" lon="44.0134674"><time>2023-05-10T16:07:37</time></trkpt><trkpt lat="56.2750497" lon="44.0134947"><time>2023-05-10T16:07:38</time></trkpt><trkpt lat="56.2750182" lon="44.0135207"><time>2023-05-10T16:07:39</time></trkpt><trkpt lat="56.2749937" lon="44.0135528"><time>2023-05-10T16:07:40</time></trkpt><trkpt lat="56.2749719" lon="44.0135914"><time>2023-05-10T16:07:41</time></trkpt><trkpt lat="56.2749579" lon="44.0136361"><time>2023-05-10T16:07:42</time></trkpt><trkpt lat="56.2749462" lon="44.0136819"><time>2023-05-10T16:07:43</time></trkpt><trkpt lat="56.2749349" lon="44.0137331"><time>2023-05-10T16:07:44</time></trkpt><trkpt lat="56.2749291" lon="44.0137820"><time>2023-05-10T16:07:45</time></trkpt><trkpt lat="56.2749282" lon="44.0138388"><time>2023-05-10T16:07:46</time></trkpt><trkpt lat="56.2749292" lon="44.0138921"><time>2023-05-10T16:07:47</time></trkpt><trkpt lat="56.2749330" lon="44.0139426"><time>2023-05-10T16:07:48</time></trkpt><trkpt lat="56.2749387" lon="44.0139952"><time>2023-05-10T16:07:49</time></trkpt><trkpt lat="56.2749472" lon="44.0140424"><time>2023-05-10T16:07:50</time></trkpt><trkpt lat="56.2749604" lon="44.0140882"><time>2023-05-10T16:07:51</time></trkpt><trkpt lat="56.2749757" lon="44.0141360"><time>2023-05-10T16:07:52</time></trkpt><trkpt lat="56.2749941" lon="44.0141672"><time>2023-05-10T16:07:53</time></trkpt><trkpt lat="56.2750177" lon="44.0142077"><time>2023-05-10T16:07:54</time></trkpt><trkpt lat="56.2750376" lon="44.0142389"><time>2023-05-10T16:07:55</time></trkpt><trkpt lat="56.2750574" lon="44.0142630"><time>2023-05-10T16:07:56</time></trkpt><trkpt lat="56.2750783" lon="44.0143008"><time>2023-05-10T16:07:57</time></trkpt><trkpt lat="56.2750986" lon="44.0143263"><time>2023-05-10T16:07:58</time></trkpt><trkpt lat="56.2751142" lon="44.0143413"><time>2023-05-10T16:07:59</time></trkpt><trkpt lat="56.2751270" lon="44.0143577"><time>2023-05-10T16:08:00</time></trkpt><trkpt lat="56.2751355" lon="44.0143713"><time>2023-05-10T16:08:01</time></trkpt><trkpt lat="56.2751435" lon="44.0143885"><time>2023-05-10T16:08:02</time></trkpt><trkpt lat="56.2751505" lon="44.0144002"><time>2023-05-10T16:08:03</time></trkpt><trkpt lat="56.2751491" lon="44.0144084"><time>2023-05-10T16:08:04</time></trkpt><trkpt lat="56.2751490" lon="44.0144176"><time>2023-05-10T16:08:05</time></trkpt><trkpt lat="56.2751569" lon="44.0144346"><time>2023-05-10T16:08:06</time></trkpt><trkpt lat="56.2751612" lon="44.0144385"><time>2023-05-10T16:08:07</time></trkpt><trkpt lat="56.2751629" lon="44.0144432"><time>2023-05-10T16:08:08</time></trkpt><trkpt lat="56.2751685" lon="44.0144567"><time>2023-05-10T16:08:09</time></trkpt><trkpt lat="56.2751710" lon="44.0144679"><time>2023-05-10T16:08:10</time></trkpt><trkpt lat="56.2751715" lon="44.0144724"><time>2023-05-10T16:08:11</time></trkpt><trkpt lat="56.2751708" lon="44.0144764"><time>2023-05-10T16:08:12</time></trkpt><trkpt lat="56.2751723" lon="44.0144938"><time>2023-05-10T16:08:13</time></trkpt><trkpt lat="56.2751729" lon="44.0145018"><time>2023-05-10T16:08:14</time></trkpt><trkpt lat="56.2751748" lon="44.0145101"><time>2023-05-10T16:08:15</time></trkpt><trkpt lat="56.2751751" lon="44.0145239"><time>2023-05-10T16:08:16</time></trkpt><trkpt lat="56.2751735" lon="44.0145418"><time>2023-05-10T16:08:17</time></trkpt><trkpt lat="56.2751724" lon="44.0145495"><time>2023-05-10T16:08:18</time></trkpt><trkpt lat="56.2751713" lon="44.0145609"><time>2023-05-10T16:08:19</time></trkpt><trkpt lat="56.2751679" lon="44.0145843"><time>2023-05-10T16:08:20</time></trkpt><trkpt lat="56.2751690" lon="44.0146104"><time>2023-05-10T16:08:21</time></trkpt><trkpt lat="56.2751688" lon="44.0146389"><time>2023-05-10T16:08:22</time></trkpt><trkpt lat="56.2751716" lon="44.0146727"><time>2023-05-10T16:08:23</time></trkpt><trkpt lat="56.2751701" lon="44.0147207"><time>2023-05-10T16:08:24</time></trkpt><trkpt lat="56.2751683" lon="44.0147660"><time>2023-05-10T16:08:25</time></trkpt><trkpt lat="56.2751672" lon="44.0147940"><time>2023-05-10T16:08:26</time></trkpt><trkpt lat="56.2751702" lon="44.0148453"><time>2023-05-10T16:08:27</time></trkpt><trkpt lat="56.2751717" lon="44.0148916"><time>2023-05-10T16:08:28</time></trkpt><trkpt lat="56.2751774" lon="44.0149219"><time>2023-05-10T16:08:29</time></trkpt><trkpt lat="56.2751847" lon="44.0149577"><time>2023-05-10T16:08:30</time></trkpt><trkpt lat="56.2751925" lon="44.0149934"><time>2023-05-10T16:08:31</time></trkpt><trkpt lat="56.2751977" lon="44.0150151"><time>2023-05-10T16:08:32</time></trkpt><trkpt lat="56.2752082" lon="44.0150402"><time>2023-05-10T16:08:33</time></trkpt><trkpt lat="56.2752198" lon="44.0150656"><time>2023-05-10T16:08:34</time></trkpt><trkpt lat="56.2752310" lon="44.0150742"><time>2023-05-10T16:08:35</time></trkpt><trkpt lat="56.2752470" lon="44.0150755"><time>2023-05-10T16:08:36</time></trkpt><trkpt lat="56.2752659" lon="44.0150833"><time>2023-05-10T16:08:37</time></trkpt><trkpt lat="56.2752848" lon="44.0150853"><time>2023-05-10T16:08:38</time></trkpt><trkpt lat="56.2753035" lon="44.0150837"><time>2023-05-10T16:08:39</time></trkpt><trkpt lat="56.2753197" lon="44.0150859"><time>2023-05-10T16:08:40</time></trkpt><trkpt lat="56.2753349" lon="44.0150867"><time>2023-05-10T16:08:41</time></trkpt><trkpt lat="56.2753427" lon="44.0150907"><time>2023-05-10T16:08:42</time></trkpt><trkpt lat="56.2753502" lon="44.0150964"><time>2023-05-10T16:08:43</time></trkpt><trkpt lat="56.2753534" lon="44.0150984"><time>2023-05-10T16:08:44</time></trkpt><trkpt lat="56.2753640" lon="44.0151041"><time>2023-05-10T16:08:45</time></trkpt><trkpt lat="56.2753718" lon="44.0151084"><time>2023-05-10T16:08:46</time></trkpt><trkpt lat="56.2753848" lon="44.0151161"><time>2023-05-10T16:08:47</time></trkpt><trkpt lat="56.2753991" lon="44.0151297"><time>2023-05-10T16:08:48</time></trkpt><trkpt lat="56.2754106" lon="44.0151460"><time>2023-05-10T16:08:49</time></trkpt><trkpt lat="56.2754260" lon="44.0151632"><time>2023-05-10T16:08:50</time></trkpt><trkpt lat="56.2754404" lon="44.0151793"><time>2023-05-10T16:08:51</time></trkpt><trkpt lat="56.2754552" lon="44.0151922"><time>2023-05-10T16:08:52</time></trkpt><trkpt lat="56.2754675" lon="44.0151959"><time>2023-05-10T16:08:53</time></trkpt><trkpt lat="56.2754838" lon="44.0152018"><time>2023-05-10T16:08:54</time></trkpt><trkpt lat="56.2754980" lon="44.0152073"><time>2023-05-10T16:08:55</time></trkpt><trkpt lat="56.2755140" lon="44.0152119"><time>2023-05-10T16:08:56</time></trkpt><trkpt lat="56.2755288" lon="44.0152191"><time>2023-05-10T16:08:57</time></trkpt><trkpt lat="56.2755470" lon="44.0152279"><time>2023-05-10T16:08:58</time></trkpt><trkpt lat="56.2755645" lon="44.0152356"><time>2023-05-10T16:08:59</time></trkpt><trkpt lat="56.2755810" lon="44.0152432"><time>2023-05-10T16:09:00</time></trkpt><trkpt lat="56.2755982" lon="44.0152501"><time>2023-05-10T16:09:01</time></trkpt><trkpt lat="56.2756141" lon="44.0152598"><time>2023-05-10T16:09:02</time></trkpt><trkpt lat="56.2756262" lon="44.0152688"><time>2023-05-10T16:09:03</time></trkpt><trkpt lat="56.2756356" lon="44.0152820"><time>2023-05-10T16:09:04</time></trkpt><trkpt lat="56.2756496" lon="44.0153053"><time>2023-05-10T16:09:05</time></trkpt><trkpt lat="56.2756651" lon="44.0153320"><time>2023-05-10T16:09:06</time></trkpt><trkpt lat="56.2756835" lon="44.0153592"><time>2023-05-10T16:09:07</time></trkpt><trkpt lat="56.2756990" lon="44.0153802"><time>2023-05-10T16:09:08</time></trkpt><trkpt lat="56.2757188" lon="44.0154031"><time>2023-05-10T16:09:09</time></trkpt><trkpt lat="56.2757365" lon="44.0154245"><time>2023-05-10T16:09:10</time></trkpt><trkpt lat="56.2757524" lon="44.0154480"><time>2023-05-10T16:09:11</time></trkpt><trkpt lat="56.2757707" lon="44.0154708"><time>2023-05-10T16:09:12</time></trkpt><trkpt lat="56.2757873" lon="44.0154857"><time>2023-05-10T16:09:13</time></trkpt><trkpt lat="56.2758069" lon="44.0154960"><time>2023-05-10T16:09:14</time></trkpt><trkpt lat="56.2758251" lon="44.0155017"><time>2023-05-10T16:09:15</time></trkpt><trkpt lat="56.2758475" lon="44.0155044"><time>2023-05-10T16:09:16</time></trkpt><trkpt lat="56.2758691" lon="44.0155124"><time>2023-05-10T16:09:17</time></trkpt><trkpt lat="56.2758908" lon="44.0155194"><time>2023-05-10T16:09:18</time></trkpt><trkpt lat="56.2759094" lon="44.0155159"><time>2023-05-10T16:09:19</time></trkpt><trkpt lat="56.2759283" lon="44.0155214"><time>2023-05-10T16:09:20</time></trkpt><trkpt lat="56.2759481" lon="44.0155294"><time>2023-05-10T16:09:21</time></trkpt><trkpt lat="56.2759707" lon="44.0155382"><time>2023-05-10T16:09:22</time></trkpt><trkpt lat="56.2759945" lon="44.0155509"><time>2023-05-10T16:09:23</time></trkpt><trkpt lat="56.2760178" lon="44.0155677"><time>2023-05-10T16:09:24</time></trkpt><trkpt lat="56.2760416" lon="44.0155859"><time>2023-05-10T16:09:25</time></trkpt><trkpt lat="56.2760619" lon="44.0156145"><time>2023-05-10T16:09:26</time></trkpt><trkpt lat="56.2760809" lon="44.0156466"><time>2023-05-10T16:09:27</time></trkpt><trkpt lat="56.2761011" lon="44.0156798"><time>2023-05-10T16:09:28</time></trkpt><trkpt lat="56.2761187" lon="44.0157167"><time>2023-05-10T16:09:29</time></trkpt><trkpt lat="56.2761371" lon="44.0157535"><time>2023-05-10T16:09:30</time></trkpt><trkpt lat="56.2761561" lon="44.0157906"><time>2023-05-10T16:09:31</time></trkpt><trkpt lat="56.2761764" lon="44.0158346"><time>2023-05-10T16:09:32</time></trkpt><trkpt lat="56.2761950" lon="44.0158733"><time>2023-05-10T16:09:33</time></trkpt><trkpt lat="56.2762142" lon="44.0159089"><time>2023-05-10T16:09:34</time></trkpt><trkpt lat="56.2762333" lon="44.0159503"><time>2023-05-10T16:09:35</time></trkpt><trkpt lat="56.2762515" lon="44.0159866"><time>2023-05-10T16:09:36</time></trkpt><trkpt lat="56.2762712" lon="44.0160211"><time>2023-05-10T16:09:37</time></trkpt><trkpt lat="56.2762907" lon="44.0160610"><time>2023-05-10T16:09:38</time></trkpt><trkpt lat="56.2763060" lon="44.0160932"><time>2023-05-10T16:09:39</time></trkpt><trkpt lat="56.2763214" lon="44.0161256"><time>2023-05-10T16:09:40</time></trkpt><trkpt lat="56.2763357" lon="44.0161627"><time>2023-05-10T16:09:41</time></trkpt><trkpt lat="56.2763503" lon="44.0161961"><time>2023-05-10T16:09:42</time></trkpt><trkpt lat="56.2763691" lon="44.0162382"><time>2023-05-10T16:09:43</time></trkpt><trkpt lat="56.2763861" lon="44.0162801"><time>2023-05-10T16:09:44</time></trkpt><trkpt lat="56.2764028" lon="44.0163208"><time>2023-05-10T16:09:45</time></trkpt><trkpt lat="56.2764182" lon="44.0163671"><time>2023-05-10T16:09:46</time></trkpt><trkpt lat="56.2764256" lon="44.0164137"><time>2023-05-10T16:09:47</time></trkpt><trkpt lat="56.2764305" lon="44.0164606"><time>2023-05-10T16:09:48</time></trkpt><trkpt lat="56.2764312" lon="44.0165132"><time>2023-05-10T16:09:49</time></trkpt><trkpt lat="56.2764276" lon="44.0165617"><time>2023-05-10T16:09:50</time></trkpt><trkpt lat="56.2764211" lon="44.0166116"><time>2023-05-10T16:09:51</time></trkpt><trkpt lat="56.2764108" lon="44.0166672"><time>2023-05-10T16:09:52</time></trkpt><trkpt lat="56.2763981" lon="44.0167225"><time>2023-05-10T16:09:53</time></trkpt><trkpt lat="56.2763898" lon="44.0167769"><time>2023-05-10T16:09:54</time></trkpt><trkpt lat="56.2763811" lon="44.0168285"><time>2023-05-10T16:09:55</time></trkpt><trkpt lat="56.2763758" lon="44.0168736"><time>2023-05-10T16:09:56</time></trkpt><trkpt lat="56.2763738" lon="44.0169217"><time>2023-05-10T16:09:57</time></trkpt><trkpt lat="56.2763776" lon="44.0169730"><time>2023-05-10T16:09:58</time></trkpt><trkpt lat="56.2763882" lon="44.0170193"><time>2023-05-10T16:09:59</time></trkpt><trkpt lat="56.2764004" lon="44.0170566"><time>2023-05-10T16:10:00</time></trkpt><trkpt lat="56.2764157" lon="44.0170960"><time>2023-05-10T16:10:01</time></trkpt><trkpt lat="56.2764322" lon="44.0171303"><time>2023-05-10T16:10:02</time></trkpt><trkpt lat="56.2764514" lon="44.0171668"><time>2023-05-10T16:10:03</time></trkpt><trkpt lat="56.2764679" lon="44.0172037"><time>2023-05-10T16:10:04</time></trkpt><trkpt lat="56.2764833" lon="44.0172353"><time>2023-05-10T16:10:05</time></trkpt><trkpt lat="56.2764976" lon="44.0172758"><time>2023-05-10T16:10:06</time></trkpt><trkpt lat="56.2765125" lon="44.0173173"><time>2023-05-10T16:10:07</time></trkpt><trkpt lat="56.2765291" lon="44.0173559"><time>2023-05-10T16:10:08</time></trkpt><trkpt lat="56.2765443" lon="44.0174038"><time>2023-05-10T16:10:09</time></trkpt><trkpt lat="56.2765615" lon="44.0174424"><time>2023-05-10T16:10:10</time></trkpt><trkpt lat="56.2765762" lon="44.0174858"><time>2023-05-10T16:10:11</time></trkpt><trkpt lat="56.2765911" lon="44.0175251"><time>2023-05-10T16:10:12</time></trkpt><trkpt lat="56.2766109" lon="44.0175582"><time>2023-05-10T16:10:13</time></trkpt><trkpt lat="56.2766327" lon="44.0175855"><time>2023-05-10T16:10:14</time></trkpt><trkpt lat="56.2766547" lon="44.0176031"><time>2023-05-10T16:10:15</time></trkpt><trkpt lat="56.2766824" lon="44.0176187"><time>2023-05-10T16:10:16</time></trkpt><trkpt lat="56.2767104" lon="44.0176318"><time>2023-05-10T16:10:17</time></trkpt><trkpt lat="56.2767361" lon="44.0176425"><time>2023-05-10T16:10:18</time></trkpt><trkpt lat="56.2767620" lon="44.0176507"><time>2023-05-10T16:10:19</time></trkpt><trkpt lat="56.2767886" lon="44.0176674"><time>2023-05-10T16:10:20</time></trkpt><trkpt lat="56.2768126" lon="44.0176775"><time>2023-05-10T16:10:21</time></trkpt><trkpt lat="56.2768401" lon="44.0176886"><time>2023-05-10T16:10:22</time></trkpt><trkpt lat="56.2768674" lon="44.0176992"><time>2023-05-10T16:10:23</time></trkpt><trkpt lat="56.2768911" lon="44.0177124"><time>2023-05-10T16:10:24</time></trkpt><trkpt lat="56.2769164" lon="44.0177275"><time>2023-05-10T16:10:25</time></trkpt><trkpt lat="56.2769386" lon="44.0177435"><time>2023-05-10T16:10:26</time></trkpt><trkpt lat="56.2769576" lon="44.0177492"><time>2023-05-10T16:10:27</time></trkpt><trkpt lat="56.2769819" lon="44.0177608"><time>2023-05-10T16:10:28</time></trkpt><trkpt lat="56.2770039" lon="44.0177758"><time>2023-05-10T16:10:29</time></trkpt><trkpt lat="56.2770279" lon="44.0177901"><time>2023-05-10T16:10:30</time></trkpt><trkpt lat="56.2770503" lon="44.0178093"><time>2023-05-10T16:10:31</time></trkpt><trkpt lat="56.2770699" lon="44.0178279"><time>2023-05-10T16:10:32</time></trkpt><trkpt lat="56.2770902" lon="44.0178487"><time>2023-05-10T16:10:33</time></trkpt><trkpt lat="56.2771089" lon="44.0178838"><time>2023-05-10T16:10:34</time></trkpt><trkpt lat="56.2771270" lon="44.0179190"><time>2023-05-10T16:10:35</time></trkpt><trkpt lat="56.2771486" lon="44.0179554"><time>2023-05-10T16:10:36</time></trkpt><trkpt lat="56.2771691" lon="44.0179937"><time>2023-05-10T16:10:37</time></trkpt><trkpt lat="56.2771916" lon="44.0180267"><time>2023-05-10T16:10:38</time></trkpt><trkpt lat="56.2772143" lon="44.0180498"><time>2023-05-10T16:10:39</time></trkpt><trkpt lat="56.2772379" lon="44.0180755"><time>2023-05-10T16:10:40</time></trkpt><trkpt lat="56.2772647" lon="44.0180945"><time>2023-05-10T16:10:41</time></trkpt><trkpt lat="56.2772922" lon="44.0181124"><time>2023-05-10T16:10:42</time></trkpt><trkpt lat="56.2773183" lon="44.0181208"><time>2023-05-10T16:10:43</time></trkpt><trkpt lat="56.2773415" lon="44.0181284"><time>2023-05-10T16:10:44</time></trkpt><trkpt lat="56.2773653" lon="44.0181419"><time>2023-05-10T16:10:45</time></trkpt><trkpt lat="56.2773851" lon="44.0181595"><time>2023-05-10T16:10:46</time></trkpt><trkpt lat="56.2774053" lon="44.0181832"><time>2023-05-10T16:10:47</time></trkpt><trkpt lat="56.2774245" lon="44.0182147"><time>2023-05-10T16:10:48</time></trkpt><trkpt lat="56.2774442" lon="44.0182468"><time>2023-05-10T16:10:49</time></trkpt><trkpt lat="56.2774635" lon="44.0182776"><time>2023-05-10T16:10:50</time></trkpt><trkpt lat="56.2774817" lon="44.0183175"><time>2023-05-10T16:10:51</time></trkpt><trkpt lat="56.2774995" lon="44.0183532"><time>2023-05-10T16:10:52</time></trkpt><trkpt lat="56.2775145" lon="44.0183983"><time>2023-05-10T16:10:53</time></trkpt><trkpt lat="56.2775308" lon="44.0184470"><time>2023-05-10T16:10:54</time></trkpt><trkpt lat="56.2775502" lon="44.0184897"><time>2023-05-10T16:10:55</time></trkpt><trkpt lat="56.2775633" lon="44.0185304"><time>2023-05-10T16:10:56</time></trkpt><trkpt lat="56.2775770" lon="44.0185767"><time>2023-05-10T16:10:57</time></trkpt><trkpt lat="56.2775914" lon="44.0186252"><time>2023-05-10T16:10:58</time></trkpt><trkpt lat="56.2776041" lon="44.0186803"><time>2023-05-10T16:10:59</time></trkpt><trkpt lat="56.2776148" lon="44.0187276"><time>2023-05-10T16:11:00</time></trkpt><trkpt lat="56.2776273" lon="44.0187682"><time>2023-05-10T16:11:01</time></trkpt><trkpt lat="56.2776424" lon="44.0188095"><time>2023-05-10T16:11:02</time></trkpt><trkpt lat="56.2776531" lon="44.0188519"><time>2023-05-10T16:11:03</time></trkpt><trkpt lat="56.2776684" lon="44.0189064"><time>2023-05-10T16:11:04</time></trkpt><trkpt lat="56.2776785" lon="44.0189639"><time>2023-05-10T16:11:05</time></trkpt><trkpt lat="56.2776852" lon="44.0190138"><time>2023-05-10T16:11:06</time></trkpt><trkpt lat="56.2776897" lon="44.0190741"><time>2023-05-10T16:11:07</time></trkpt><trkpt lat="56.2776935" lon="44.0191232"><time>2023-05-10T16:11:08</time></trkpt><trkpt lat="56.2776951" lon="44.0191739"><time>2023-05-10T16:11:09</time></trkpt><trkpt lat="56.2776928" lon="44.0192277"><time>2023-05-10T16:11:10</time></trkpt><trkpt lat="56.2776914" lon="44.0192715"><time>2023-05-10T16:11:11</time></trkpt><trkpt lat="56.2776876" lon="44.0193162"><time>2023-05-10T16:11:12</time></trkpt><trkpt lat="56.2776832" lon="44.0193695"><time>2023-05-10T16:11:13</time></trkpt><trkpt lat="56.2776827" lon="44.0194141"><time>2023-05-10T16:11:14</time></trkpt><trkpt lat="56.2776842" lon="44.0194626"><time>2023-05-10T16:11:15</time></trkpt><trkpt lat="56.2776897" lon="44.0195229"><time>2023-05-10T16:11:16</time></trkpt><trkpt lat="56.2776993" lon="44.0195691"><time>2023-05-10T16:11:17</time></trkpt><trkpt lat="56.2777132" lon="44.0196100"><time>2023-05-10T16:11:18</time></trkpt><trkpt lat="56.2777260" lon="44.0196570"><time>2023-05-10T16:11:19</time></trkpt><trkpt lat="56.2777405" lon="44.0197063"><time>2023-05-10T16:11:20</time></trkpt><trkpt lat="56.2777537" lon="44.0197497"><time>2023-05-10T16:11:21</time></trkpt><trkpt lat="56.2777667" lon="44.0197969"><time>2023-05-10T16:11:22</time></trkpt><trkpt lat="56.2777796" lon="44.0198377"><time>2023-05-10T16:11:23</time></trkpt><trkpt lat="56.2777899" lon="44.0198817"><time>2023-05-10T16:11:24</time></trkpt><trkpt lat="56.2777942" lon="44.0199353"><time>2023-05-10T16:11:25</time></trkpt><trkpt lat="56.2777971" lon="44.0199848"><time>2023-05-10T16:11:26</time></trkpt><trkpt lat="56.2777980" lon="44.0200402"><time>2023-05-10T16:11:27</time></trkpt><trkpt lat="56.2777985" lon="44.0200900"><time>2023-05-10T16:11:28</time></trkpt><trkpt lat="56.2778008" lon="44.0201339"><time>2023-05-10T16:11:29</time></trkpt><trkpt lat="56.2778021" lon="44.0201908"><time>2023-05-10T16:11:30</time></trkpt><trkpt lat="56.2778014" lon="44.0202456"><time>2023-05-10T16:11:31</time></trkpt><trkpt lat="56.2778039" lon="44.0202965"><time>2023-05-10T16:11:32</time></trkpt><trkpt lat="56.2778050" lon="44.0203478"><time>2023-05-10T16:11:33</time></trkpt><trkpt lat="56.2778039" lon="44.0204035"><time>2023-05-10T16:11:34</time></trkpt><trkpt lat="56.2778075" lon="44.0204570"><time>2023-05-10T16:11:35</time></trkpt><trkpt lat="56.2778098" lon="44.0205152"><time>2023-05-10T16:11:36</time></trkpt><trkpt lat="56.2778079" lon="44.0205649"><time>2023-05-10T16:11:37</time></trkpt><trkpt lat="56.2778076" lon="44.0206143"><time>2023-05-10T16:11:38</time></trkpt><trkpt lat="56.2777995" lon="44.0206601"><time>2023-05-10T16:11:39</time></trkpt><trkpt lat="56.2777966" lon="44.0207001"><time>2023-05-10T16:11:40</time></trkpt><trkpt lat="56.2777940" lon="44.0207440"><time>2023-05-10T16:11:41</time></trkpt><trkpt lat="56.2777967" lon="44.0207928"><time>2023-05-10T16:11:42</time></trkpt><trkpt lat="56.2778042" lon="44.0208409"><time>2023-05-10T16:11:43</time></trkpt><trkpt lat="56.2778158" lon="44.0208837"><time>2023-05-10T16:11:44</time></trkpt><trkpt lat="56.2778303" lon="44.0209277"><time>2023-05-10T16:11:45</time></trkpt><trkpt lat="56.2778539" lon="44.0209610"><time>2023-05-10T16:11:46</time></trkpt><trkpt lat="56.2778759" lon="44.0210052"><time>2023-05-10T16:11:47</time></trkpt><trkpt lat="56.2778992" lon="44.0210492"><time>2023-05-10T16:11:48</time></trkpt><trkpt lat="56.2779247" lon="44.0210882"><time>2023-05-10T16:11:49</time></trkpt><trkpt lat="56.2779521" lon="44.0211266"><time>2023-05-10T16:11:50</time></trkpt><trkpt lat="56.2779750" lon="44.0211645"><time>2023-05-10T16:11:51</time></trkpt><trkpt lat="56.2779929" lon="44.0211961"><time>2023-05-10T16:11:52</time></trkpt><trkpt lat="56.2780115" lon="44.0212367"><time>2023-05-10T16:11:53</time></trkpt><trkpt lat="56.2780277" lon="44.0212740"><time>2023-05-10T16:11:54</time></trkpt><trkpt lat="56.2780450" lon="44.0213035"><time>2023-05-10T16:11:55</time></trkpt><trkpt lat="56.2780655" lon="44.0213383"><time>2023-05-10T16:11:56</time></trkpt><trkpt lat="56.2780875" lon="44.0213685"><time>2023-05-10T16:11:57</time></trkpt><trkpt lat="56.2781106" lon="44.0213973"><time>2023-05-10T16:11:58</time></trkpt><trkpt lat="56.2781337" lon="44.0214312"><time>2023-05-10T16:11:59</time></trkpt><trkpt lat="56.2781603" lon="44.0214537"><time>2023-05-10T16:12:00</time></trkpt><trkpt lat="56.2781850" lon="44.0214768"><time>2023-05-10T16:12:01</time></trkpt><trkpt lat="56.2782100" lon="44.0215030"><time>2023-05-10T16:12:02</time></trkpt><trkpt lat="56.2782347" lon="44.0215244"><time>2023-05-10T16:12:03</time></trkpt><trkpt lat="56.2782621" lon="44.0215542"><time>2023-05-10T16:12:04</time></trkpt><trkpt lat="56.2782867" lon="44.0215804"><time>2023-05-10T16:12:05</time></trkpt><trkpt lat="56.2783112" lon="44.0216097"><time>2023-05-10T16:12:06</time></trkpt><trkpt lat="56.2783339" lon="44.0216486"><time>2023-05-10T16:12:07</time></trkpt><trkpt lat="56.2783585" lon="44.0216861"><time>2023-05-10T16:12:08</time></trkpt><trkpt lat="56.2783822" lon="44.0217234"><time>2023-05-10T16:12:09</time></trkpt><trkpt lat="56.2784021" lon="44.0217623"><time>2023-05-10T16:12:10</time></trkpt><trkpt lat="56.2784217" lon="44.0217961"><time>2023-05-10T16:12:11</time></trkpt><trkpt lat="56.2784446" lon="44.0218345"><time>2023-05-10T16:12:12</time></trkpt><trkpt lat="56.2784652" lon="44.0218708"><time>2023-05-10T16:12:13</time></trkpt><trkpt lat="56.2784898" lon="44.0219049"><time>2023-05-10T16:12:14</time></trkpt><trkpt lat="56.2785124" lon="44.0219378"><time>2023-05-10T16:12:15</time></trkpt><trkpt lat="56.2785297" lon="44.0219705"><time>2023-05-10T16:12:16</time></trkpt><trkpt lat="56.2785525" lon="44.0220005"><time>2023-05-10T16:12:17</time></trkpt><trkpt lat="56.2785730" lon="44.0220380"><time>2023-05-10T16:12:18</time></trkpt><trkpt lat="56.2785956" lon="44.0220706"><time>2023-05-10T16:12:19</time></trkpt><trkpt lat="56.2786172" lon="44.0220983"><time>2023-05-10T16:12:20</time></trkpt><trkpt lat="56.2786379" lon="44.0221316"><time>2023-05-10T16:12:21</time></trkpt><trkpt lat="56.2786591" lon="44.0221642"><time>2023-05-10T16:12:22</time></trkpt><trkpt lat="56.2786835" lon="44.0221992"><time>2023-05-10T16:12:23</time></trkpt><trkpt lat="56.2787055" lon="44.0222373"><time>2023-05-10T16:12:24</time></trkpt><trkpt lat="56.2787265" lon="44.0222653"><time>2023-05-10T16:12:25</time></trkpt><trkpt lat="56.2787510" lon="44.0223041"><time>2023-05-10T16:12:26</time></trkpt><trkpt lat="56.2787725" lon="44.0223402"><time>2023-05-10T16:12:27</time></trkpt><trkpt lat="56.2787986" lon="44.0223759"><time>2023-05-10T16:12:28</time></trkpt><trkpt lat="56.2788230" lon="44.0224161"><time>2023-05-10T16:12:29</time></trkpt><trkpt lat="56.2788483" lon="44.0224561"><time>2023-05-10T16:12:30</time></trkpt><trkpt lat="56.2788703" lon="44.0224896"><time>2023-05-10T16:12:31</time></trkpt><trkpt lat="56.2788909" lon="44.0225324"><time>2023-05-10T16:12:32</time></trkpt><trkpt lat="56.2789109" lon="44.0225662"><time>2023-05-10T16:12:33</time></trkpt><trkpt lat="56.2789311" lon="44.0225952"><time>2023-05-10T16:12:34</time></trkpt><trkpt lat="56.2789561" lon="44.0226353"><time>2023-05-10T16:12:35</time></trkpt><trkpt lat="56.2789814" lon="44.0226717"><time>2023-05-10T16:12:36</time></trkpt><trkpt lat="56.2790078" lon="44.0227045"><time>2023-05-10T16:12:37</time></trkpt><trkpt lat="56.2790297" lon="44.0227388"><time>2023-05-10T16:12:38</time></trkpt><trkpt lat="56.2790563" lon="44.0227703"><time>2023-05-10T16:12:39</time></trkpt><trkpt lat="56.2790852" lon="44.0228135"><time>2023-05-10T16:12:40</time></trkpt><trkpt lat="56.2791083" lon="44.0228483"><time>2023-05-10T16:12:41</time></trkpt><trkpt lat="56.2791295" lon="44.0228737"><time>2023-05-10T16:12:42</time></trkpt><trkpt lat="56.2791537" lon="44.0229137"><time>2023-05-10T16:12:43</time></trkpt><trkpt lat="56.2791777" lon="44.0229478"><time>2023-05-10T16:12:44</time></trkpt><trkpt lat="56.2792016" lon="44.0229759"><time>2023-05-10T16:12:45</time></trkpt><trkpt lat="56.2792265" lon="44.0230080"><time>2023-05-10T16:12:46</time></trkpt><trkpt lat="56.2792531" lon="44.0230356"><time>2023-05-10T16:12:47</time></trkpt><trkpt lat="56.2792751" lon="44.0230630"><time>2023-05-10T16:12:48</time></trkpt><trkpt lat="56.2792995" lon="44.0231011"><time>2023-05-10T16:12:49</time></trkpt><trkpt lat="56.2793246" lon="44.0231357"><time>2023-05-10T16:12:50</time></trkpt><trkpt lat="56.2793559" lon="44.0231754"><time>2023-05-10T16:12:51</time></trkpt><trkpt lat="56.2793813" lon="44.0232138"><time>2023-05-10T16:12:52</time></trkpt><trkpt lat="56.2794043" lon="44.0232450"><time>2023-05-10T16:12:53</time></trkpt><trkpt lat="56.2794309" lon="44.0232901"><time>2023-05-10T16:12:54</time></trkpt><trkpt lat="56.2794522" lon="44.0233314"><time>2023-05-10T16:12:55</time></trkpt><trkpt lat="56.2794720" lon="44.0233738"><time>2023-05-10T16:12:56</time></trkpt><trkpt lat="56.2794852" lon="44.0234261"><time>2023-05-10T16:12:57</time></trkpt><trkpt lat="56.2794919" lon="44.0234784"><time>2023-05-10T16:12:58</time></trkpt><trkpt lat="56.2794942" lon="44.0235286"><time>2023-05-10T16:12:59</time></trkpt><trkpt lat="56.2794844" lon="44.0235889"><time>2023-05-10T16:13:00</time></trkpt><trkpt lat="56.2794761" lon="44.0236470"><time>2023-05-10T16:13:01</time></trkpt><trkpt lat="56.2794661" lon="44.0236987"><time>2023-05-10T16:13:02</time></trkpt><trkpt lat="56.2794460" lon="44.0237419"><time>2023-05-10T16:13:03</time></trkpt><trkpt lat="56.2794301" lon="44.0237866"><time>2023-05-10T16:13:04</time></trkpt><trkpt lat="56.2794139" lon="44.0238314"><time>2023-05-10T16:13:05</time></trkpt><trkpt lat="56.2793914" lon="44.0238756"><time>2023-05-10T16:13:06</time></trkpt><trkpt lat="56.2793732" lon="44.0239194"><time>2023-05-10T16:13:07</time></trkpt><trkpt lat="56.2793550" lon="44.0239643"><time>2023-05-10T16:13:08</time></trkpt><trkpt lat="56.2793322" lon="44.0240101"><time>2023-05-10T16:13:09</time></trkpt><trkpt lat="56.2793162" lon="44.0240544"><time>2023-05-10T16:13:10</time></trkpt><trkpt lat="56.2793051" lon="44.0240995"><time>2023-05-10T16:13:11</time></trkpt><trkpt lat="56.2792978" lon="44.0241472"><time>2023-05-10T16:13:12</time></trkpt><trkpt lat="56.2793010" lon="44.0241909"><time>2023-05-10T16:13:13</time></trkpt><trkpt lat="56.2793125" lon="44.0242422"><time>2023-05-10T16:13:14</time></trkpt><trkpt lat="56.2793260" lon="44.0242885"><time>2023-05-10T16:13:15</time></trkpt><trkpt lat="56.2793422" lon="44.0243275"><time>2023-05-10T16:13:16</time></trkpt><trkpt lat="56.2793611" lon="44.0243766"><time>2023-05-10T16:13:17</time></trkpt><trkpt lat="56.2793808" lon="44.0244152"><time>2023-05-10T16:13:18</time></trkpt><trkpt lat="56.2793994" lon="44.0244538"><time>2023-05-10T16:13:19</time></trkpt><trkpt lat="56.2794174" lon="44.0244961"><time>2023-05-10T16:13:20</time></trkpt><trkpt lat="56.2794363" lon="44.0245323"><time>2023-05-10T16:13:21</time></trkpt><trkpt lat="56.2794548" lon="44.0245783"><time>2023-05-10T16:13:22</time></trkpt><trkpt lat="56.2794723" lon="44.0246131"><time>2023-05-10T16:13:23</time></trkpt><trkpt lat="56.2794904" lon="44.0246440"><time>2023-05-10T16:13:24</time></trkpt><trkpt lat="56.2795132" lon="44.0246839"><time>2023-05-10T16:13:25</time></trkpt><trkpt lat="56.2795354" lon="44.0247173"><time>2023-05-10T16:13:26</time></trkpt><trkpt lat="56.2795575" lon="44.0247475"><time>2023-05-10T16:13:27</time></trkpt><trkpt lat="56.2795792" lon="44.0247879"><time>2023-05-10T16:13:28</time></trkpt><trkpt lat="56.2795998" lon="44.0248252"><time>2023-05-10T16:13:29</time></trkpt><trkpt lat="56.2796186" lon="44.0248689"><time>2023-05-10T16:13:30</time></trkpt><trkpt lat="56.2796350" lon="44.0249102"><time>2023-05-10T16:13:31</time></trkpt><trkpt lat="56.2796543" lon="44.0249461"><time>2023-05-10T16:13:32</time></trkpt><trkpt lat="56.2796762" lon="44.0249910"><time>2023-05-10T16:13:33</time></trkpt><trkpt lat="56.2796927" lon="44.0250279"><time>2023-05-10T16:13:34</time></trkpt><trkpt lat="56.2797121" lon="44.0250660"><time>2023-05-10T16:13:35</time></trkpt><trkpt lat="56.2797321" lon="44.0251087"><time>2023-05-10T16:13:36</time></trkpt><trkpt lat="56.2797489" lon="44.0251485"><time>2023-05-10T16:13:37</time></trkpt><trkpt lat="56.2797656" lon="44.0251883"><time>2023-05-10T16:13:38</time></trkpt><trkpt lat="56.2797775" lon="44.0252296"><time>2023-05-10T16:13:39</time></trkpt><trkpt lat="56.2797899" lon="44.0252732"><time>2023-05-10T16:13:40</time></trkpt><trkpt lat="56.2798011" lon="44.0253143"><time>2023-05-10T16:13:41</time></trkpt><trkpt lat="56.2798126" lon="44.0253572"><time>2023-05-10T16:13:42</time></trkpt><trkpt lat="56.2798273" lon="44.0254049"><time>2023-05-10T16:13:43</time></trkpt><trkpt lat="56.2798434" lon="44.0254553"><time>2023-05-10T16:13:44</time></trkpt><trkpt lat="56.2798574" lon="44.0255047"><time>2023-05-10T16:13:45</time></trkpt><trkpt lat="56.2798729" lon="44.0255443"><time>2023-05-10T16:13:46</time></trkpt><trkpt lat="56.2798928" lon="44.0255960"><time>2023-05-10T16:13:47</time></trkpt><trkpt lat="56.2799098" lon="44.0256422"><time>2023-05-10T16:13:48</time></trkpt><trkpt lat="56.2799273" lon="44.0256853"><time>2023-05-10T16:13:49</time></trkpt><trkpt lat="56.2799482" lon="44.0257359"><time>2023-05-10T16:13:50</time></trkpt><trkpt lat="56.2799670" lon="44.0257825"><time>2023-05-10T16:13:51</time></trkpt><trkpt lat="56.2799844" lon="44.0258242"><time>2023-05-10T16:13:52</time></trkpt><trkpt lat="56.2800021" lon="44.0258750"><time>2023-05-10T16:13:53</time></trkpt><trkpt lat="56.2800185" lon="44.0259174"><time>2023-05-10T16:13:54</time></trkpt><trkpt lat="56.2800365" lon="44.0259648"><time>2023-05-10T16:13:55</time></trkpt><trkpt lat="56.2800536" lon="44.0260124"><time>2023-05-10T16:13:56</time></trkpt><trkpt lat="56.2800699" lon="44.0260476"><time>2023-05-10T16:13:57</time></trkpt><trkpt lat="56.2800885" lon="44.0260938"><time>2023-05-10T16:13:58</time></trkpt><trkpt lat="56.2801038" lon="44.0261394"><time>2023-05-10T16:13:59</time></trkpt><trkpt lat="56.2801191" lon="44.0261836"><time>2023-05-10T16:14:00</time></trkpt><trkpt lat="56.2801326" lon="44.0262409"><time>2023-05-10T16:14:01</time></trkpt><trkpt lat="56.2801461" lon="44.0262962"><time>2023-05-10T16:14:02</time></trkpt><trkpt lat="56.2801639" lon="44.0263476"><time>2023-05-10T16:14:03</time></trkpt><trkpt lat="56.2801858" lon="44.0263992"><time>2023-05-10T16:14:04</time></trkpt><trkpt lat="56.2802113" lon="44.0264334"><time>2023-05-10T16:14:05</time></trkpt><trkpt lat="56.2802402" lon="44.0264580"><time>2023-05-10T16:14:06</time></trkpt><trkpt lat="56.2802648" lon="44.0264823"><time>2023-05-10T16:14:07</time></trkpt><trkpt lat="56.2802902" lon="44.0265050"><time>2023-05-10T16:14:08</time></trkpt><trkpt lat="56.2803217" lon="44.0265433"><time>2023-05-10T16:14:09</time></trkpt><trkpt lat="56.2803456" lon="44.0265791"><time>2023-05-10T16:14:10</time></trkpt><trkpt lat="56.2803700" lon="44.0266070"><time>2023-05-10T16:14:11</time></trkpt><trkpt lat="56.2803966" lon="44.0266462"><time>2023-05-10T16:14:12</time></trkpt><trkpt lat="56.2804182" lon="44.0266798"><time>2023-05-10T16:14:13</time></trkpt><trkpt lat="56.2804381" lon="44.0267222"><time>2023-05-10T16:14:14</time></trkpt><trkpt lat="56.2804515" lon="44.0267713"><time>2023-05-10T16:14:15</time></trkpt><trkpt lat="56.2804628" lon="44.0268207"><time>2023-05-10T16:14:16</time></trkpt><trkpt lat="56.2804700" lon="44.0268667"><time>2023-05-10T16:14:17</time></trkpt><trkpt lat="56.2804738" lon="44.0269252"><time>2023-05-10T16:14:18</time></trkpt><trkpt lat="56.2804759" lon="44.0269742"><time>2023-05-10T16:14:19</time></trkpt><trkpt lat="56.2804786" lon="44.0270257"><time>2023-05-10T16:14:20</time></trkpt><trkpt lat="56.2804816" lon="44.0270864"><time>2023-05-10T16:14:21</time></trkpt><trkpt lat="56.2804846" lon="44.0271438"><time>2023-05-10T16:14:22</time></trkpt><trkpt lat="56.2804859" lon="44.0271910"><time>2023-05-10T16:14:23</time></trkpt><trkpt lat="56.2804798" lon="44.0272443"><time>2023-05-10T16:14:24</time></trkpt><trkpt lat="56.2804784" lon="44.0272931"><time>2023-05-10T16:14:25</time></trkpt><trkpt lat="56.2804765" lon="44.0273498"><time>2023-05-10T16:14:26</time></trkpt><trkpt lat="56.2804711" lon="44.0274034"><time>2023-05-10T16:14:27</time></trkpt><trkpt lat="56.2804687" lon="44.0274505"><time>2023-05-10T16:14:28</time></trkpt><trkpt lat="56.2804655" lon="44.0275048"><time>2023-05-10T16:14:29</time></trkpt><trkpt lat="56.2804607" lon="44.0275594"><time>2023-05-10T16:14:30</time></trkpt><trkpt lat="56.2804613" lon="44.0276064"><time>2023-05-10T16:14:31</time></trkpt><trkpt lat="56.2804643" lon="44.0276620"><time>2023-05-10T16:14:32</time></trkpt><trkpt lat="56.2804705" lon="44.0277073"><time>2023-05-10T16:14:33</time></trkpt><trkpt lat="56.2804865" lon="44.0277525"><time>2023-05-10T16:14:34</time></trkpt><trkpt lat="56.2805082" lon="44.0277935"><time>2023-05-10T16:14:35</time></trkpt><trkpt lat="56.2805312" lon="44.0278256"><time>2023-05-10T16:14:36</time></trkpt><trkpt lat="56.2805571" lon="44.0278707"><time>2023-05-10T16:14:37</time></trkpt><trkpt lat="56.2805795" lon="44.0279069"><time>2023-05-10T16:14:38</time></trkpt><trkpt lat="56.2806015" lon="44.0279408"><time>2023-05-10T16:14:39</time></trkpt><trkpt lat="56.2806254" lon="44.0279855"><time>2023-05-10T16:14:40</time></trkpt><trkpt lat="56.2806455" lon="44.0280198"><time>2023-05-10T16:14:41</time></trkpt><trkpt lat="56.2806633" lon="44.0280567"><time>2023-05-10T16:14:42</time></trkpt><trkpt lat="56.2806810" lon="44.0281098"><time>2023-05-10T16:14:43</time></trkpt><trkpt lat="56.2806996" lon="44.0281497"><time>2023-05-10T16:14:44</time></trkpt><trkpt lat="56.2807167" lon="44.0281900"><time>2023-05-10T16:14:45</time></trkpt><trkpt lat="56.2807322" lon="44.0282270"><time>2023-05-10T16:14:46</time></trkpt><trkpt lat="56.2807498" lon="44.0282581"><time>2023-05-10T16:14:47</time></trkpt><trkpt lat="56.2807682" lon="44.0283004"><time>2023-05-10T16:14:48</time></trkpt><trkpt lat="56.2807835" lon="44.0283353"><time>2023-05-10T16:14:49</time></trkpt><trkpt lat="56.2807974" lon="44.0283641"><time>2023-05-10T16:14:50</time></trkpt><trkpt lat="56.2808126" lon="44.0284158"><time>2023-05-10T16:14:51</time></trkpt><trkpt lat="56.2808250" lon="44.0284587"><time>2023-05-10T16:14:52</time></trkpt><trkpt lat="56.2808377" lon="44.0285030"><time>2023-05-10T16:14:53</time></trkpt><trkpt lat="56.2808530" lon="44.0285430"><time>2023-05-10T16:14:54</time></trkpt><trkpt lat="56.2808682" lon="44.0285739"><time>2023-05-10T16:14:55</time></trkpt><trkpt lat="56.2808882" lon="44.0286091"><time>2023-05-10T16:14:56</time></trkpt><trkpt lat="56.2809047" lon="44.0286419"><time>2023-05-10T16:14:57</time></trkpt><trkpt lat="56.2809200" lon="44.0286758"><time>2023-05-10T16:14:58</time></trkpt><trkpt lat="56.2809364" lon="44.0287214"><time>2023-05-10T16:14:59</time></trkpt><trkpt lat="56.2809539" lon="44.0287537"><time>2023-05-10T16:15:00</time></trkpt><trkpt lat="56.2809712" lon="44.0287935"><time>2023-05-10T16:15:01</time></trkpt><trkpt lat="56.2809864" lon="44.0288266"><time>2023-05-10T16:15:02</time></trkpt><trkpt lat="56.2810027" lon="44.0288552"><time>2023-05-10T16:15:03</time></trkpt><trkpt lat="56.2810212" lon="44.0288927"><time>2023-05-10T16:15:04</time></trkpt><trkpt lat="56.2810360" lon="44.0289204"><time>2023-05-10T16:15:05</time></trkpt><trkpt lat="56.2810516" lon="44.0289496"><time>2023-05-10T16:15:06</time></trkpt><trkpt lat="56.2810645" lon="44.0289838"><time>2023-05-10T16:15:07</time></trkpt><trkpt lat="56.2810738" lon="44.0290185"><time>2023-05-10T16:15:08</time></trkpt><trkpt lat="56.2810860" lon="44.0290587"><time>2023-05-10T16:15:09</time></trkpt><trkpt lat="56.2810956" lon="44.0291007"><time>2023-05-10T16:15:10</time></trkpt><trkpt lat="56.2811088" lon="44.0291371"><time>2023-05-10T16:15:11</time></trkpt><trkpt lat="56.2811231" lon="44.0291731"><time>2023-05-10T16:15:12</time></trkpt><trkpt lat="56.2811408" lon="44.0292051"><time>2023-05-10T16:15:13</time></trkpt><trkpt lat="56.2811591" lon="44.0292248"><time>2023-05-10T16:15:14</time></trkpt><trkpt lat="56.2811750" lon="44.0292370"><time>2023-05-10T16:15:15</time></trkpt><trkpt lat="56.2811899" lon="44.0292506"><time>2023-05-10T16:15:16</time></trkpt><trkpt lat="56.2812041" lon="44.0292610"><time>2023-05-10T16:15:17</time></trkpt><trkpt lat="56.2812198" lon="44.0292661"><time>2023-05-10T16:15:18</time></trkpt><trkpt lat="56.2812362" lon="44.0292686"><time>2023-05-10T16:15:19</time></trkpt><trkpt lat="56.2812534" lon="44.0292742"><time>2023-05-10T16:15:20</time></trkpt><trkpt lat="56.2812695" lon="44.0292814"><time>2023-05-10T16:15:21</time></trkpt><trkpt lat="56.2812875" lon="44.0292928"><time>2023-05-10T16:15:22</time></trkpt><trkpt lat="56.2813047" lon="44.0293016"><time>2023-05-10T16:15:23</time></trkpt><trkpt lat="56.2813210" lon="44.0293075"><time>2023-05-10T16:15:24</time></trkpt><trkpt lat="56.2813393" lon="44.0293162"><time>2023-05-10T16:15:25</time></trkpt><trkpt lat="56.2813563" lon="44.0293240"><time>2023-05-10T16:15:26</time></trkpt><trkpt lat="56.2813757" lon="44.0293373"><time>2023-05-10T16:15:27</time></trkpt><trkpt lat="56.2813969" lon="44.0293514"><time>2023-05-10T16:15:28</time></trkpt><trkpt lat="56.2814139" lon="44.0293607"><time>2023-05-10T16:15:29</time></trkpt><trkpt lat="56.2814351" lon="44.0293728"><time>2023-05-10T16:15:30</time></trkpt><trkpt lat="56.2814566" lon="44.0293842"><time>2023-05-10T16:15:31</time></trkpt><trkpt lat="56.2814761" lon="44.0293929"><time>2023-05-10T16:15:32</time></trkpt><trkpt lat="56.2815018" lon="44.0294065"><time>2023-05-10T16:15:33</time></trkpt><trkpt lat="56.2815240" lon="44.0294184"><time>2023-05-10T16:15:34</time></trkpt><trkpt lat="56.2815470" lon="44.0294323"><time>2023-05-10T16:15:35</time></trkpt><trkpt lat="56.2815695" lon="44.0294468"><time>2023-05-10T16:15:36</time></trkpt><trkpt lat="56.2815895" lon="44.0294630"><time>2023-05-10T16:15:37</time></trkpt><trkpt lat="56.2816103" lon="44.0294747"><time>2023-05-10T16:15:38</time></trkpt><trkpt lat="56.2816317" lon="44.0294907"><time>2023-05-10T16:15:39</time></trkpt><trkpt lat="56.2816512" lon="44.0295014"><time>2023-05-10T16:15:40</time></trkpt><trkpt lat="56.2816741" lon="44.0295108"><time>2023-05-10T16:15:41</time></trkpt><trkpt lat="56.2816903" lon="44.0295233"><time>2023-05-10T16:15:42</time></trkpt><trkpt lat="56.2817056" lon="44.0295376"><time>2023-05-10T16:15:43</time></trkpt><trkpt lat="56.2817201" lon="44.0295521"><time>2023-05-10T16:15:44</time></trkpt><trkpt lat="56.2817326" lon="44.0295696"><time>2023-05-10T16:15:45</time></trkpt><trkpt lat="56.2817464" lon="44.0295882"><time>2023-05-10T16:15:46</time></trkpt><trkpt lat="56.2817595" lon="44.0296013"><time>2023-05-10T16:15:47</time></trkpt><trkpt lat="56.2817714" lon="44.0296229"><time>2023-05-10T16:15:48</time></trkpt><trkpt lat="56.2817828" lon="44.0296434"><time>2023-05-10T16:15:49</time></trkpt><trkpt lat="56.2817957" lon="44.0296594"><time>2023-05-10T16:15:50</time></trkpt><trkpt lat="56.2818076" lon="44.0296764"><time>2023-05-10T16:15:51</time></trkpt><trkpt lat="56.2818208" lon="44.0296912"><time>2023-05-10T16:15:52</time></trkpt><trkpt lat="56.2818354" lon="44.0297032"><time>2023-05-10T16:15:53</time></trkpt><trkpt lat="56.2818510" lon="44.0297168"><time>2023-05-10T16:15:54</time></trkpt><trkpt lat="56.2818655" lon="44.0297292"><time>2023-05-10T16:15:55</time></trkpt><trkpt lat="56.2818804" lon="44.0297371"><time>2023-05-10T16:15:56</time></trkpt><trkpt lat="56.2818944" lon="44.0297522"><time>2023-05-10T16:15:57</time></trkpt><trkpt lat="56.2819084" lon="44.0297656"><time>2023-05-10T16:15:58</time></trkpt><trkpt lat="56.2819234" lon="44.0297754"><time>2023-05-10T16:15:59</time></trkpt><trkpt lat="56.2819382" lon="44.0297874"><time>2023-05-10T16:16:00</time></trkpt><trkpt lat="56.2819506" lon="44.0298000"><time>2023-05-10T16:16:01</time></trkpt><trkpt lat="56.2819642" lon="44.0298084"><time>2023-05-10T16:16:02</time></trkpt><trkpt lat="56.2819775" lon="44.0298142"><time>2023-05-10T16:16:03</time></trkpt><trkpt lat="56.2819926" lon="44.0298262"><time>2023-05-10T16:16:04</time></trkpt><trkpt lat="56.2820064" lon="44.0298387"><time>2023-05-10T16:16:05</time></trkpt><trkpt lat="56.2820191" lon="44.0298501"><time>2023-05-10T16:16:06</time></trkpt><trkpt lat="56.2820327" lon="44.0298554"><time>2023-05-10T16:16:07</time></trkpt><trkpt lat="56.2820475" lon="44.0298615"><time>2023-05-10T16:16:08</time></trkpt><trkpt lat="56.2820569" lon="44.0298612"><time>2023-05-10T16:16:09</time></trkpt><trkpt lat="56.2820687" lon="44.0298687"><time>2023-05-10T16:16:10</time></trkpt><trkpt lat="56.2820803" lon="44.0298790"><time>2023-05-10T16:16:11</time></trkpt><trkpt lat="56.2820920" lon="44.0298857"><time>2023-05-10T16:16:12</time></trkpt><trkpt lat="56.2821011" lon="44.0298889"><time>2023-05-10T16:16:13</time></trkpt><trkpt lat="56.2821123" lon="44.0298987"><time>2023-05-10T16:16:14</time></trkpt><trkpt lat="56.2821245" lon="44.0299136"><time>2023-05-10T16:16:15</time></trkpt><trkpt lat="56.2821352" lon="44.0299264"><time>2023-05-10T16:16:16</time></trkpt><trkpt lat="56.2821438" lon="44.0299364"><time>2023-05-10T16:16:17</time></trkpt><trkpt lat="56.2821558" lon="44.0299480"><time>2023-05-10T16:16:18</time></trkpt><trkpt lat="56.2821663" lon="44.0299556"><time>2023-05-10T16:16:19</time></trkpt><trkpt lat="56.2821767" lon="44.0299644"><time>2023-05-10T16:16:20</time></trkpt><trkpt lat="56.2821871" lon="44.0299715"><time>2023-05-10T16:16:21</time></trkpt><trkpt lat="56.2821972" lon="44.0299812"><time>2023-05-10T16:16:22</time></trkpt><trkpt lat="56.2822085" lon="44.0299909"><time>2023-05-10T16:16:23</time></trkpt><trkpt lat="56.2822189" lon="44.0300012"><time>2023-05-10T16:16:24</time></trkpt><trkpt lat="56.2822262" lon="44.0300064"><time>2023-05-10T16:16:25</time></trkpt><trkpt lat="56.2822330" lon="44.0300079"><time>2023-05-10T16:16:26</time></trkpt><trkpt lat="56.2822379" lon="44.0300056"><time>2023-05-10T16:16:27</time></trkpt><trkpt lat="56.2822485" lon="44.0300047"><time>2023-05-10T16:16:28</time></trkpt><trkpt lat="56.2822590" lon="44.0300069"><time>2023-05-10T16:16:29</time></trkpt><trkpt lat="56.2822654" lon="44.0300104"><time>2023-05-10T16:16:30</time></trkpt><trkpt lat="56.2822774" lon="44.0300166"><time>2023-05-10T16:16:31</time></trkpt><trkpt lat="56.2822896" lon="44.0300218"><time>2023-05-10T16:16:32</time></trkpt><trkpt lat="56.2822997" lon="44.0300289"><time>2023-05-10T16:16:33</time></trkpt><trkpt lat="56.2823146" lon="44.0300383"><time>2023-05-10T16:16:34</time></trkpt><trkpt lat="56.2823281" lon="44.0300552"><time>2023-05-10T16:16:35</time></trkpt><trkpt lat="56.2823392" lon="44.0300705"><time>2023-05-10T16:16:36</time></trkpt><trkpt lat="56.2823513" lon="44.0300829"><time>2023-05-10T16:16:37</time></trkpt><trkpt lat="56.2823607" lon="44.0300970"><time>2023-05-10T16:16:38</time></trkpt><trkpt lat="56.2823681" lon="44.0301139"><time>2023-05-10T16:16:39</time></trkpt><trkpt lat="56.2823740" lon="44.0301375"><time>2023-05-10T16:16:40</time></trkpt><trkpt lat="56.2823811" lon="44.0301633"><time>2023-05-10T16:16:41</time></trkpt><trkpt lat="56.2823881" lon="44.0301894"><time>2023-05-10T16:16:42</time></trkpt><trkpt lat="56.2823952" lon="44.0302095"><time>2023-05-10T16:16:43</time></trkpt><trkpt lat="56.2824032" lon="44.0302274"><time>2023-05-10T16:16:44</time></trkpt><trkpt lat="56.2824111" lon="44.0302394"><time>2023-05-10T16:16:45</time></trkpt><trkpt lat="56.2824194" lon="44.0302536"><time>2023-05-10T16:16:46</time></trkpt><trkpt lat="56.2824251" lon="44.0302652"><time>2023-05-10T16:16:47</time></trkpt><trkpt lat="56.2824332" lon="44.0302797"><time>2023-05-10T16:16:48</time></trkpt><trkpt lat="56.2824409" lon="44.0302881"><time>2023-05-10T16:16:49</time></trkpt><trkpt lat="56.2824504" lon="44.0303003"><time>2023-05-10T16:16:50</time></trkpt><trkpt lat="56.2824607" lon="44.0303122"><time>2023-05-10T16:16:51</time></trkpt><trkpt lat="56.2824696" lon="44.0303190"><time>2023-05-10T16:16:52</time></trkpt><trkpt lat="56.2824798" lon="44.0303313"><time>2023-05-10T16:16:53</time></trkpt><trkpt lat="56.2824897" lon="44.0303425"><time>2023-05-10T16:16:54</time></trkpt><trkpt lat="56.2824979" lon="44.0303545"><time>2023-05-10T16:16:55</time></trkpt><trkpt lat="56.2825057" lon="44.0303665"><time>2023-05-10T16:16:56</time></trkpt><trkpt lat="56.2825157" lon="44.0303819"><time>2023-05-10T16:16:57</time></trkpt><trkpt lat="56.2825246" lon="44.0303984"><time>2023-05-10T16:16:58</time></trkpt><trkpt lat="56.2825356" lon="44.0304255"><time>2023-05-10T16:16:59</time></trkpt><trkpt lat="56.2825462" lon="44.0304461"><time>2023-05-10T16:17:00</time></trkpt><trkpt lat="56.2825562" lon="44.0304563"><time>2023-05-10T16:17:01</time></trkpt><trkpt lat="56.2825703" lon="44.0304693"><time>2023-05-10T16:17:02</time></trkpt><trkpt lat="56.2825831" lon="44.0304896"><time>2023-05-10T16:17:03</time></trkpt><trkpt lat="56.2825995" lon="44.0305090"><time>2023-05-10T16:17:04</time></trkpt><trkpt lat="56.2826162" lon="44.0305223"><time>2023-05-10T16:17:05</time></trkpt><trkpt lat="56.2826349" lon="44.0305312"><time>2023-05-10T16:17:06</time></trkpt><trkpt lat="56.2826530" lon="44.0305379"><time>2023-05-10T16:17:07</time></trkpt><trkpt lat="56.2826657" lon="44.0305305"><time>2023-05-10T16:17:08</time></trkpt><trkpt lat="56.2826803" lon="44.0305094"><time>2023-05-10T16:17:09</time></trkpt><trkpt lat="56.2826908" lon="44.0304774"><time>2023-05-10T16:17:10</time></trkpt><trkpt lat="56.2826979" lon="44.0304409"><time>2023-05-10T16:17:11</time></trkpt><trkpt lat="56.2827009" lon="44.0304018"><time>2023-05-10T16:17:12</time></trkpt><trkpt lat="56.2827049" lon="44.0303520"><time>2023-05-10T16:17:13</time></trkpt><trkpt lat="56.2827128" lon="44.0303128"><time>2023-05-10T16:17:14</time></trkpt><trkpt lat="56.2827197" lon="44.0302772"><time>2023-05-10T16:17:15</time></trkpt><trkpt lat="56.2827278" lon="44.0302545"><time>2023-05-10T16:17:16</time></trkpt><trkpt lat="56.2827396" lon="44.0302341"><time>2023-05-10T16:17:17</time></trkpt><trkpt lat="56.2827468" lon="44.0302118"><time>2023-05-10T16:17:18</time></trkpt><trkpt lat="56.2827514" lon="44.0301872"><time>2023-05-10T16:17:19</time></trkpt><trkpt lat="56.2827593" lon="44.0301524"><time>2023-05-10T16:17:20</time></trkpt><trkpt lat="56.2827750" lon="44.0301224"><time>2023-05-10T16:17:21</time></trkpt><trkpt lat="56.2827918" lon="44.0300965"><time>2023-05-10T16:17:22</time></trkpt><trkpt lat="56.2828095" lon="44.0300738"><time>2023-05-10T16:17:23</time></trkpt><trkpt lat="56.2828226" lon="44.0300516"><time>2023-05-10T16:17:24</time></trkpt><trkpt lat="56.2828382" lon="44.0300260"><time>2023-05-10T16:17:25</time></trkpt><trkpt lat="56.2828592" lon="44.0299959"><time>2023-05-10T16:17:26</time></trkpt><trkpt lat="56.2828792" lon="44.0299752"><time>2023-05-10T16:17:27</time></trkpt><trkpt lat="56.2828983" lon="44.0299512"><time>2023-05-10T16:17:28</time></trkpt><trkpt lat="56.2829185" lon="44.0299378"><time>2023-05-10T16:17:29</time></trkpt><trkpt lat="56.2829374" lon="44.0299218"><time>2023-05-10T16:17:30</time></trkpt><trkpt lat="56.2829576" lon="44.0298991"><time>2023-05-10T16:17:31</time></trkpt><trkpt lat="56.2829765" lon="44.0298759"><time>2023-05-10T16:17:32</time></trkpt><trkpt lat="56.2830003" lon="44.0298568"><time>2023-05-10T16:17:33</time></trkpt><trkpt lat="56.2830218" lon="44.0298426"><time>2023-05-10T16:17:34</time></trkpt><trkpt lat="56.2830436" lon="44.0298292"><time>2023-05-10T16:17:35</time></trkpt><trkpt lat="56.2830661" lon="44.0298202"><time>2023-05-10T16:17:36</time></trkpt><trkpt lat="56.2830920" lon="44.0298116"><time>2023-05-10T16:17:37</time></trkpt><trkpt lat="56.2831173" lon="44.0298004"><time>2023-05-10T16:17:38</time></trkpt><trkpt lat="56.2831396" lon="44.0297959"><time>2023-05-10T16:17:39</time></trkpt><trkpt lat="56.2831595" lon="44.0297854"><time>2023-05-10T16:17:40</time></trkpt><trkpt lat="56.2831805" lon="44.0297722"><time>2023-05-10T16:17:41</time></trkpt><trkpt lat="56.2832065" lon="44.0297593"><time>2023-05-10T16:17:42</time></trkpt><trkpt lat="56.2832314" lon="44.0297445"><time>2023-05-10T16:17:43</time></trkpt><trkpt lat="56.2832563" lon="44.0297303"><time>2023-05-10T16:17:44</time></trkpt><trkpt lat="56.2832813" lon="44.0297219"><time>2023-05-10T16:17:45</time></trkpt><trkpt lat="56.2833061" lon="44.0297118"><time>2023-05-10T16:17:46</time></trkpt><trkpt lat="56.2833289" lon="44.0297025"><time>2023-05-10T16:17:47</time></trkpt><trkpt lat="56.2833518" lon="44.0296896"><time>2023-05-10T16:17:48</time></trkpt><trkpt lat="56.2833760" lon="44.0296771"><time>2023-05-10T16:17:49</time></trkpt><trkpt lat="56.2834000" lon="44.0296568"><time>2023-05-10T16:17:50</time></trkpt><trkpt lat="56.2834203" lon="44.0296309"><time>2023-05-10T16:17:51</time></trkpt><trkpt lat="56.2834422" lon="44.0296035"><time>2023-05-10T16:17:52</time></trkpt><trkpt lat="56.2834615" lon="44.0295757"><time>2023-05-10T16:17:53</time></trkpt><trkpt lat="56.2834837" lon="44.0295425"><time>2023-05-10T16:17:54</time></trkpt><trkpt lat="56.2835010" lon="44.0295156"><time>2023-05-10T16:17:55</time></trkpt><trkpt lat="56.2835163" lon="44.0294835"><time>2023-05-10T16:17:56</time></trkpt><trkpt lat="56.2835334" lon="44.0294537"><time>2023-05-10T16:17:57</time></trkpt><trkpt lat="56.2835468" lon="44.0294209"><time>2023-05-10T16:17:58</time></trkpt><trkpt lat="56.2835580" lon="44.0293923"><time>2023-05-10T16:17:59</time></trkpt><trkpt lat="56.2835702" lon="44.0293531"><time>2023-05-10T16:18:00</time></trkpt><trkpt lat="56.2835807" lon="44.0293190"><time>2023-05-10T16:18:01</time></trkpt><trkpt lat="56.2835858" lon="44.0292962"><time>2023-05-10T16:18:02</time></trkpt><trkpt lat="56.2835899" lon="44.0292828"><time>2023-05-10T16:18:03</time></trkpt><trkpt lat="56.2835903" lon="44.0292803"><time>2023-05-10T16:18:04</time></trkpt><trkpt lat="56.2835867" lon="44.0292751"><time>2023-05-10T16:18:05</time></trkpt><trkpt lat="56.2835808" lon="44.0292753"><time>2023-05-10T16:18:06</time></trkpt><trkpt lat="56.2835746" lon="44.0292739"><time>2023-05-10T16:18:07</time></trkpt><trkpt lat="56.2835694" lon="44.0292529"><time>2023-05-10T16:18:08</time></trkpt><trkpt lat="56.2835648" lon="44.0292262"><time>2023-05-10T16:18:09</time></trkpt><trkpt lat="56.2835609" lon="44.0291854"><time>2023-05-10T16:18:10</time></trkpt><trkpt lat="56.2835590" lon="44.0291500"><time>2023-05-10T16:18:11</time></trkpt><trkpt lat="56.2835575" lon="44.0291160"><time>2023-05-10T16:18:12</time></trkpt><trkpt lat="56.2835518" lon="44.0290825"><time>2023-05-10T16:18:13</time></trkpt><trkpt lat="56.2835460" lon="44.0290496"><time>2023-05-10T16:18:14</time></trkpt><trkpt lat="56.2835414" lon="44.0290165"><time>2023-05-10T16:18:15</time></trkpt><trkpt lat="56.2835375" lon="44.0289906"><time>2023-05-10T16:18:16</time></trkpt><trkpt lat="56.2835381" lon="44.0289860"><time>2023-05-10T16:18:17</time></trkpt><trkpt lat="56.2835392" lon="44.0290071"><time>2023-05-10T16:18:18</time></trkpt><trkpt lat="56.2835434" lon="44.0290295"><time>2023-05-10T16:18:19</time></trkpt><trkpt lat="56.2835514" lon="44.0290455"><time>2023-05-10T16:18:20</time></trkpt><trkpt lat="56.2835647" lon="44.0290579"><time>2023-05-10T16:18:21</time></trkpt><trkpt lat="56.2835782" lon="44.0290581"><time>2023-05-10T16:18:22</time></trkpt><trkpt lat="56.2835891" lon="44.0290513"><time>2023-05-10T16:18:23</time></trkpt><trkpt lat="56.2836079" lon="44.0290358"><time>2023-05-10T16:18:24</time></trkpt><trkpt lat="56.2836214" lon="44.0290175"><time>2023-05-10T16:18:25</time></trkpt><trkpt lat="56.2836367" lon="44.0289936"><time>2023-05-10T16:18:26</time></trkpt><trkpt lat="56.2836572" lon="44.0289556"><time>2023-05-10T16:18:27</time></trkpt><trkpt lat="56.2836783" lon="44.0289138"><time>2023-05-10T16:18:28</time></trkpt><trkpt lat="56.2836928" lon="44.0288769"><time>2023-05-10T16:18:29</time></trkpt><trkpt lat="56.2837056" lon="44.0288391"><time>2023-05-10T16:18:30</time></trkpt><trkpt lat="56.2837204" lon="44.0288014"><time>2023-05-10T16:18:31</time></trkpt><trkpt lat="56.2837320" lon="44.0287664"><time>2023-05-10T16:18:32</time></trkpt><trkpt lat="56.2837479" lon="44.0287243"><time>2023-05-10T16:18:33</time></trkpt><trkpt lat="56.2837659" lon="44.0286864"><time>2023-05-10T16:18:34</time></trkpt><trkpt lat="56.2837810" lon="44.0286508"><time>2023-05-10T16:18:35</time></trkpt><trkpt lat="56.2837968" lon="44.0286031"><time>2023-05-10T16:18:36</time></trkpt><trkpt lat="56.2838099" lon="44.0285630"><time>2023-05-10T16:18:37</time></trkpt><trkpt lat="56.2838216" lon="44.0285243"><time>2023-05-10T16:18:38</time></trkpt><trkpt lat="56.2838275" lon="44.0284765"><time>2023-05-10T16:18:39</time></trkpt><trkpt lat="56.2838321" lon="44.0284295"><time>2023-05-10T16:18:40</time></trkpt><trkpt lat="56.2838345" lon="44.0283857"><time>2023-05-10T16:18:41</time></trkpt><trkpt lat="56.2838320" lon="44.0283373"><time>2023-05-10T16:18:42</time></trkpt><trkpt lat="56.2838256" lon="44.0282837"><time>2023-05-10T16:18:43</time></trkpt><trkpt lat="56.2838180" lon="44.0282422"><time>2023-05-10T16:18:44</time></trkpt><trkpt lat="56.2838066" lon="44.0282041"><time>2023-05-10T16:18:45</time></trkpt><trkpt lat="56.2837932" lon="44.0281644"><time>2023-05-10T16:18:46</time></trkpt><trkpt lat="56.2837839" lon="44.0281332"><time>2023-05-10T16:18:47</time></trkpt><trkpt lat="56.2837744" lon="44.0281039"><time>2023-05-10T16:18:48</time></trkpt><trkpt lat="56.2837648" lon="44.0280684"><time>2023-05-10T16:18:49</time></trkpt><trkpt lat="56.2837533" lon="44.0280281"><time>2023-05-10T16:18:50</time></trkpt><trkpt lat="56.2837424" lon="44.0279915"><time>2023-05-10T16:18:51</time></trkpt><trkpt lat="56.2837317" lon="44.0279525"><time>2023-05-10T16:18:52</time></trkpt><trkpt lat="56.2837156" lon="44.0279140"><time>2023-05-10T16:18:53</time></trkpt><trkpt lat="56.2837033" lon="44.0278714"><time>2023-05-10T16:18:54</time></trkpt><trkpt lat="56.2836901" lon="44.0278176"><time>2023-05-10T16:18:55</time></trkpt><trkpt lat="56.2836804" lon="44.0277660"><time>2023-05-10T16:18:56</time></trkpt><trkpt lat="56.2836705" lon="44.0277161"><time>2023-05-10T16:18:57</time></trkpt><trkpt lat="56.2836567" lon="44.0276653"><time>2023-05-10T16:18:58</time></trkpt><trkpt lat="56.2836446" lon="44.0276167"><time>2023-05-10T16:18:59</time></trkpt><trkpt lat="56.2836323" lon="44.0275672"><time>2023-05-10T16:19:00</time></trkpt><trkpt lat="56.2836189" lon="44.0275220"><time>2023-05-10T16:19:01</time></trkpt><trkpt lat="56.2836060" lon="44.0274736"><time>2023-05-10T16:19:02</time></trkpt><trkpt lat="56.2835935" lon="44.0274217"><time>2023-05-10T16:19:03</time></trkpt><trkpt lat="56.2835790" lon="44.0273779"><time>2023-05-10T16:19:04</time></trkpt><trkpt lat="56.2835677" lon="44.0273243"><time>2023-05-10T16:19:05</time></trkpt><trkpt lat="56.2835554" lon="44.0272743"><time>2023-05-10T16:19:06</time></trkpt><trkpt lat="56.2835433" lon="44.0272288"><time>2023-05-10T16:19:07</time></trkpt><trkpt lat="56.2835336" lon="44.0271784"><time>2023-05-10T16:19:08</time></trkpt><trkpt lat="56.2835252" lon="44.0271298"><time>2023-05-10T16:19:09</time></trkpt><trkpt lat="56.2835119" lon="44.0270807"><time>2023-05-10T16:19:10</time></trkpt><trkpt lat="56.2834997" lon="44.0270297"><time>2023-05-10T16:19:11</time></trkpt><trkpt lat="56.2834919" lon="44.0269838"><time>2023-05-10T16:19:12</time></trkpt><trkpt lat="56.2834845" lon="44.0269336"><time>2023-05-10T16:19:13</time></trkpt><trkpt lat="56.2834762" lon="44.0268901"><time>2023-05-10T16:19:14</time></trkpt><trkpt lat="56.2834656" lon="44.0268423"><time>2023-05-10T16:19:15</time></trkpt><trkpt lat="56.2834541" lon="44.0268002"><time>2023-05-10T16:19:16</time></trkpt><trkpt lat="56.2834368" lon="44.0267596"><time>2023-05-10T16:19:17</time></trkpt><trkpt lat="56.2834201" lon="44.0267130"><time>2023-05-10T16:19:18</time></trkpt><trkpt lat="56.2834063" lon="44.0266699"><time>2023-05-10T16:19:19</time></trkpt><trkpt lat="56.2833953" lon="44.0266206"><time>2023-05-10T16:19:20</time></trkpt><trkpt lat="56.2833816" lon="44.0265744"><time>2023-05-10T16:19:21</time></trkpt><trkpt lat="56.2833696" lon="44.0265228"><time>2023-05-10T16:19:22</time></trkpt><trkpt lat="56.2833568" lon="44.0264680"><time>2023-05-10T16:19:23</time></trkpt><trkpt lat="56.2833439" lon="44.0264170"><time>2023-05-10T16:19:24</time></trkpt><trkpt lat="56.2833294" lon="44.0263630"><time>2023-05-10T16:19:25</time></trkpt><trkpt lat="56.2833174" lon="44.0263148"><time>2023-05-10T16:19:26</time></trkpt><trkpt lat="56.2833085" lon="44.0262725"><time>2023-05-10T16:19:27</time></trkpt><trkpt lat="56.2833015" lon="44.0262209"><time>2023-05-10T16:19:28</time></trkpt><trkpt lat="56.2832937" lon="44.0261770"><time>2023-05-10T16:19:29</time></trkpt><trkpt lat="56.2832869" lon="44.0261356"><time>2023-05-10T16:19:30</time></trkpt><trkpt lat="56.2832760" lon="44.0260969"><time>2023-05-10T16:19:31</time></trkpt><trkpt lat="56.2832614" lon="44.0260534"><time>2023-05-10T16:19:32</time></trkpt><trkpt lat="56.2832442" lon="44.0260060"><time>2023-05-10T16:19:33</time></trkpt><trkpt lat="56.2832316" lon="44.0259568"><time>2023-05-10T16:19:34</time></trkpt><trkpt lat="56.2832154" lon="44.0259188"><time>2023-05-10T16:19:35</time></trkpt><trkpt lat="56.2831971" lon="44.0258854"><time>2023-05-10T16:19:36</time></trkpt><trkpt lat="56.2831747" lon="44.0258675"><time>2023-05-10T16:19:37</time></trkpt><trkpt lat="56.2831632" lon="44.0258566"><time>2023-05-10T16:19:38</time></trkpt><trkpt lat="56.2831568" lon="44.0258507"><time>2023-05-10T16:19:39</time></trkpt><trkpt lat="56.2831606" lon="44.0258502"><time>2023-05-10T16:19:40</time></trkpt><trkpt lat="56.2831643" lon="44.0258417"><time>2023-05-10T16:19:41</time></trkpt><trkpt lat="56.2831702" lon="44.0258261"><time>2023-05-10T16:19:42</time></trkpt><trkpt lat="56.2831704" lon="44.0257881"><time>2023-05-10T16:19:43</time></trkpt><trkpt lat="56.2831691" lon="44.0257384"><time>2023-05-10T16:19:44</time></trkpt><trkpt lat="56.2831684" lon="44.0256970"><time>2023-05-10T16:19:45</time></trkpt><trkpt lat="56.2831689" lon="44.0256385"><time>2023-05-10T16:19:46</time></trkpt><trkpt lat="56.2831684" lon="44.0255959"><time>2023-05-10T16:19:47</time></trkpt><trkpt lat="56.2831628" lon="44.0255508"><time>2023-05-10T16:19:48</time></trkpt><trkpt lat="56.2831595" lon="44.0255163"><time>2023-05-10T16:19:49</time></trkpt><trkpt lat="56.2831553" lon="44.0254870"><time>2023-05-10T16:19:50</time></trkpt><trkpt lat="56.2831472" lon="44.0254613"><time>2023-05-10T16:19:51</time></trkpt><trkpt lat="56.2831378" lon="44.0254383"><time>2023-05-10T16:19:52</time></trkpt><trkpt lat="56.2831267" lon="44.0254049"><time>2023-05-10T16:19:53</time></trkpt><trkpt lat="56.2831163" lon="44.0253760"><time>2023-05-10T16:19:54</time></trkpt><trkpt lat="56.2831047" lon="44.0253455"><time>2023-05-10T16:19:55</time></trkpt><trkpt lat="56.2830927" lon="44.0253108"><time>2023-05-10T16:19:56</time></trkpt><trkpt lat="56.2830830" lon="44.0252837"><time>2023-05-10T16:19:57</time></trkpt><trkpt lat="56.2830742" lon="44.0252562"><time>2023-05-10T16:19:58</time></trkpt><trkpt lat="56.2830611" lon="44.0252246"><time>2023-05-10T16:19:59</time></trkpt><trkpt lat="56.2830483" lon="44.0251898"><time>2023-05-10T16:20:00</time></trkpt><trkpt lat="56.2830322" lon="44.0251588"><time>2023-05-10T16:20:01</time></trkpt><trkpt lat="56.2830176" lon="44.0251239"><time>2023-05-10T16:20:02</time></trkpt><trkpt lat="56.2830040" lon="44.0250901"><time>2023-05-10T16:20:03</time></trkpt><trkpt lat="56.2829920" lon="44.0250564"><time>2023-05-10T16:20:04</time></trkpt><trkpt lat="56.2829809" lon="44.0250226"><time>2023-05-10T16:20:05</time></trkpt><trkpt lat="56.2829698" lon="44.0249818"><time>2023-05-10T16:20:06</time></trkpt><trkpt lat="56.2829617" lon="44.0249444"><time>2023-05-10T16:20:07</time></trkpt><trkpt lat="56.2829547" lon="44.0249007"><time>2023-05-10T16:20:08</time></trkpt><trkpt lat="56.2829482" lon="44.0248571"><time>2023-05-10T16:20:09</time></trkpt><trkpt lat="56.2829465" lon="44.0248131"><time>2023-05-10T16:20:10</time></trkpt><trkpt lat="56.2829469" lon="44.0247713"><time>2023-05-10T16:20:11</time></trkpt><trkpt lat="56.2829524" lon="44.0247206"><time>2023-05-10T16:20:12</time></trkpt><trkpt lat="56.2829615" lon="44.0246729"><time>2023-05-10T16:20:13</time></trkpt><trkpt lat="56.2829704" lon="44.0246314"><time>2023-05-10T16:20:14</time></trkpt><trkpt lat="56.2829797" lon="44.0245906"><time>2023-05-10T16:20:15</time></trkpt><trkpt lat="56.2829975" lon="44.0245537"><time>2023-05-10T16:20:16</time></trkpt><trkpt lat="56.2830151" lon="44.0245292"><time>2023-05-10T16:20:17</time></trkpt><trkpt lat="56.2830360" lon="44.0245057"><time>2023-05-10T16:20:18</time></trkpt><trkpt lat="56.2830608" lon="44.0244823"><time>2023-05-10T16:20:19</time></trkpt><trkpt lat="56.2830835" lon="44.0244589"><time>2023-05-10T16:20:20</time></trkpt><trkpt lat="56.2831019" lon="44.0244362"><time>2023-05-10T16:20:21</time></trkpt><trkpt lat="56.2831218" lon="44.0244079"><time>2023-05-10T16:20:22</time></trkpt><trkpt lat="56.2831423" lon="44.0243813"><time>2023-05-10T16:20:23</time></trkpt><trkpt lat="56.2831623" lon="44.0243477"><time>2023-05-10T16:20:24</time></trkpt><trkpt lat="56.2831857" lon="44.0243048"><time>2023-05-10T16:20:25</time></trkpt><trkpt lat="56.2832005" lon="44.0242655"><time>2023-05-10T16:20:26</time></trkpt><trkpt lat="56.2832114" lon="44.0242203"><time>2023-05-10T16:20:27</time></trkpt><trkpt lat="56.2832179" lon="44.0241723"><time>2023-05-10T16:20:28</time></trkpt><trkpt lat="56.2832250" lon="44.0241238"><time>2023-05-10T16:20:29</time></trkpt><trkpt lat="56.2832276" lon="44.0240749"><time>2023-05-10T16:20:30</time></trkpt><trkpt lat="56.2832295" lon="44.0240265"><time>2023-05-10T16:20:31</time></trkpt><trkpt lat="56.2832332" lon="44.0239778"><time>2023-05-10T16:20:32</time></trkpt><trkpt lat="56.2832398" lon="44.0239290"><time>2023-05-10T16:20:33</time></trkpt><trkpt lat="56.2832552" lon="44.0238928"><time>2023-05-10T16:20:34</time></trkpt><trkpt lat="56.2832735" lon="44.0238628"><time>2023-05-10T16:20:35</time></trkpt><trkpt lat="56.2832871" lon="44.0238378"><time>2023-05-10T16:20:36</time></trkpt><trkpt lat="56.2833057" lon="44.0238111"><time>2023-05-10T16:20:37</time></trkpt><trkpt lat="56.2833233" lon="44.0237892"><time>2023-05-10T16:20:38</time></trkpt><trkpt lat="56.2833363" lon="44.0237691"><time>2023-05-10T16:20:39</time></trkpt><trkpt lat="56.2833532" lon="44.0237492"><time>2023-05-10T16:20:40</time></trkpt><trkpt lat="56.2833731" lon="44.0237307"><time>2023-05-10T16:20:41</time></trkpt><trkpt lat="56.2833946" lon="44.0237166"><time>2023-05-10T16:20:42</time></trkpt><trkpt lat="56.2834186" lon="44.0237089"><time>2023-05-10T16:20:43</time></trkpt><trkpt lat="56.2834391" lon="44.0237126"><time>2023-05-10T16:20:44</time></trkpt><trkpt lat="56.2834601" lon="44.0237182"><time>2023-05-10T16:20:45</time></trkpt><trkpt lat="56.2834822" lon="44.0237254"><time>2023-05-10T16:20:46</time></trkpt><trkpt lat="56.2835029" lon="44.0237291"><time>2023-05-10T16:20:47</time></trkpt><trkpt lat="56.2835240" lon="44.0237326"><time>2023-05-10T16:20:48</time></trkpt><trkpt lat="56.2835421" lon="44.0237341"><time>2023-05-10T16:20:49</time></trkpt><trkpt lat="56.2835600" lon="44.0237381"><time>2023-05-10T16:20:50</time></trkpt><trkpt lat="56.2835815" lon="44.0237493"><time>2023-05-10T16:20:51</time></trkpt><trkpt lat="56.2835981" lon="44.0237568"><time>2023-05-10T16:20:52</time></trkpt><trkpt lat="56.2836166" lon="44.0237635"><time>2023-05-10T16:20:53</time></trkpt><trkpt lat="56.2836341" lon="44.0237673"><time>2023-05-10T16:20:54</time></trkpt><trkpt lat="56.2836511" lon="44.0237788"><time>2023-05-10T16:20:55</time></trkpt><trkpt lat="56.2836656" lon="44.0237965"><time>2023-05-10T16:20:56</time></trkpt><trkpt lat="56.2836791" lon="44.0238104"><time>2023-05-10T16:20:57</time></trkpt><trkpt lat="56.2836953" lon="44.0238244"><time>2023-05-10T16:20:58</time></trkpt><trkpt lat="56.2837108" lon="44.0238436"><time>2023-05-10T16:20:59</time></trkpt><trkpt lat="56.2837259" lon="44.0238592"><time>2023-05-10T16:21:00</time></trkpt><trkpt lat="56.2837409" lon="44.0238688"><time>2023-05-10T16:21:01</time></trkpt><trkpt lat="56.2837570" lon="44.0238848"><time>2023-05-10T16:21:02</time></trkpt><trkpt lat="56.2837719" lon="44.0239052"><time>2023-05-10T16:21:03</time></trkpt><trkpt lat="56.2837874" lon="44.0239292"><time>2023-05-10T16:21:04</time></trkpt><trkpt lat="56.2838020" lon="44.0239511"><time>2023-05-10T16:21:05</time></trkpt><trkpt lat="56.2838201" lon="44.0239783"><time>2023-05-10T16:21:06</time></trkpt><trkpt lat="56.2838380" lon="44.0240038"><time>2023-05-10T16:21:07</time></trkpt><trkpt lat="56.2838568" lon="44.0240247"><time>2023-05-10T16:21:08</time></trkpt><trkpt lat="56.2838755" lon="44.0240411"><time>2023-05-10T16:21:09</time></trkpt><trkpt lat="56.2838946" lon="44.0240597"><time>2023-05-10T16:21:10</time></trkpt><trkpt lat="56.2839167" lon="44.0240803"><time>2023-05-10T16:21:11</time></trkpt><trkpt lat="56.2839358" lon="44.0241002"><time>2023-05-10T16:21:12</time></trkpt><trkpt lat="56.2839568" lon="44.0241146"><time>2023-05-10T16:21:13</time></trkpt><trkpt lat="56.2839781" lon="44.0241249"><time>2023-05-10T16:21:14</time></trkpt><trkpt lat="56.2840026" lon="44.0241316"><time>2023-05-10T16:21:15</time></trkpt><trkpt lat="56.2840272" lon="44.0241315"><time>2023-05-10T16:21:16</time></trkpt><trkpt lat="56.2840469" lon="44.0241288"><time>2023-05-10T16:21:17</time></trkpt><trkpt lat="56.2840664" lon="44.0241261"><time>2023-05-10T16:21:18</time></trkpt><trkpt lat="56.2840848" lon="44.0241155"><time>2023-05-10T16:21:19</time></trkpt><trkpt lat="56.2841073" lon="44.0240988"><time>2023-05-10T16:21:20</time></trkpt><trkpt lat="56.2841293" lon="44.0240833"><time>2023-05-10T16:21:21</time></trkpt><trkpt lat="56.2841530" lon="44.0240658"><time>2023-05-10T16:21:22</time></trkpt><trkpt lat="56.2841744" lon="44.0240510"><time>2023-05-10T16:21:23</time></trkpt><trkpt lat="56.2841953" lon="44.0240380"><time>2023-05-10T16:21:24</time></trkpt><trkpt lat="56.2842182" lon="44.0240301"><time>2023-05-10T16:21:25</time></trkpt><trkpt lat="56.2842393" lon="44.0240223"><time>2023-05-10T16:21:26</time></trkpt><trkpt lat="56.2842630" lon="44.0240148"><time>2023-05-10T16:21:27</time></trkpt><trkpt lat="56.2842829" lon="44.0240089"><time>2023-05-10T16:21:28</time></trkpt><trkpt lat="56.2843015" lon="44.0239996"><time>2023-05-10T16:21:29</time></trkpt><trkpt lat="56.2843204" lon="44.0239923"><time>2023-05-10T16:21:30</time></trkpt><trkpt lat="56.2843420" lon="44.0239899"><time>2023-05-10T16:21:31</time></trkpt><trkpt lat="56.2843630" lon="44.0239888"><time>2023-05-10T16:21:32</time></trkpt><trkpt lat="56.2843818" lon="44.0239837"><time>2023-05-10T16:21:33</time></trkpt><trkpt lat="56.2844036" lon="44.0239761"><time>2023-05-10T16:21:34</time></trkpt><trkpt lat="56.2844234" lon="44.0239692"><time>2023-05-10T16:21:35</time></trkpt><trkpt lat="56.2844427" lon="44.0239687"><time>2023-05-10T16:21:36</time></trkpt><trkpt lat="56.2844644" lon="44.0239676"><time>2023-05-10T16:21:37</time></trkpt><trkpt lat="56.2844818" lon="44.0239665"><time>2023-05-10T16:21:38</time></trkpt><trkpt lat="56.2844997" lon="44.0239650"><time>2023-05-10T16:21:39</time></trkpt><trkpt lat="56.2845103" lon="44.0239592"><time>2023-05-10T16:21:40</time></trkpt><trkpt lat="56.2845303" lon="44.0239481"><time>2023-05-10T16:21:41</time></trkpt><trkpt lat="56.2845538" lon="44.0239348"><time>2023-05-10T16:21:42</time></trkpt><trkpt lat="56.2845721" lon="44.0239254"><time>2023-05-10T16:21:43</time></trkpt><trkpt lat="56.2845902" lon="44.0239146"><time>2023-05-10T16:21:44</time></trkpt><trkpt lat="56.2846103" lon="44.0239032"><time>2023-05-10T16:21:45</time></trkpt><trkpt lat="56.2846264" lon="44.0239021"><time>2023-05-10T16:21:46</time></trkpt><trkpt lat="56.2846444" lon="44.0239046"><time>2023-05-10T16:21:47</time></trkpt><trkpt lat="56.2846706" lon="44.0239109"><time>2023-05-10T16:21:48</time></trkpt><trkpt lat="56.2846976" lon="44.0239235"><time>2023-05-10T16:21:49</time></trkpt><trkpt lat="56.2847194" lon="44.0239331"><time>2023-05-10T16:21:50</time></trkpt><trkpt lat="56.2847419" lon="44.0239421"><time>2023-05-10T16:21:51</time></trkpt><trkpt lat="56.2847627" lon="44.0239599"><time>2023-05-10T16:21:52</time></trkpt><trkpt lat="56.2847815" lon="44.0239743"><time>2023-05-10T16:21:53</time></trkpt><trkpt lat="56.2848055" lon="44.0239865"><time>2023-05-10T16:21:54</time></trkpt><trkpt lat="56.2848281" lon="44.0240024"><time>2023-05-10T16:21:55</time></trkpt><trkpt lat="56.2848489" lon="44.0240153"><time>2023-05-10T16:21:56</time></trkpt><trkpt lat="56.2848710" lon="44.0240213"><time>2023-05-10T16:21:57</time></trkpt><trkpt lat="56.2848913" lon="44.0240267"><time>2023-05-10T16:21:58</time></trkpt><trkpt lat="56.2849094" lon="44.0240336"><time>2023-05-10T16:21:59</time></trkpt><trkpt lat="56.2849309" lon="44.0240345"><time>2023-05-10T16:22:00</time></trkpt><trkpt lat="56.2849553" lon="44.0240381"><time>2023-05-10T16:22:01</time></trkpt><trkpt lat="56.2849795" lon="44.0240460"><time>2023-05-10T16:22:02</time></trkpt><trkpt lat="56.2850009" lon="44.0240508"><time>2023-05-10T16:22:03</time></trkpt><trkpt lat="56.2850219" lon="44.0240563"><time>2023-05-10T16:22:04</time></trkpt><trkpt lat="56.2850425" lon="44.0240689"><time>2023-05-10T16:22:05</time></trkpt><trkpt lat="56.2850607" lon="44.0240789"><time>2023-05-10T16:22:06</time></trkpt><trkpt lat="56.2850791" lon="44.0240855"><time>2023-05-10T16:22:07</time></trkpt><trkpt lat="56.2850998" lon="44.0240914"><time>2023-05-10T16:22:08</time></trkpt><trkpt lat="56.2851200" lon="44.0240986"><time>2023-05-10T16:22:09</time></trkpt><trkpt lat="56.2851436" lon="44.0241051"><time>2023-05-10T16:22:10</time></trkpt><trkpt lat="56.2851663" lon="44.0241139"><time>2023-05-10T16:22:11</time></trkpt><trkpt lat="56.2851907" lon="44.0241296"><time>2023-05-10T16:22:12</time></trkpt><trkpt lat="56.2852105" lon="44.0241425"><time>2023-05-10T16:22:13</time></trkpt><trkpt lat="56.2852349" lon="44.0241548"><time>2023-05-10T16:22:14</time></trkpt><trkpt lat="56.2852630" lon="44.0241737"><time>2023-05-10T16:22:15</time></trkpt><trkpt lat="56.2852833" lon="44.0241865"><time>2023-05-10T16:22:16</time></trkpt><trkpt lat="56.2853042" lon="44.0241974"><time>2023-05-10T16:22:17</time></trkpt><trkpt lat="56.2853260" lon="44.0242124"><time>2023-05-10T16:22:18</time></trkpt><trkpt lat="56.2853458" lon="44.0242226"><time>2023-05-10T16:22:19</time></trkpt><trkpt lat="56.2853653" lon="44.0242340"><time>2023-05-10T16:22:20</time></trkpt><trkpt lat="56.2853859" lon="44.0242505"><time>2023-05-10T16:22:21</time></trkpt><trkpt lat="56.2854048" lon="44.0242647"><time>2023-05-10T16:22:22</time></trkpt><trkpt lat="56.2854257" lon="44.0242724"><time>2023-05-10T16:22:23</time></trkpt><trkpt lat="56.2854472" lon="44.0242761"><time>2023-05-10T16:22:24</time></trkpt><trkpt lat="56.2854708" lon="44.0242849"><time>2023-05-10T16:22:25</time></trkpt><trkpt lat="56.2854921" lon="44.0242943"><time>2023-05-10T16:22:26</time></trkpt><trkpt lat="56.2855158" lon="44.0243027"><time>2023-05-10T16:22:27</time></trkpt><trkpt lat="56.2855400" lon="44.0243101"><time>2023-05-10T16:22:28</time></trkpt><trkpt lat="56.2855593" lon="44.0243202"><time>2023-05-10T16:22:29</time></trkpt><trkpt lat="56.2855809" lon="44.0243274"><time>2023-05-10T16:22:30</time></trkpt><trkpt lat="56.2856000" lon="44.0243389"><time>2023-05-10T16:22:31</time></trkpt><trkpt lat="56.2856182" lon="44.0243554"><time>2023-05-10T16:22:32</time></trkpt><trkpt lat="56.2856370" lon="44.0243669"><time>2023-05-10T16:22:33</time></trkpt><trkpt lat="56.2856564" lon="44.0243765"><time>2023-05-10T16:22:34</time></trkpt><trkpt lat="56.2856749" lon="44.0243885"><time>2023-05-10T16:22:35</time></trkpt><trkpt lat="56.2856923" lon="44.0244020"><time>2023-05-10T16:22:36</time></trkpt><trkpt lat="56.2857101" lon="44.0244139"><time>2023-05-10T16:22:37</time></trkpt><trkpt lat="56.2857274" lon="44.0244253"><time>2023-05-10T16:22:38</time></trkpt><trkpt lat="56.2857443" lon="44.0244395"><time>2023-05-10T16:22:39</time></trkpt><trkpt lat="56.2857600" lon="44.0244502"><time>2023-05-10T16:22:40</time></trkpt><trkpt lat="56.2857758" lon="44.0244564"><time>2023-05-10T16:22:41</time></trkpt><trkpt lat="56.2857922" lon="44.0244689"><time>2023-05-10T16:22:42</time></trkpt><trkpt lat="56.2858089" lon="44.0244799"><time>2023-05-10T16:22:43</time></trkpt><trkpt lat="56.2858269" lon="44.0244917"><time>2023-05-10T16:22:44</time></trkpt><trkpt lat="56.2858429" lon="44.0245022"><time>2023-05-10T16:22:45</time></trkpt><trkpt lat="56.2858558" lon="44.0245144"><time>2023-05-10T16:22:46</time></trkpt><trkpt lat="56.2858699" lon="44.0245287"><time>2023-05-10T16:22:47</time></trkpt><trkpt lat="56.2858822" lon="44.0245390"><time>2023-05-10T16:22:48</time></trkpt><trkpt lat="56.2858910" lon="44.0245476"><time>2023-05-10T16:22:49</time></trkpt><trkpt lat="56.2859007" lon="44.0245563"><time>2023-05-10T16:22:50</time></trkpt><trkpt lat="56.2859096" lon="44.0245656"><time>2023-05-10T16:22:51</time></trkpt><trkpt lat="56.2859174" lon="44.0245733"><time>2023-05-10T16:22:52</time></trkpt><trkpt lat="56.2859261" lon="44.0245829"><time>2023-05-10T16:22:53</time></trkpt><trkpt lat="56.2859326" lon="44.0245911"><time>2023-05-10T16:22:54</time></trkpt><trkpt lat="56.2859403" lon="44.0245998"><time>2023-05-10T16:22:55</time></trkpt><trkpt lat="56.2859544" lon="44.0246105"><time>2023-05-10T16:22:56</time></trkpt><trkpt lat="56.2859645" lon="44.0246209"><time>2023-05-10T16:22:57</time></trkpt><trkpt lat="56.2859716" lon="44.0246303"><time>2023-05-10T16:22:58</time></trkpt><trkpt lat="56.2859818" lon="44.0246369"><time>2023-05-10T16:22:59</time></trkpt><trkpt lat="56.2859916" lon="44.0246486"><time>2023-05-10T16:23:00</time></trkpt><trkpt lat="56.2860011" lon="44.0246573"><time>2023-05-10T16:23:01</time></trkpt><trkpt lat="56.2860121" lon="44.0246718"><time>2023-05-10T16:23:02</time></trkpt><trkpt lat="56.2860253" lon="44.0246961"><time>2023-05-10T16:23:03</time></trkpt><trkpt lat="56.2860364" lon="44.0247180"><time>2023-05-10T16:23:04</time></trkpt><trkpt lat="56.2860439" lon="44.0247411"><time>2023-05-10T16:23:05</time></trkpt><trkpt lat="56.2860506" lon="44.0247485"><time>2023-05-10T16:23:06</time></trkpt><trkpt lat="56.2860585" lon="44.0247573"><time>2023-05-10T16:23:07</time></trkpt><trkpt lat="56.2860664" lon="44.0247652"><time>2023-05-10T16:23:08</time></trkpt><trkpt lat="56.2860726" lon="44.0247814"><time>2023-05-10T16:23:09</time></trkpt><trkpt lat="56.2860812" lon="44.0248006"><time>2023-05-10T16:23:10</time></trkpt><trkpt lat="56.2860894" lon="44.0248237"><time>2023-05-10T16:23:11</time></trkpt><trkpt lat="56.2860974" lon="44.0248469"><time>2023-05-10T16:23:12</time></trkpt><trkpt lat="56.2861067" lon="44.0248712"><time>2023-05-10T16:23:13</time></trkpt><trkpt lat="56.2861164" lon="44.0248965"><time>2023-05-10T16:23:14</time></trkpt><trkpt lat="56.2861247" lon="44.0249190"><time>2023-05-10T16:23:15</time></trkpt><trkpt lat="56.2861324" lon="44.0249312"><time>2023-05-10T16:23:16</time></trkpt><trkpt lat="56.2861369" lon="44.0249426"><time>2023-05-10T16:23:17</time></trkpt><trkpt lat="56.2861400" lon="44.0249469"><time>2023-05-10T16:23:18</time></trkpt><trkpt lat="56.2861439" lon="44.0249558"><time>2023-05-10T16:23:19</time></trkpt><trkpt lat="56.2861488" lon="44.0249673"><time>2023-05-10T16:23:20</time></trkpt><trkpt lat="56.2861528" lon="44.0249744"><time>2023-05-10T16:23:21</time></trkpt><trkpt lat="56.2861586" lon="44.0249835"><time>2023-05-10T16:23:22</time></trkpt><trkpt lat="56.2861629" lon="44.0249782"><time>2023-05-10T16:23:23</time></trkpt><trkpt lat="56.2861661" lon="44.0249658"><time>2023-05-10T16:23:24</time></trkpt><trkpt lat="56.2861707" lon="44.0249561"><time>2023-05-10T16:23:25</time></trkpt><trkpt lat="56.2861757" lon="44.0249449"><time>2023-05-10T16:23:26</time></trkpt><trkpt lat="56.2861790" lon="44.0249291"><time>2023-05-10T16:23:27</time></trkpt><trkpt lat="56.2861829" lon="44.0249121"><time>2023-05-10T16:23:28</time></trkpt><trkpt lat="56.2861853" lon="44.0249022"><time>2023-05-10T16:23:29</time></trkpt><trkpt lat="56.2861964" lon="44.0248765"><time>2023-05-10T16:23:30</time></trkpt><trkpt lat="56.2862090" lon="44.0248468"><time>2023-05-10T16:23:31</time></trkpt><trkpt lat="56.2862189" lon="44.0248211"><time>2023-05-10T16:23:32</time></trkpt><trkpt lat="56.2862289" lon="44.0247899"><time>2023-05-10T16:23:33</time></trkpt><trkpt lat="56.2862392" lon="44.0247568"><time>2023-05-10T16:23:34</time></trkpt><trkpt lat="56.2862449" lon="44.0247257"><time>2023-05-10T16:23:35</time></trkpt><trkpt lat="56.2862535" lon="44.0246886"><time>2023-05-10T16:23:36</time></trkpt><trkpt lat="56.2862650" lon="44.0246508"><time>2023-05-10T16:23:37</time></trkpt><trkpt lat="56.2862766" lon="44.0246252"><time>2023-05-10T16:23:38</time></trkpt><trkpt lat="56.2862892" lon="44.0245972"><time>2023-05-10T16:23:39</time></trkpt><trkpt lat="56.2863022" lon="44.0245757"><time>2023-05-10T16:23:40</time></trkpt><trkpt lat="56.2863097" lon="44.0245714"><time>2023-05-10T16:23:41</time></trkpt><trkpt lat="56.2863102" lon="44.0245724"><time>2023-05-10T16:23:42</time></trkpt><trkpt lat="56.2863084" lon="44.0245823"><time>2023-05-10T16:23:43</time></trkpt><trkpt lat="56.2863062" lon="44.0245955"><time>2023-05-10T16:23:44</time></trkpt><trkpt lat="56.2862993" lon="44.0246087"><time>2023-05-10T16:23:45</time></trkpt><trkpt lat="56.2862947" lon="44.0246193"><time>2023-05-10T16:23:46</time></trkpt><trkpt lat="56.2862887" lon="44.0246357"><time>2023-05-10T16:23:47</time></trkpt><trkpt lat="56.2862780" lon="44.0246543"><time>2023-05-10T16:23:48</time></trkpt><trkpt lat="56.2862661" lon="44.0246848"><time>2023-05-10T16:23:49</time></trkpt><trkpt lat="56.2862545" lon="44.0247170"><time>2023-05-10T16:23:50</time></trkpt><trkpt lat="56.2862439" lon="44.0247522"><time>2023-05-10T16:23:51</time></trkpt><trkpt lat="56.2862336" lon="44.0247871"><time>2023-05-10T16:23:52</time></trkpt><trkpt lat="56.2862227" lon="44.0248233"><time>2023-05-10T16:23:53</time></trkpt><trkpt lat="56.2862117" lon="44.0248613"><time>2023-05-10T16:23:54</time></trkpt><trkpt lat="56.2862025" lon="44.0249010"><time>2023-05-10T16:23:55</time></trkpt><trkpt lat="56.2861932" lon="44.0249436"><time>2023-05-10T16:23:56</time></trkpt><trkpt lat="56.2861888" lon="44.0249824"><time>2023-05-10T16:23:57</time></trkpt><trkpt lat="56.2861888" lon="44.0250242"><time>2023-05-10T16:23:58</time></trkpt><trkpt lat="56.2861911" lon="44.0250578"><time>2023-05-10T16:23:59</time></trkpt><trkpt lat="56.2861963" lon="44.0250848"><time>2023-05-10T16:24:00</time></trkpt><trkpt lat="56.2862058" lon="44.0251097"><time>2023-05-10T16:24:01</time></trkpt><trkpt lat="56.2862192" lon="44.0251339"><time>2023-05-10T16:24:02</time></trkpt><trkpt lat="56.2862340" lon="44.0251552"><time>2023-05-10T16:24:03</time></trkpt><trkpt lat="56.2862534" lon="44.0251742"><time>2023-05-10T16:24:04</time></trkpt><trkpt lat="56.2862748" lon="44.0251916"><time>2023-05-10T16:24:05</time></trkpt><trkpt lat="56.2862917" lon="44.0252044"><time>2023-05-10T16:24:06</time></trkpt><trkpt lat="56.2863149" lon="44.0252271"><time>2023-05-10T16:24:07</time></trkpt><trkpt lat="56.2863396" lon="44.0252509"><time>2023-05-10T16:24:08</time></trkpt><trkpt lat="56.2863629" lon="44.0252714"><time>2023-05-10T16:24:09</time></trkpt><trkpt lat="56.2863837" lon="44.0252900"><time>2023-05-10T16:24:10</time></trkpt><trkpt lat="56.2864105" lon="44.0253190"><time>2023-05-10T16:24:11</time></trkpt><trkpt lat="56.2864367" lon="44.0253507"><time>2023-05-10T16:24:12</time></trkpt><trkpt lat="56.2864607" lon="44.0253756"><time>2023-05-10T16:24:13</time></trkpt><trkpt lat="56.2864869" lon="44.0254023"><time>2023-05-10T16:24:14</time></trkpt><trkpt lat="56.2865075" lon="44.0254342"><time>2023-05-10T16:24:15</time></trkpt><trkpt lat="56.2865307" lon="44.0254623"><time>2023-05-10T16:24:16</time></trkpt><trkpt lat="56.2865508" lon="44.0254884"><time>2023-05-10T16:24:17</time></trkpt><trkpt lat="56.2865733" lon="44.0255209"><time>2023-05-10T16:24:18</time></trkpt><trkpt lat="56.2865975" lon="44.0255414"><time>2023-05-10T16:24:19</time></trkpt><trkpt lat="56.2866196" lon="44.0255616"><time>2023-05-10T16:24:20</time></trkpt><trkpt lat="56.2866386" lon="44.0255899"><time>2023-05-10T16:24:21</time></trkpt><trkpt lat="56.2866585" lon="44.0256165"><time>2023-05-10T16:24:22</time></trkpt><trkpt lat="56.2866797" lon="44.0256478"><time>2023-05-10T16:24:23</time></trkpt><trkpt lat="56.2867007" lon="44.0256807"><time>2023-05-10T16:24:24</time></trkpt><trkpt lat="56.2867216" lon="44.0257084"><time>2023-05-10T16:24:25</time></trkpt><trkpt lat="56.2867417" lon="44.0257282"><time>2023-05-10T16:24:26</time></trkpt><trkpt lat="56.2867653" lon="44.0257587"><time>2023-05-10T16:24:27</time></trkpt><trkpt lat="56.2867878" lon="44.0257872"><time>2023-05-10T16:24:28</time></trkpt><trkpt lat="56.2868073" lon="44.0258056"><time>2023-05-10T16:24:29</time></trkpt><trkpt lat="56.2868287" lon="44.0258286"><time>2023-05-10T16:24:30</time></trkpt><trkpt lat="56.2868546" lon="44.0258546"><time>2023-05-10T16:24:31</time></trkpt><trkpt lat="56.2868792" lon="44.0258739"><time>2023-05-10T16:24:32</time></trkpt><trkpt lat="56.2869074" lon="44.0258996"><time>2023-05-10T16:24:33</time></trkpt><trkpt lat="56.2869325" lon="44.0259186"><time>2023-05-10T16:24:34</time></trkpt><trkpt lat="56.2869609" lon="44.0259366"><time>2023-05-10T16:24:35</time></trkpt><trkpt lat="56.2869898" lon="44.0259625"><time>2023-05-10T16:24:36</time></trkpt><trkpt lat="56.2870177" lon="44.0259877"><time>2023-05-10T16:24:37</time></trkpt><trkpt lat="56.2870486" lon="44.0260118"><time>2023-05-10T16:24:38</time></trkpt><trkpt lat="56.2870786" lon="44.0260363"><time>2023-05-10T16:24:39</time></trkpt><trkpt lat="56.2871070" lon="44.0260628"><time>2023-05-10T16:24:40</time></trkpt><trkpt lat="56.2871333" lon="44.0260848"><time>2023-05-10T16:24:41</time></trkpt><trkpt lat="56.2871591" lon="44.0261132"><time>2023-05-10T16:24:42</time></trkpt><trkpt lat="56.2871844" lon="44.0261401"><time>2023-05-10T16:24:43</time></trkpt><trkpt lat="56.2872076" lon="44.0261602"><time>2023-05-10T16:24:44</time></trkpt><trkpt lat="56.2872310" lon="44.0261891"><time>2023-05-10T16:24:45</time></trkpt><trkpt lat="56.2872535" lon="44.0262145"><time>2023-05-10T16:24:46</time></trkpt><trkpt lat="56.2872758" lon="44.0262439"><time>2023-05-10T16:24:47</time></trkpt><trkpt lat="56.2872961" lon="44.0262707"><time>2023-05-10T16:24:48</time></trkpt><trkpt lat="56.2873158" lon="44.0262868"><time>2023-05-10T16:24:49</time></trkpt><trkpt lat="56.2873392" lon="44.0263062"><time>2023-05-10T16:24:50</time></trkpt><trkpt lat="56.2873665" lon="44.0263207"><time>2023-05-10T16:24:51</time></trkpt><trkpt lat="56.2873923" lon="44.0263218"><time>2023-05-10T16:24:52</time></trkpt><trkpt lat="56.2874222" lon="44.0263204"><time>2023-05-10T16:24:53</time></trkpt><trkpt lat="56.2874502" lon="44.0263111"><time>2023-05-10T16:24:54</time></trkpt><trkpt lat="56.2874779" lon="44.0262969"><time>2023-05-10T16:24:55</time></trkpt><trkpt lat="56.2875094" lon="44.0262839"><time>2023-05-10T16:24:56</time></trkpt><trkpt lat="56.2875399" lon="44.0262755"><time>2023-05-10T16:24:57</time></trkpt><trkpt lat="56.2875690" lon="44.0262668"><time>2023-05-10T16:24:58</time></trkpt><trkpt lat="56.2876015" lon="44.0262552"><time>2023-05-10T16:24:59</time></trkpt><trkpt lat="56.2876291" lon="44.0262503"><time>2023-05-10T16:25:00</time></trkpt><trkpt lat="56.2876598" lon="44.0262490"><time>2023-05-10T16:25:01</time></trkpt><trkpt lat="56.2876922" lon="44.0262473"><time>2023-05-10T16:25:02</time></trkpt><trkpt lat="56.2877214" lon="44.0262518"><time>2023-05-10T16:25:03</time></trkpt><trkpt lat="56.2877525" lon="44.0262557"><time>2023-05-10T16:25:04</time></trkpt><trkpt lat="56.2877799" lon="44.0262626"><time>2023-05-10T16:25:05</time></trkpt><trkpt lat="56.2878081" lon="44.0262740"><time>2023-05-10T16:25:06</time></trkpt><trkpt lat="56.2878359" lon="44.0262841"><time>2023-05-10T16:25:07</time></trkpt><trkpt lat="56.2878649" lon="44.0263005"><time>2023-05-10T16:25:08</time></trkpt><trkpt lat="56.2878952" lon="44.0263162"><time>2023-05-10T16:25:09</time></trkpt><trkpt lat="56.2879220" lon="44.0263319"><time>2023-05-10T16:25:10</time></trkpt><trkpt lat="56.2879491" lon="44.0263534"><time>2023-05-10T16:25:11</time></trkpt><trkpt lat="56.2879756" lon="44.0263711"><time>2023-05-10T16:25:12</time></trkpt><trkpt lat="56.2880081" lon="44.0263904"><time>2023-05-10T16:25:13</time></trkpt><trkpt lat="56.2880378" lon="44.0264046"><time>2023-05-10T16:25:14</time></trkpt><trkpt lat="56.2880682" lon="44.0264169"><time>2023-05-10T16:25:15</time></trkpt><trkpt lat="56.2880997" lon="44.0264275"><time>2023-05-10T16:25:16</time></trkpt><trkpt lat="56.2881253" lon="44.0264331"><time>2023-05-10T16:25:17</time></trkpt><trkpt lat="56.2881538" lon="44.0264371"><time>2023-05-10T16:25:18</time></trkpt><trkpt lat="56.2881879" lon="44.0264440"><time>2023-05-10T16:25:19</time></trkpt><trkpt lat="56.2882185" lon="44.0264513"><time>2023-05-10T16:25:20</time></trkpt><trkpt lat="56.2882465" lon="44.0264520"><time>2023-05-10T16:25:21</time></trkpt><trkpt lat="56.2882758" lon="44.0264564"><time>2023-05-10T16:25:22</time></trkpt><trkpt lat="56.2883054" lon="44.0264573"><time>2023-05-10T16:25:23</time></trkpt><trkpt lat="56.2883381" lon="44.0264581"><time>2023-05-10T16:25:24</time></trkpt><trkpt lat="56.2883688" lon="44.0264572"><time>2023-05-10T16:25:25</time></trkpt><trkpt lat="56.2884003" lon="44.0264545"><time>2023-05-10T16:25:26</time></trkpt><trkpt lat="56.2884372" lon="44.0264557"><time>2023-05-10T16:25:27</time></trkpt><trkpt lat="56.2884653" lon="44.0264620"><time>2023-05-10T16:25:28</time></trkpt><trkpt lat="56.2884954" lon="44.0264647"><time>2023-05-10T16:25:29</time></trkpt><trkpt lat="56.2885255" lon="44.0264740"><time>2023-05-10T16:25:30</time></trkpt><trkpt lat="56.2885496" lon="44.0264860"><time>2023-05-10T16:25:31</time></trkpt><trkpt lat="56.2885771" lon="44.0264966"><time>2023-05-10T16:25:32</time></trkpt><trkpt lat="56.2886109" lon="44.0265114"><time>2023-05-10T16:25:33</time></trkpt><trkpt lat="56.2886396" lon="44.0265237"><time>2023-05-10T16:25:34</time></trkpt><trkpt lat="56.2886697" lon="44.0265378"><time>2023-05-10T16:25:35</time></trkpt><trkpt lat="56.2886970" lon="44.0265570"><time>2023-05-10T16:25:36</time></trkpt><trkpt lat="56.2887255" lon="44.0265764"><time>2023-05-10T16:25:37</time></trkpt><trkpt lat="56.2887544" lon="44.0266009"><time>2023-05-10T16:25:38</time></trkpt><trkpt lat="56.2887738" lon="44.0266320"><time>2023-05-10T16:25:39</time></trkpt><trkpt lat="56.2887960" lon="44.0266644"><time>2023-05-10T16:25:40</time></trkpt><trkpt lat="56.2888173" lon="44.0267050"><time>2023-05-10T16:25:41</time></trkpt><trkpt lat="56.2888344" lon="44.0267450"><time>2023-05-10T16:25:42</time></trkpt><trkpt lat="56.2888530" lon="44.0267861"><time>2023-05-10T16:25:43</time></trkpt><trkpt lat="56.2888718" lon="44.0268259"><time>2023-05-10T16:25:44</time></trkpt><trkpt lat="56.2888888" lon="44.0268642"><time>2023-05-10T16:25:45</time></trkpt><trkpt lat="56.2889072" lon="44.0268962"><time>2023-05-10T16:25:46</time></trkpt><trkpt lat="56.2889269" lon="44.0269336"><time>2023-05-10T16:25:47</time></trkpt><trkpt lat="56.2889470" lon="44.0269698"><time>2023-05-10T16:25:48</time></trkpt><trkpt lat="56.2889667" lon="44.0269955"><time>2023-05-10T16:25:49</time></trkpt><trkpt lat="56.2889890" lon="44.0270341"><time>2023-05-10T16:25:50</time></trkpt><trkpt lat="56.2890061" lon="44.0270664"><time>2023-05-10T16:25:51</time></trkpt><trkpt lat="56.2890289" lon="44.0270943"><time>2023-05-10T16:25:52</time></trkpt><trkpt lat="56.2890592" lon="44.0271361"><time>2023-05-10T16:25:53</time></trkpt><trkpt lat="56.2890877" lon="44.0271572"><time>2023-05-10T16:25:54</time></trkpt><trkpt lat="56.2891190" lon="44.0271722"><time>2023-05-10T16:25:55</time></trkpt><trkpt lat="56.2891508" lon="44.0271896"><time>2023-05-10T16:25:56</time></trkpt><trkpt lat="56.2891808" lon="44.0272007"><time>2023-05-10T16:25:57</time></trkpt><trkpt lat="56.2892147" lon="44.0272121"><time>2023-05-10T16:25:58</time></trkpt><trkpt lat="56.2892437" lon="44.0272203"><time>2023-05-10T16:25:59</time></trkpt><trkpt lat="56.2892664" lon="44.0272108"><time>2023-05-10T16:26:00</time></trkpt><trkpt lat="56.2892846" lon="44.0271836"><time>2023-05-10T16:26:01</time></trkpt><trkpt lat="56.2892933" lon="44.0271477"><time>2023-05-10T16:26:02</time></trkpt><trkpt lat="56.2892982" lon="44.0271047"><time>2023-05-10T16:26:03</time></trkpt><trkpt lat="56.2893031" lon="44.0270594"><time>2023-05-10T16:26:04</time></trkpt><trkpt lat="56.2893076" lon="44.0270153"><time>2023-05-10T16:26:05</time></trkpt><trkpt lat="56.2893124" lon="44.0269641"><time>2023-05-10T16:26:06</time></trkpt><trkpt lat="56.2893119" lon="44.0269211"><time>2023-05-10T16:26:07</time></trkpt><trkpt lat="56.2893105" lon="44.0268675"><time>2023-05-10T16:26:08</time></trkpt><trkpt lat="56.2893069" lon="44.0268109"><time>2023-05-10T16:26:09</time></trkpt><trkpt lat="56.2893020" lon="44.0267712"><time>2023-05-10T16:26:10</time></trkpt><trkpt lat="56.2892978" lon="44.0267190"><time>2023-05-10T16:26:11</time></trkpt><trkpt lat="56.2892962" lon="44.0266655"><time>2023-05-10T16:26:12</time></trkpt><trkpt lat="56.2892969" lon="44.0266140"><time>2023-05-10T16:26:13</time></trkpt><trkpt lat="56.2892965" lon="44.0265643"><time>2023-05-10T16:26:14</time></trkpt><trkpt lat="56.2892965" lon="44.0265221"><time>2023-05-10T16:26:15</time></trkpt><trkpt lat="56.2892939" lon="44.0264706"><time>2023-05-10T16:26:16</time></trkpt><trkpt lat="56.2892935" lon="44.0264163"><time>2023-05-10T16:26:17</time></trkpt><trkpt lat="56.2892960" lon="44.0263652"><time>2023-05-10T16:26:18</time></trkpt><trkpt lat="56.2892954" lon="44.0263043"><time>2023-05-10T16:26:19</time></trkpt><trkpt lat="56.2892953" lon="44.0262502"><time>2023-05-10T16:26:20</time></trkpt><trkpt lat="56.2892944" lon="44.0261990"><time>2023-05-10T16:26:21</time></trkpt><trkpt lat="56.2892936" lon="44.0261439"><time>2023-05-10T16:26:22</time></trkpt><trkpt lat="56.2892930" lon="44.0260893"><time>2023-05-10T16:26:23</time></trkpt><trkpt lat="56.2892930" lon="44.0260317"><time>2023-05-10T16:26:24</time></trkpt><trkpt lat="56.2892936" lon="44.0259726"><time>2023-05-10T16:26:25</time></trkpt><trkpt lat="56.2892890" lon="44.0259286"><time>2023-05-10T16:26:26</time></trkpt><trkpt lat="56.2892831" lon="44.0258753"><time>2023-05-10T16:26:27</time></trkpt><trkpt lat="56.2892784" lon="44.0258195"><time>2023-05-10T16:26:28</time></trkpt><trkpt lat="56.2892737" lon="44.0257710"><time>2023-05-10T16:26:29</time></trkpt><trkpt lat="56.2892694" lon="44.0257183"><time>2023-05-10T16:26:30</time></trkpt><trkpt lat="56.2892587" lon="44.0256761"><time>2023-05-10T16:26:31</time></trkpt><trkpt lat="56.2892472" lon="44.0256404"><time>2023-05-10T16:26:32</time></trkpt><trkpt lat="56.2892403" lon="44.0255914"><time>2023-05-10T16:26:33</time></trkpt><trkpt lat="56.2892386" lon="44.0255419"><time>2023-05-10T16:26:34</time></trkpt><trkpt lat="56.2892378" lon="44.0254862"><time>2023-05-10T16:26:35</time></trkpt><trkpt lat="56.2892402" lon="44.0254309"><time>2023-05-10T16:26:36</time></trkpt><trkpt lat="56.2892419" lon="44.0253831"><time>2023-05-10T16:26:37</time></trkpt><trkpt lat="56.2892405" lon="44.0253361"><time>2023-05-10T16:26:38</time></trkpt><trkpt lat="56.2892409" lon="44.0252868"><time>2023-05-10T16:26:39</time></trkpt><trkpt lat="56.2892426" lon="44.0252386"><time>2023-05-10T16:26:40</time></trkpt><trkpt lat="56.2892455" lon="44.0251806"><time>2023-05-10T16:26:41</time></trkpt><trkpt lat="56.2892508" lon="44.0251356"><time>2023-05-10T16:26:42</time></trkpt><trkpt lat="56.2892545" lon="44.0250907"><time>2023-05-10T16:26:43</time></trkpt><trkpt lat="56.2892604" lon="44.0250422"><time>2023-05-10T16:26:44</time></trkpt><trkpt lat="56.2892648" lon="44.0249957"><time>2023-05-10T16:26:45</time></trkpt><trkpt lat="56.2892674" lon="44.0249408"><time>2023-05-10T16:26:46</time></trkpt><trkpt lat="56.2892710" lon="44.0248927"><time>2023-05-10T16:26:47</time></trkpt><trkpt lat="56.2892730" lon="44.0248447"><time>2023-05-10T16:26:48</time></trkpt><trkpt lat="56.2892761" lon="44.0247832"><time>2023-05-10T16:26:49</time></trkpt><trkpt lat="56.2892789" lon="44.0247289"><time>2023-05-10T16:26:50</time></trkpt><trkpt lat="56.2892785" lon="44.0246854"><time>2023-05-10T16:26:51</time></trkpt><trkpt lat="56.2892773" lon="44.0246279"><time>2023-05-10T16:26:52</time></trkpt><trkpt lat="56.2892754" lon="44.0245892"><time>2023-05-10T16:26:53</time></trkpt><trkpt lat="56.2892696" lon="44.0245403"><time>2023-05-10T16:26:54</time></trkpt><trkpt lat="56.2892643" lon="44.0244860"><time>2023-05-10T16:26:55</time></trkpt><trkpt lat="56.2892582" lon="44.0244444"><time>2023-05-10T16:26:56</time></trkpt><trkpt lat="56.2892530" lon="44.0243885"><time>2023-05-10T16:26:57</time></trkpt><trkpt lat="56.2892511" lon="44.0243404"><time>2023-05-10T16:26:58</time></trkpt><trkpt lat="56.2892484" lon="44.0243005"><time>2023-05-10T16:26:59</time></trkpt><trkpt lat="56.2892489" lon="44.0242488"><time>2023-05-10T16:27:00</time></trkpt><trkpt lat="56.2892496" lon="44.0242003"><time>2023-05-10T16:27:01</time></trkpt><trkpt lat="56.2892504" lon="44.0241583"><time>2023-05-10T16:27:02</time></trkpt><trkpt lat="56.2892522" lon="44.0241133"><time>2023-05-10T16:27:03</time></trkpt><trkpt lat="56.2892556" lon="44.0240745"><time>2023-05-10T16:27:04</time></trkpt><trkpt lat="56.2892554" lon="44.0240294"><time>2023-05-10T16:27:05</time></trkpt><trkpt lat="56.2892547" lon="44.0239855"><time>2023-05-10T16:27:06</time></trkpt><trkpt lat="56.2892524" lon="44.0239389"><time>2023-05-10T16:27:07</time></trkpt><trkpt lat="56.2892476" lon="44.0238828"><time>2023-05-10T16:27:08</time></trkpt><trkpt lat="56.2892452" lon="44.0238266"><time>2023-05-10T16:27:09</time></trkpt><trkpt lat="56.2892434" lon="44.0237840"><time>2023-05-10T16:27:10</time></trkpt><trkpt lat="56.2892413" lon="44.0237330"><time>2023-05-10T16:27:11</time></trkpt><trkpt lat="56.2892401" lon="44.0236802"><time>2023-05-10T16:27:12</time></trkpt><trkpt lat="56.2892375" lon="44.0236354"><time>2023-05-10T16:27:13</time></trkpt><trkpt lat="56.2892360" lon="44.0235814"><time>2023-05-10T16:27:14</time></trkpt><trkpt lat="56.2892354" lon="44.0235385"><time>2023-05-10T16:27:15</time></trkpt><trkpt lat="56.2892328" lon="44.0234983"><time>2023-05-10T16:27:16</time></trkpt><trkpt lat="56.2892292" lon="44.0234453"><time>2023-05-10T16:27:17</time></trkpt><trkpt lat="56.2892285" lon="44.0233907"><time>2023-05-10T16:27:18</time></trkpt><trkpt lat="56.2892262" lon="44.0233499"><time>2023-05-10T16:27:19</time></trkpt><trkpt lat="56.2892251" lon="44.0233027"><time>2023-05-10T16:27:20</time></trkpt><trkpt lat="56.2892219" lon="44.0232629"><time>2023-05-10T16:27:21</time></trkpt><trkpt lat="56.2892172" lon="44.0232246"><time>2023-05-10T16:27:22</time></trkpt><trkpt lat="56.2892148" lon="44.0231787"><time>2023-05-10T16:27:23</time></trkpt><trkpt lat="56.2892125" lon="44.0231322"><time>2023-05-10T16:27:24</time></trkpt><trkpt lat="56.2892096" lon="44.0230890"><time>2023-05-10T16:27:25</time></trkpt><trkpt lat="56.2892066" lon="44.0230461"><time>2023-05-10T16:27:26</time></trkpt><trkpt lat="56.2892027" lon="44.0230167"><time>2023-05-10T16:27:27</time></trkpt><trkpt lat="56.2891949" lon="44.0229764"><time>2023-05-10T16:27:28</time></trkpt><trkpt lat="56.2891899" lon="44.0229297"><time>2023-05-10T16:27:29</time></trkpt><trkpt lat="56.2891817" lon="44.0228889"><time>2023-05-10T16:27:30</time></trkpt><trkpt lat="56.2891722" lon="44.0228451"><time>2023-05-10T16:27:31</time></trkpt><trkpt lat="56.2891616" lon="44.0227972"><time>2023-05-10T16:27:32</time></trkpt><trkpt lat="56.2891511" lon="44.0227614"><time>2023-05-10T16:27:33</time></trkpt><trkpt lat="56.2891359" lon="44.0227193"><time>2023-05-10T16:27:34</time></trkpt><trkpt lat="56.2891235" lon="44.0226766"><time>2023-05-10T16:27:35</time></trkpt><trkpt lat="56.2891084" lon="44.0226418"><time>2023-05-10T16:27:36</time></trkpt><trkpt lat="56.2890935" lon="44.0225926"><time>2023-05-10T16:27:37</time></trkpt><trkpt lat="56.2890851" lon="44.0225480"><time>2023-05-10T16:27:38</time></trkpt><trkpt lat="56.2890744" lon="44.0225071"><time>2023-05-10T16:27:39</time></trkpt><trkpt lat="56.2890653" lon="44.0224716"><time>2023-05-10T16:27:40</time></trkpt><trkpt lat="56.2890562" lon="44.0224342"><time>2023-05-10T16:27:41</time></trkpt><trkpt lat="56.2890478" lon="44.0223983"><time>2023-05-10T16:27:42</time></trkpt><trkpt lat="56.2890396" lon="44.0223633"><time>2023-05-10T16:27:43</time></trkpt><trkpt lat="56.2890313" lon="44.0223326"><time>2023-05-10T16:27:44</time></trkpt><trkpt lat="56.2890211" lon="44.0222954"><time>2023-05-10T16:27:45</time></trkpt><trkpt lat="56.2890102" lon="44.0222568"><time>2023-05-10T16:27:46</time></trkpt><trkpt lat="56.2890008" lon="44.0222147"><time>2023-05-10T16:27:47</time></trkpt><trkpt lat="56.2889916" lon="44.0221845"><time>2023-05-10T16:27:48</time></trkpt><trkpt lat="56.2889854" lon="44.0221357"><time>2023-05-10T16:27:49</time></trkpt><trkpt lat="56.2889836" lon="44.0220834"><time>2023-05-10T16:27:50</time></trkpt><trkpt lat="56.2889805" lon="44.0220342"><time>2023-05-10T16:27:51</time></trkpt><trkpt lat="56.2889784" lon="44.0219772"><time>2023-05-10T16:27:52</time></trkpt><trkpt lat="56.2889770" lon="44.0219269"><time>2023-05-10T16:27:53</time></trkpt><trkpt lat="56.2889745" lon="44.0218870"><time>2023-05-10T16:27:54</time></trkpt><trkpt lat="56.2889706" lon="44.0218467"><time>2023-05-10T16:27:55</time></trkpt><trkpt lat="56.2889703" lon="44.0217937"><time>2023-05-10T16:27:56</time></trkpt><trkpt lat="56.2889678" lon="44.0217522"><time>2023-05-10T16:27:57</time></trkpt><trkpt lat="56.2889670" lon="44.0217209"><time>2023-05-10T16:27:58</time></trkpt><trkpt lat="56.2889653" lon="44.0216798"><time>2023-05-10T16:27:59</time></trkpt><trkpt lat="56.2889615" lon="44.0216431"><time>2023-05-10T16:28:00</time></trkpt><trkpt lat="56.2889568" lon="44.0216027"><time>2023-05-10T16:28:01</time></trkpt><trkpt lat="56.2889541" lon="44.0215500"><time>2023-05-10T16:28:02</time></trkpt><trkpt lat="56.2889532" lon="44.0215102"><time>2023-05-10T16:28:03</time></trkpt><trkpt lat="56.2889505" lon="44.0214691"><time>2023-05-10T16:28:04</time></trkpt><trkpt lat="56.2889480" lon="44.0214235"><time>2023-05-10T16:28:05</time></trkpt><trkpt lat="56.2889442" lon="44.0213906"><time>2023-05-10T16:28:06</time></trkpt><trkpt lat="56.2889416" lon="44.0213491"><time>2023-05-10T16:28:07</time></trkpt><trkpt lat="56.2889387" lon="44.0213033"><time>2023-05-10T16:28:08</time></trkpt><trkpt lat="56.2889358" lon="44.0212663"><time>2023-05-10T16:28:09</time></trkpt><trkpt lat="56.2889303" lon="44.0212340"><time>2023-05-10T16:28:10</time></trkpt><trkpt lat="56.2889246" lon="44.0211956"><time>2023-05-10T16:28:11</time></trkpt><trkpt lat="56.2889173" lon="44.0211567"><time>2023-05-10T16:28:12</time></trkpt><trkpt lat="56.2889113" lon="44.0211192"><time>2023-05-10T16:28:13</time></trkpt><trkpt lat="56.2889057" lon="44.0210679"><time>2023-05-10T16:28:14</time></trkpt><trkpt lat="56.2889044" lon="44.0210250"><time>2023-05-10T16:28:15</time></trkpt><trkpt lat="56.2889036" lon="44.0209903"><time>2023-05-10T16:28:16</time></trkpt><trkpt lat="56.2889014" lon="44.0209489"><time>2023-05-10T16:28:17</time></trkpt><trkpt lat="56.2889021" lon="44.0209068"><time>2023-05-10T16:28:18</time></trkpt><trkpt lat="56.2888984" lon="44.0208656"><time>2023-05-10T16:28:19</time></trkpt><trkpt lat="56.2888979" lon="44.0208226"><time>2023-05-10T16:28:20</time></trkpt><trkpt lat="56.2888995" lon="44.0207748"><time>2023-05-10T16:28:21</time></trkpt><trkpt lat="56.2888980" lon="44.0207290"><time>2023-05-10T16:28:22</time></trkpt><trkpt lat="56.2888978" lon="44.0206854"><time>2023-05-10T16:28:23</time></trkpt><trkpt lat="56.2888994" lon="44.0206485"><time>2023-05-10T16:28:24</time></trkpt><trkpt lat="56.2888987" lon="44.0206095"><time>2023-05-10T16:28:25</time></trkpt><trkpt lat="56.2889026" lon="44.0205607"><time>2023-05-10T16:28:26</time></trkpt><trkpt lat="56.2889061" lon="44.0205155"><time>2023-05-10T16:28:27</time></trkpt><trkpt lat="56.2889063" lon="44.0204711"><time>2023-05-10T16:28:28</time></trkpt><trkpt lat="56.2889070" lon="44.0204221"><time>2023-05-10T16:28:29</time></trkpt><trkpt lat="56.2889070" lon="44.0203759"><time>2023-05-10T16:28:30</time></trkpt><trkpt lat="56.2889068" lon="44.0203367"><time>2023-05-10T16:28:31</time></trkpt><trkpt lat="56.2889089" lon="44.0202877"><time>2023-05-10T16:28:32</time></trkpt><trkpt lat="56.2889132" lon="44.0202459"><time>2023-05-10T16:28:33</time></trkpt><trkpt lat="56.2889176" lon="44.0202100"><time>2023-05-10T16:28:34</time></trkpt><trkpt lat="56.2889237" lon="44.0201646"><time>2023-05-10T16:28:35</time></trkpt><trkpt lat="56.2889292" lon="44.0201142"><time>2023-05-10T16:28:36</time></trkpt><trkpt lat="56.2889323" lon="44.0200699"><time>2023-05-10T16:28:37</time></trkpt><trkpt lat="56.2889356" lon="44.0200149"><time>2023-05-10T16:28:38</time></trkpt><trkpt lat="56.2889396" lon="44.0199676"><time>2023-05-10T16:28:39</time></trkpt><trkpt lat="56.2889427" lon="44.0199264"><time>2023-05-10T16:28:40</time></trkpt><trkpt lat="56.2889480" lon="44.0198810"><time>2023-05-10T16:28:41</time></trkpt><trkpt lat="56.2889562" lon="44.0198315"><time>2023-05-10T16:28:42</time></trkpt><trkpt lat="56.2889610" lon="44.0197895"><time>2023-05-10T16:28:43</time></trkpt><trkpt lat="56.2889679" lon="44.0197461"><time>2023-05-10T16:28:44</time></trkpt><trkpt lat="56.2889768" lon="44.0196942"><time>2023-05-10T16:28:45</time></trkpt><trkpt lat="56.2889862" lon="44.0196486"><time>2023-05-10T16:28:46</time></trkpt><trkpt lat="56.2889914" lon="44.0196010"><time>2023-05-10T16:28:47</time></trkpt><trkpt lat="56.2889951" lon="44.0195420"><time>2023-05-10T16:28:48</time></trkpt><trkpt lat="56.2889977" lon="44.0194961"><time>2023-05-10T16:28:49</time></trkpt><trkpt lat="56.2889997" lon="44.0194431"><time>2023-05-10T16:28:50</time></trkpt><trkpt lat="56.2890018" lon="44.0193887"><time>2023-05-10T16:28:51</time></trkpt><trkpt lat="56.2890056" lon="44.0193411"><time>2023-05-10T16:28:52</time></trkpt><trkpt lat="56.2890096" lon="44.0192886"><time>2023-05-10T16:28:53</time></trkpt><trkpt lat="56.2890153" lon="44.0192393"><time>2023-05-10T16:28:54</time></trkpt><trkpt lat="56.2890183" lon="44.0191922"><time>2023-05-10T16:28:55</time></trkpt><trkpt lat="56.2890241" lon="44.0191467"><time>2023-05-10T16:28:56</time></trkpt><trkpt lat="56.2890292" lon="44.0191008"><time>2023-05-10T16:28:57</time></trkpt><trkpt lat="56.2890340" lon="44.0190513"><time>2023-05-10T16:28:58</time></trkpt><trkpt lat="56.2890383" lon="44.0190029"><time>2023-05-10T16:28:59</time></trkpt><trkpt lat="56.2890441" lon="44.0189572"><time>2023-05-10T16:29:00</time></trkpt><trkpt lat="56.2890470" lon="44.0189111"><time>2023-05-10T16:29:01</time></trkpt><trkpt lat="56.2890510" lon="44.0188631"><time>2023-05-10T16:29:02</time></trkpt><trkpt lat="56.2890556" lon="44.0188091"><time>2023-05-10T16:29:03</time></trkpt><trkpt lat="56.2890602" lon="44.0187622"><time>2023-05-10T16:29:04</time></trkpt><trkpt lat="56.2890629" lon="44.0187161"><time>2023-05-10T16:29:05</time></trkpt><trkpt lat="56.2890697" lon="44.0186576"><time>2023-05-10T16:29:06</time></trkpt><trkpt lat="56.2890744" lon="44.0186041"><time>2023-05-10T16:29:07</time></trkpt><trkpt lat="56.2890780" lon="44.0185578"><time>2023-05-10T16:29:08</time></trkpt><trkpt lat="56.2890864" lon="44.0185110"><time>2023-05-10T16:29:09</time></trkpt><trkpt lat="56.2890950" lon="44.0184666"><time>2023-05-10T16:29:10</time></trkpt><trkpt lat="56.2891017" lon="44.0184257"><time>2023-05-10T16:29:11</time></trkpt><trkpt lat="56.2891080" lon="44.0183824"><time>2023-05-10T16:29:12</time></trkpt><trkpt lat="56.2891141" lon="44.0183460"><time>2023-05-10T16:29:13</time></trkpt><trkpt lat="56.2891202" lon="44.0183074"><time>2023-05-10T16:29:14</time></trkpt><trkpt lat="56.2891280" lon="44.0182642"><time>2023-05-10T16:29:15</time></trkpt><trkpt lat="56.2891356" lon="44.0182210"><time>2023-05-10T16:29:16</time></trkpt><trkpt lat="56.2891452" lon="44.0181742"><time>2023-05-10T16:29:17</time></trkpt><trkpt lat="56.2891536" lon="44.0181215"><time>2023-05-10T16:29:18</time></trkpt><trkpt lat="56.2891623" lon="44.0180769"><time>2023-05-10T16:29:19</time></trkpt><trkpt lat="56.2891705" lon="44.0180289"><time>2023-05-10T16:29:20</time></trkpt><trkpt lat="56.2891792" lon="44.0179704"><time>2023-05-10T16:29:21</time></trkpt><trkpt lat="56.2891810" lon="44.0179278"><time>2023-05-10T16:29:22</time></trkpt><trkpt lat="56.2891829" lon="44.0178809"><time>2023-05-10T16:29:23</time></trkpt><trkpt lat="56.2891858" lon="44.0178290"><time>2023-05-10T16:29:24</time></trkpt><trkpt lat="56.2891894" lon="44.0177790"><time>2023-05-10T16:29:25</time></trkpt><trkpt lat="56.2891923" lon="44.0177176"><time>2023-05-10T16:29:26</time></trkpt><trkpt lat="56.2891983" lon="44.0176667"><time>2023-05-10T16:29:27</time></trkpt><trkpt lat="56.2892034" lon="44.0176127"><time>2023-05-10T16:29:28</time></trkpt><trkpt lat="56.2892080" lon="44.0175620"><time>2023-05-10T16:29:29</time></trkpt><trkpt lat="56.2892204" lon="44.0175088"><time>2023-05-10T16:29:30</time></trkpt><trkpt lat="56.2892311" lon="44.0174591"><time>2023-05-10T16:29:31</time></trkpt><trkpt lat="56.2892434" lon="44.0174120"><time>2023-05-10T16:29:32</time></trkpt><trkpt lat="56.2892592" lon="44.0173638"><time>2023-05-10T16:29:33</time></trkpt><trkpt lat="56.2892743" lon="44.0173238"><time>2023-05-10T16:29:34</time></trkpt><trkpt lat="56.2892907" lon="44.0172792"><time>2023-05-10T16:29:35</time></trkpt><trkpt lat="56.2893141" lon="44.0172357"><time>2023-05-10T16:29:36</time></trkpt><trkpt lat="56.2893336" lon="44.0171986"><time>2023-05-10T16:29:37</time></trkpt><trkpt lat="56.2893534" lon="44.0171676"><time>2023-05-10T16:29:38</time></trkpt><trkpt lat="56.2893801" lon="44.0171307"><time>2023-05-10T16:29:39</time></trkpt><trkpt lat="56.2894002" lon="44.0170881"><time>2023-05-10T16:29:40</time></trkpt><trkpt lat="56.2894183" lon="44.0170416"><time>2023-05-10T16:29:41</time></trkpt><trkpt lat="56.2894374" lon="44.0169959"><time>2023-05-10T16:29:42</time></trkpt><trkpt lat="56.2894514" lon="44.0169578"><time>2023-05-10T16:29:43</time></trkpt><trkpt lat="56.2894703" lon="44.0169182"><time>2023-05-10T16:29:44</time></trkpt><trkpt lat="56.2894897" lon="44.0168828"><time>2023-05-10T16:29:45</time></trkpt><trkpt lat="56.2895074" lon="44.0168547"><time>2023-05-10T16:29:46</time></trkpt><trkpt lat="56.2895280" lon="44.0168133"><time>2023-05-10T16:29:47</time></trkpt><trkpt lat="56.2895485" lon="44.0167730"><time>2023-05-10T16:29:48</time></trkpt><trkpt lat="56.2895700" lon="44.0167358"><time>2023-05-10T16:29:49</time></trkpt><trkpt lat="56.2895942" lon="44.0166935"><time>2023-05-10T16:29:50</time></trkpt><trkpt lat="56.2896148" lon="44.0166531"><time>2023-05-10T16:29:51</time></trkpt><trkpt lat="56.2896364" lon="44.0166151"><time>2023-05-10T16:29:52</time></trkpt><trkpt lat="56.2896586" lon="44.0165815"><time>2023-05-10T16:29:53</time></trkpt><trkpt lat="56.2896778" lon="44.0165386"><time>2023-05-10T16:29:54</time></trkpt><trkpt lat="56.2897035" lon="44.0164943"><time>2023-05-10T16:29:55</time></trkpt><trkpt lat="56.2897264" lon="44.0164594"><time>2023-05-10T16:29:56</time></trkpt><trkpt lat="56.2897456" lon="44.0164300"><time>2023-05-10T16:29:57</time></trkpt><trkpt lat="56.2897713" lon="44.0164030"><time>2023-05-10T16:29:58</time></trkpt><trkpt lat="56.2897961" lon="44.0163753"><time>2023-05-10T16:29:59</time></trkpt><trkpt lat="56.2898216" lon="44.0163485"><time>2023-05-10T16:30:00</time></trkpt><trkpt lat="56.2898518" lon="44.0163212"><time>2023-05-10T16:30:01</time></trkpt><trkpt lat="56.2898777" lon="44.0162967"><time>2023-05-10T16:30:02</time></trkpt><trkpt lat="56.2899042" lon="44.0162714"><time>2023-05-10T16:30:03</time></trkpt><trkpt lat="56.2899336" lon="44.0162467"><time>2023-05-10T16:30:04</time></trkpt><trkpt lat="56.2899583" lon="44.0162189"><time>2023-05-10T16:30:05</time></trkpt><trkpt lat="56.2899758" lon="44.0161952"><time>2023-05-10T16:30:06</time></trkpt><trkpt lat="56.2899858" lon="44.0161729"><time>2023-05-10T16:30:07</time></trkpt><trkpt lat="56.2899959" lon="44.0161563"><time>2023-05-10T16:30:08</time></trkpt><trkpt lat="56.2900030" lon="44.0161473"><time>2023-05-10T16:30:09</time></trkpt></trkseg></trk></gpx>